<?xml version='1.0' encoding='UTF-8'?><gpx version="1.1" creator="JPX - https://github.com/jenetics/jpx" xmlns="http://www.topografix.com/GPX/1/1"><trk><trkseg><trkpt lat="45.4000525" lon="10.5425367"><ele>131.0</ele><time>2026-03-30T13:13:08.096Z</time></trkpt><trkpt lat="45.4001278" lon="10.5424972"><ele>131.0</ele><time>2026-03-30T13:13:11.097Z</time></trkpt><trkpt lat="45.4002612" lon="10.54248"><ele>131.0</ele><time>2026-03-30T13:13:13.098Z</time></trkpt><trkpt lat="45.400352" lon="10.5424643"><ele>131.0</ele><time>2026-03-30T13:13:14.097Z</time></trkpt><trkpt lat="45.4004343" lon="10.5424283"><ele>131.0</ele><time>2026-03-30T13:13:15.098Z</time></trkpt><trkpt lat="45.4004972" lon="10.542405"><ele>131.83333333333331</ele><time>2026-03-30T13:13:16.097Z</time></trkpt><trkpt lat="45.4005795" lon="10.5423705"><ele>132.66666666666666</ele><time>2026-03-30T13:13:18.097Z</time></trkpt><trkpt lat="45.4006332" lon="10.5423165"><ele>133.5</ele><time>2026-03-30T13:13:20.098Z</time></trkpt><trkpt lat="45.400694" lon="10.5422747"><ele>134.33333333333334</ele><time>2026-03-30T13:13:21.097Z</time></trkpt><trkpt lat="45.4007785" lon="10.5422248"><ele>135.16666666666669</ele><time>2026-03-30T13:13:22.101Z</time></trkpt><trkpt lat="45.400879" lon="10.5421908"><ele>136.0</ele><time>2026-03-30T13:13:23.097Z</time></trkpt><trkpt lat="45.4009793" lon="10.5421675"><ele>136.0</ele><time>2026-03-30T13:13:24.098Z</time></trkpt><trkpt lat="45.4010587" lon="10.5421667"><ele>136.0</ele><time>2026-03-30T13:13:25.097Z</time></trkpt><trkpt lat="45.4011403" lon="10.5421762"><ele>136.0</ele><time>2026-03-30T13:13:26.096Z</time></trkpt><trkpt lat="45.4012273" lon="10.5421947"><ele>136.0</ele><time>2026-03-30T13:13:27.098Z</time></trkpt><trkpt lat="45.4013117" lon="10.5422103"><ele>136.0</ele><time>2026-03-30T13:13:28.1Z</time></trkpt><trkpt lat="45.4013823" lon="10.5422027"><ele>136.0</ele><time>2026-03-30T13:13:29.098Z</time></trkpt><trkpt lat="45.4014392" lon="10.5421607"><ele>136.0</ele><time>2026-03-30T13:13:34.098Z</time></trkpt><trkpt lat="45.4014473" lon="10.5420647"><ele>136.0</ele><time>2026-03-30T13:13:45.095Z</time></trkpt><trkpt lat="45.4014332" lon="10.541945"><ele>136.0</ele><time>2026-03-30T13:13:47.099Z</time></trkpt><trkpt lat="45.401435" lon="10.5418222"><ele>136.0</ele><time>2026-03-30T13:13:49.099Z</time></trkpt><trkpt lat="45.4014597" lon="10.5417037"><ele>136.0</ele><time>2026-03-30T13:13:51.096Z</time></trkpt><trkpt lat="45.4015042" lon="10.5416268"><ele>136.0</ele><time>2026-03-30T13:13:53.099Z</time></trkpt><trkpt lat="45.4015587" lon="10.5415795"><ele>136.0</ele><time>2026-03-30T13:13:55.109Z</time></trkpt><trkpt lat="45.4016498" lon="10.5415785"><ele>136.0</ele><time>2026-03-30T13:13:58.095Z</time></trkpt><trkpt lat="45.4017205" lon="10.5415555"><ele>136.0</ele><time>2026-03-30T13:14:01.113Z</time></trkpt><trkpt lat="45.4018033" lon="10.5415108"><ele>136.0</ele><time>2026-03-30T13:14:04.095Z</time></trkpt><trkpt lat="45.4018752" lon="10.5414978"><ele>136.0</ele><time>2026-03-30T13:14:06.098Z</time></trkpt><trkpt lat="45.401947" lon="10.5415068"><ele>136.0</ele><time>2026-03-30T13:14:08.096Z</time></trkpt><trkpt lat="45.4020308" lon="10.541542"><ele>136.0</ele><time>2026-03-30T13:14:11.096Z</time></trkpt><trkpt lat="45.4021245" lon="10.5415678"><ele>136.0</ele><time>2026-03-30T13:14:13.096Z</time></trkpt><trkpt lat="45.4021868" lon="10.5415903"><ele>136.0</ele><time>2026-03-30T13:14:14.119Z</time></trkpt><trkpt lat="45.4022513" lon="10.5416037"><ele>136.0</ele><time>2026-03-30T13:14:15.096Z</time></trkpt><trkpt lat="45.4023572" lon="10.541607"><ele>136.0</ele><time>2026-03-30T13:14:17.096Z</time></trkpt><trkpt lat="45.4024313" lon="10.5416395"><ele>136.0</ele><time>2026-03-30T13:14:19.096Z</time></trkpt><trkpt lat="45.4025202" lon="10.5416617"><ele>136.4</ele><time>2026-03-30T13:14:21.094Z</time></trkpt><trkpt lat="45.4026222" lon="10.5416683"><ele>136.8</ele><time>2026-03-30T13:14:23.095Z</time></trkpt><trkpt lat="45.4026877" lon="10.5416817"><ele>137.20000000000002</ele><time>2026-03-30T13:14:24.122Z</time></trkpt><trkpt lat="45.4028028" lon="10.5416797"><ele>137.6</ele><time>2026-03-30T13:14:26.099Z</time></trkpt><trkpt lat="45.4029195" lon="10.5416272"><ele>138.0</ele><time>2026-03-30T13:14:28.096Z</time></trkpt><trkpt lat="45.4030187" lon="10.5415977"><ele>138.0</ele><time>2026-03-30T13:14:30.097Z</time></trkpt><trkpt lat="45.403116" lon="10.5415762"><ele>138.0</ele><time>2026-03-30T13:14:32.098Z</time></trkpt><trkpt lat="45.4032465" lon="10.5415563"><ele>138.0</ele><time>2026-03-30T13:14:34.096Z</time></trkpt><trkpt lat="45.403323" lon="10.5415522"><ele>138.0</ele><time>2026-03-30T13:14:35.096Z</time></trkpt><trkpt lat="45.4034017" lon="10.5415577"><ele>138.0</ele><time>2026-03-30T13:14:36.099Z</time></trkpt><trkpt lat="45.4034812" lon="10.5415563"><ele>138.0</ele><time>2026-03-30T13:14:37.095Z</time></trkpt><trkpt lat="45.4035457" lon="10.5415553"><ele>138.0</ele><time>2026-03-30T13:14:38.101Z</time></trkpt><trkpt lat="45.4036328" lon="10.5415868"><ele>138.0</ele><time>2026-03-30T13:14:40.098Z</time></trkpt><trkpt lat="45.4037078" lon="10.541614"><ele>138.0</ele><time>2026-03-30T13:14:42.099Z</time></trkpt><trkpt lat="45.403819" lon="10.5416455"><ele>138.0</ele><time>2026-03-30T13:14:44.095Z</time></trkpt><trkpt lat="45.403933" lon="10.5416463"><ele>138.0</ele><time>2026-03-30T13:14:46.093Z</time></trkpt><trkpt lat="45.4039987" lon="10.5416497"><ele>138.0</ele><time>2026-03-30T13:14:47.096Z</time></trkpt><trkpt lat="45.4040828" lon="10.541651"><ele>138.0</ele><time>2026-03-30T13:14:48.097Z</time></trkpt><trkpt lat="45.4041572" lon="10.5416522"><ele>138.0</ele><time>2026-03-30T13:14:49.098Z</time></trkpt><trkpt lat="45.4042642" lon="10.5416403"><ele>138.0</ele><time>2026-03-30T13:14:51.098Z</time></trkpt><trkpt lat="45.4043505" lon="10.5416483"><ele>138.0</ele><time>2026-03-30T13:14:53.097Z</time></trkpt><trkpt lat="45.4044288" lon="10.5416612"><ele>138.0</ele><time>2026-03-30T13:14:55.094Z</time></trkpt><trkpt lat="45.4045243" lon="10.5416675"><ele>138.0</ele><time>2026-03-30T13:14:57.095Z</time></trkpt><trkpt lat="45.404631" lon="10.5416958"><ele>138.0</ele><time>2026-03-30T13:14:59.097Z</time></trkpt><trkpt lat="45.4047513" lon="10.5417175"><ele>138.0</ele><time>2026-03-30T13:15:01.097Z</time></trkpt><trkpt lat="45.4048655" lon="10.5417465"><ele>138.0</ele><time>2026-03-30T13:15:03.099Z</time></trkpt><trkpt lat="45.404966" lon="10.5417563"><ele>138.5</ele><time>2026-03-30T13:15:05.097Z</time></trkpt><trkpt lat="45.4050628" lon="10.5417598"><ele>139.0</ele><time>2026-03-30T13:15:07.095Z</time></trkpt><trkpt lat="45.4051753" lon="10.5417805"><ele>139.5</ele><time>2026-03-30T13:15:09.095Z</time></trkpt><trkpt lat="45.4052512" lon="10.541786"><ele>140.0</ele><time>2026-03-30T13:15:11.095Z</time></trkpt><trkpt lat="45.4053157" lon="10.5417895"><ele>140.5</ele><time>2026-03-30T13:15:19.096Z</time></trkpt><trkpt lat="45.4053965" lon="10.5418002"><ele>141.0</ele><time>2026-03-30T13:15:21.098Z</time></trkpt><trkpt lat="45.4055063" lon="10.5418368"><ele>141.4</ele><time>2026-03-30T13:15:23.096Z</time></trkpt><trkpt lat="45.4056278" lon="10.5418642"><ele>141.8</ele><time>2026-03-30T13:15:25.097Z</time></trkpt><trkpt lat="45.4057452" lon="10.5418915"><ele>142.20000000000002</ele><time>2026-03-30T13:15:27.097Z</time></trkpt><trkpt lat="45.4058697" lon="10.541913"><ele>142.6</ele><time>2026-03-30T13:15:29.097Z</time></trkpt><trkpt lat="45.4059412" lon="10.5419267"><ele>143.0</ele><time>2026-03-30T13:15:30.1Z</time></trkpt><trkpt lat="45.4060173" lon="10.5419358"><ele>143.0</ele><time>2026-03-30T13:15:31.095Z</time></trkpt><trkpt lat="45.4060928" lon="10.5419533"><ele>143.0</ele><time>2026-03-30T13:15:32.096Z</time></trkpt><trkpt lat="45.4061685" lon="10.541976"><ele>143.0</ele><time>2026-03-30T13:15:33.094Z</time></trkpt><trkpt lat="45.4062478" lon="10.5419953"><ele>143.0</ele><time>2026-03-30T13:15:34.098Z</time></trkpt><trkpt lat="45.406328" lon="10.5420153"><ele>143.0</ele><time>2026-03-30T13:15:35.094Z</time></trkpt><trkpt lat="45.4064083" lon="10.5420333"><ele>143.0</ele><time>2026-03-30T13:15:36.096Z</time></trkpt><trkpt lat="45.4064872" lon="10.5420485"><ele>142.20000000000002</ele><time>2026-03-30T13:15:37.096Z</time></trkpt><trkpt lat="45.4065582" lon="10.5420632"><ele>141.4</ele><time>2026-03-30T13:15:38.097Z</time></trkpt><trkpt lat="45.4066628" lon="10.5420807"><ele>140.60000000000002</ele><time>2026-03-30T13:15:40.096Z</time></trkpt><trkpt lat="45.406759" lon="10.5421065"><ele>139.8</ele><time>2026-03-30T13:15:42.097Z</time></trkpt><trkpt lat="45.4068693" lon="10.5421155"><ele>139.0</ele><time>2026-03-30T13:15:44.096Z</time></trkpt><trkpt lat="45.4069905" lon="10.542149"><ele>139.0</ele><time>2026-03-30T13:15:46.097Z</time></trkpt><trkpt lat="45.407056" lon="10.5421725"><ele>139.0</ele><time>2026-03-30T13:15:47.099Z</time></trkpt><trkpt lat="45.4071228" lon="10.5421993"><ele>139.0</ele><time>2026-03-30T13:15:48.101Z</time></trkpt><trkpt lat="45.407189" lon="10.5422287"><ele>139.0</ele><time>2026-03-30T13:15:49.097Z</time></trkpt><trkpt lat="45.4072973" lon="10.5422595"><ele>139.0</ele><time>2026-03-30T13:15:51.096Z</time></trkpt><trkpt lat="45.4073947" lon="10.54227"><ele>139.0</ele><time>2026-03-30T13:15:53.095Z</time></trkpt><trkpt lat="45.4074962" lon="10.542308"><ele>139.5</ele><time>2026-03-30T13:15:55.097Z</time></trkpt><trkpt lat="45.4075962" lon="10.5423185"><ele>140.0</ele><time>2026-03-30T13:15:57.095Z</time></trkpt><trkpt lat="45.407674" lon="10.5423162"><ele>140.5</ele><time>2026-03-30T13:15:59.096Z</time></trkpt><trkpt lat="45.4077568" lon="10.5423402"><ele>141.0</ele><time>2026-03-30T13:16:02.096Z</time></trkpt><trkpt lat="45.4078273" lon="10.542358"><ele>141.5</ele><time>2026-03-30T13:16:04.094Z</time></trkpt><trkpt lat="45.4079045" lon="10.5423547"><ele>142.0</ele><time>2026-03-30T13:16:06.096Z</time></trkpt><trkpt lat="45.4079933" lon="10.542355"><ele>142.83333333333334</ele><time>2026-03-30T13:16:08.096Z</time></trkpt><trkpt lat="45.4080632" lon="10.5423703"><ele>143.66666666666669</ele><time>2026-03-30T13:16:14.096Z</time></trkpt><trkpt lat="45.408126" lon="10.5423863"><ele>144.5</ele><time>2026-03-30T13:16:18.095Z</time></trkpt><trkpt lat="45.40821" lon="10.5423865"><ele>145.33333333333334</ele><time>2026-03-30T13:16:22.093Z</time></trkpt><trkpt lat="45.4083018" lon="10.5423732"><ele>146.16666666666666</ele><time>2026-03-30T13:16:26.095Z</time></trkpt><trkpt lat="45.4083683" lon="10.5423548"><ele>147.0</ele><time>2026-03-30T13:16:28.094Z</time></trkpt><trkpt lat="45.4084513" lon="10.5423283"><ele>147.0</ele><time>2026-03-30T13:16:31.094Z</time></trkpt><trkpt lat="45.4085342" lon="10.5422553"><ele>147.0</ele><time>2026-03-30T13:16:35.095Z</time></trkpt><trkpt lat="45.4086098" lon="10.5421575"><ele>147.0</ele><time>2026-03-30T13:16:37.096Z</time></trkpt><trkpt lat="45.4087325" lon="10.5421338"><ele>147.0</ele><time>2026-03-30T13:18:15.095Z</time></trkpt><trkpt lat="45.4088307" lon="10.5421615"><ele>147.0</ele><time>2026-03-30T13:19:15.095Z</time></trkpt><trkpt lat="45.4089217" lon="10.5422302"><ele>146.66666666666666</ele><time>2026-03-30T13:19:16.096Z</time></trkpt><trkpt lat="45.4090167" lon="10.5423087"><ele>146.33333333333334</ele><time>2026-03-30T13:19:17.095Z</time></trkpt><trkpt lat="45.4090997" lon="10.5423727"><ele>146.0</ele><time>2026-03-30T13:19:18.095Z</time></trkpt><trkpt lat="45.4091787" lon="10.5424225"><ele>145.66666666666669</ele><time>2026-03-30T13:19:19.093Z</time></trkpt><trkpt lat="45.409257" lon="10.5424588"><ele>145.33333333333334</ele><time>2026-03-30T13:19:20.096Z</time></trkpt><trkpt lat="45.409331" lon="10.542476"><ele>145.0</ele><time>2026-03-30T13:19:21.097Z</time></trkpt><trkpt lat="45.409411" lon="10.5424805"><ele>145.0</ele><time>2026-03-30T13:19:22.096Z</time></trkpt><trkpt lat="45.4095032" lon="10.54248"><ele>145.0</ele><time>2026-03-30T13:19:23.096Z</time></trkpt><trkpt lat="45.4096028" lon="10.542454"><ele>145.0</ele><time>2026-03-30T13:19:24.097Z</time></trkpt><trkpt lat="45.4097013" lon="10.5424068"><ele>145.0</ele><time>2026-03-30T13:19:25.097Z</time></trkpt><trkpt lat="45.409812" lon="10.5423388"><ele>145.0</ele><time>2026-03-30T13:19:26.098Z</time></trkpt><trkpt lat="45.4099312" lon="10.5422617"><ele>145.0</ele><time>2026-03-30T13:19:27.097Z</time></trkpt><trkpt lat="45.410032" lon="10.5421882"><ele>145.0</ele><time>2026-03-30T13:19:28.094Z</time></trkpt><trkpt lat="45.410117" lon="10.5421217"><ele>145.0</ele><time>2026-03-30T13:19:29.095Z</time></trkpt><trkpt lat="45.4101812" lon="10.5420693"><ele>145.0</ele><time>2026-03-30T13:19:30.096Z</time></trkpt><trkpt lat="45.4102558" lon="10.5420423"><ele>145.0</ele><time>2026-03-30T13:19:32.095Z</time></trkpt><trkpt lat="45.4103278" lon="10.542067"><ele>145.0</ele><time>2026-03-30T13:19:41.096Z</time></trkpt><trkpt lat="45.4104355" lon="10.5421098"><ele>142.0</ele><time>2026-03-30T13:19:44.094Z</time></trkpt><trkpt lat="45.410502" lon="10.5421502"><ele>139.0</ele><time>2026-03-30T13:19:46.094Z</time></trkpt><trkpt lat="45.410573" lon="10.5422282"><ele>136.0</ele><time>2026-03-30T13:19:49.094Z</time></trkpt><trkpt lat="45.4106223" lon="10.5423043"><ele>133.0</ele><time>2026-03-30T13:19:51.098Z</time></trkpt><trkpt lat="45.4106825" lon="10.5423468"><ele>130.0</ele><time>2026-03-30T13:19:53.094Z</time></trkpt><trkpt lat="45.41072" lon="10.5424312"><ele>127.0</ele><time>2026-03-30T13:19:56.095Z</time></trkpt><trkpt lat="45.4107993" lon="10.5425257"><ele>127.0</ele><time>2026-03-30T13:21:39.097Z</time></trkpt><trkpt lat="45.4108608" lon="10.5426073"><ele>127.0</ele><time>2026-03-30T13:21:43.101Z</time></trkpt><trkpt lat="45.4110438" lon="10.5424705"><ele>127.0</ele><time>2026-03-30T13:21:46.097Z</time></trkpt><trkpt lat="45.4111337" lon="10.5423993"><ele>127.0</ele><time>2026-03-30T13:21:47.098Z</time></trkpt><trkpt lat="45.4112295" lon="10.54232"><ele>127.00000000000001</ele><time>2026-03-30T13:21:48.098Z</time></trkpt><trkpt lat="45.4113082" lon="10.5422523"><ele>127.0</ele><time>2026-03-30T13:21:49.096Z</time></trkpt><trkpt lat="45.4113727" lon="10.5422015"><ele>127.0</ele><time>2026-03-30T13:21:50.097Z</time></trkpt><trkpt lat="45.4114442" lon="10.5421933"><ele>127.0</ele><time>2026-03-30T13:21:52.101Z</time></trkpt><trkpt lat="45.4115078" lon="10.5422612"><ele>127.00000000000001</ele><time>2026-03-30T13:21:54.098Z</time></trkpt><trkpt lat="45.4115565" lon="10.5423618"><ele>127.0</ele><time>2026-03-30T13:21:57.098Z</time></trkpt><trkpt lat="45.4115148" lon="10.5424833"><ele>126.8</ele><time>2026-03-30T13:21:59.097Z</time></trkpt><trkpt lat="45.4114637" lon="10.5425798"><ele>126.6</ele><time>2026-03-30T13:22:00.097Z</time></trkpt><trkpt lat="45.4114088" lon="10.5426983"><ele>126.39999999999999</ele><time>2026-03-30T13:22:01.095Z</time></trkpt><trkpt lat="45.4113485" lon="10.5428308"><ele>126.19999999999999</ele><time>2026-03-30T13:22:02.098Z</time></trkpt><trkpt lat="45.4112847" lon="10.542972"><ele>126.0</ele><time>2026-03-30T13:22:03.095Z</time></trkpt><trkpt lat="45.4112223" lon="10.5431243"><ele>125.0</ele><time>2026-03-30T13:22:04.094Z</time></trkpt><trkpt lat="45.411165" lon="10.5432872"><ele>124.0</ele><time>2026-03-30T13:22:05.094Z</time></trkpt><trkpt lat="45.4111147" lon="10.5434627"><ele>123.0</ele><time>2026-03-30T13:22:06.093Z</time></trkpt><trkpt lat="45.4110722" lon="10.5436473"><ele>122.0</ele><time>2026-03-30T13:22:07.094Z</time></trkpt><trkpt lat="45.4110218" lon="10.5438285"><ele>122.0</ele><time>2026-03-30T13:22:08.097Z</time></trkpt><trkpt lat="45.4109543" lon="10.5439963"><ele>122.0</ele><time>2026-03-30T13:22:09.095Z</time></trkpt><trkpt lat="45.4108703" lon="10.544145"><ele>122.0</ele><time>2026-03-30T13:22:10.099Z</time></trkpt><trkpt lat="45.410774" lon="10.5442713"><ele>122.0</ele><time>2026-03-30T13:22:11.094Z</time></trkpt><trkpt lat="45.4106747" lon="10.544388"><ele>122.0</ele><time>2026-03-30T13:22:12.095Z</time></trkpt><trkpt lat="45.4105762" lon="10.5445063"><ele>122.0</ele><time>2026-03-30T13:22:13.095Z</time></trkpt><trkpt lat="45.4104767" lon="10.5446233"><ele>122.0</ele><time>2026-03-30T13:22:14.095Z</time></trkpt><trkpt lat="45.410379" lon="10.5447427"><ele>122.0</ele><time>2026-03-30T13:22:15.096Z</time></trkpt><trkpt lat="45.4102805" lon="10.5448617"><ele>121.75</ele><time>2026-03-30T13:22:16.096Z</time></trkpt><trkpt lat="45.4101813" lon="10.5449788"><ele>121.5</ele><time>2026-03-30T13:22:17.096Z</time></trkpt><trkpt lat="45.4100803" lon="10.5450955"><ele>121.25</ele><time>2026-03-30T13:22:18.099Z</time></trkpt><trkpt lat="45.4099783" lon="10.5452112"><ele>121.0</ele><time>2026-03-30T13:22:19.096Z</time></trkpt><trkpt lat="45.4098753" lon="10.5453267"><ele>121.25</ele><time>2026-03-30T13:22:20.099Z</time></trkpt><trkpt lat="45.4097717" lon="10.5454415"><ele>121.5</ele><time>2026-03-30T13:22:21.097Z</time></trkpt><trkpt lat="45.4096657" lon="10.5455562"><ele>121.75</ele><time>2026-03-30T13:22:22.099Z</time></trkpt><trkpt lat="45.4095538" lon="10.5456603"><ele>122.0</ele><time>2026-03-30T13:22:23.096Z</time></trkpt><trkpt lat="45.409434" lon="10.5457462"><ele>120.0</ele><time>2026-03-30T13:22:24.097Z</time></trkpt><trkpt lat="45.4093065" lon="10.5458145"><ele>118.0</ele><time>2026-03-30T13:22:25.095Z</time></trkpt><trkpt lat="45.409175" lon="10.5458605"><ele>116.0</ele><time>2026-03-30T13:22:26.096Z</time></trkpt><trkpt lat="45.4090408" lon="10.5458808"><ele>114.0</ele><time>2026-03-30T13:22:27.096Z</time></trkpt><trkpt lat="45.4087737" lon="10.5458607"><ele>113.5</ele><time>2026-03-30T13:22:29.095Z</time></trkpt><trkpt lat="45.4086425" lon="10.5458373"><ele>113.0</ele><time>2026-03-30T13:22:30.092Z</time></trkpt><trkpt lat="45.408513" lon="10.5458142"><ele>112.5</ele><time>2026-03-30T13:22:31.094Z</time></trkpt><trkpt lat="45.4083852" lon="10.5457957"><ele>112.0</ele><time>2026-03-30T13:22:32.095Z</time></trkpt><trkpt lat="45.4082618" lon="10.545783"><ele>112.0</ele><time>2026-03-30T13:22:33.096Z</time></trkpt><trkpt lat="45.4081487" lon="10.5457805"><ele>111.99999999999999</ele><time>2026-03-30T13:22:34.097Z</time></trkpt><trkpt lat="45.4080453" lon="10.5457927"><ele>111.99999999999999</ele><time>2026-03-30T13:22:35.096Z</time></trkpt><trkpt lat="45.4079462" lon="10.5458247"><ele>112.0</ele><time>2026-03-30T13:22:36.096Z</time></trkpt><trkpt lat="45.4078512" lon="10.545862"><ele>112.0</ele><time>2026-03-30T13:22:37.095Z</time></trkpt><trkpt lat="45.4077572" lon="10.5458883"><ele>112.0</ele><time>2026-03-30T13:22:38.096Z</time></trkpt><trkpt lat="45.4076665" lon="10.545911"><ele>111.99999999999999</ele><time>2026-03-30T13:22:39.095Z</time></trkpt><trkpt lat="45.4075765" lon="10.5459328"><ele>111.99999999999999</ele><time>2026-03-30T13:22:40.095Z</time></trkpt><trkpt lat="45.4074872" lon="10.5459542"><ele>112.0</ele><time>2026-03-30T13:22:41.096Z</time></trkpt><trkpt lat="45.4073982" lon="10.5459747"><ele>112.0</ele><time>2026-03-30T13:22:42.099Z</time></trkpt><trkpt lat="45.4073118" lon="10.5460027"><ele>112.00000000000001</ele><time>2026-03-30T13:22:43.097Z</time></trkpt><trkpt lat="45.4072293" lon="10.5460433"><ele>112.0</ele><time>2026-03-30T13:22:44.096Z</time></trkpt><trkpt lat="45.4071518" lon="10.5460967"><ele>112.0</ele><time>2026-03-30T13:22:45.099Z</time></trkpt><trkpt lat="45.4070787" lon="10.546161"><ele>112.0</ele><time>2026-03-30T13:22:46.098Z</time></trkpt><trkpt lat="45.4070082" lon="10.5462325"><ele>112.00000000000001</ele><time>2026-03-30T13:22:47.096Z</time></trkpt><trkpt lat="45.4069415" lon="10.5463098"><ele>112.0</ele><time>2026-03-30T13:22:48.094Z</time></trkpt><trkpt lat="45.4068752" lon="10.5463905"><ele>112.8</ele><time>2026-03-30T13:22:49.097Z</time></trkpt><trkpt lat="45.4068083" lon="10.5464727"><ele>113.6</ele><time>2026-03-30T13:22:50.095Z</time></trkpt><trkpt lat="45.406741" lon="10.5465582"><ele>114.39999999999999</ele><time>2026-03-30T13:22:51.096Z</time></trkpt><trkpt lat="45.406674" lon="10.5466468"><ele>115.19999999999999</ele><time>2026-03-30T13:22:52.097Z</time></trkpt><trkpt lat="45.4066052" lon="10.5467353"><ele>116.0</ele><time>2026-03-30T13:22:53.094Z</time></trkpt><trkpt lat="45.406535" lon="10.5468242"><ele>116.0</ele><time>2026-03-30T13:22:54.095Z</time></trkpt><trkpt lat="45.4064625" lon="10.546909"><ele>116.0</ele><time>2026-03-30T13:22:55.093Z</time></trkpt><trkpt lat="45.406388" lon="10.5469923"><ele>116.0</ele><time>2026-03-30T13:22:56.096Z</time></trkpt><trkpt lat="45.4063112" lon="10.5470665"><ele>116.0</ele><time>2026-03-30T13:22:57.093Z</time></trkpt><trkpt lat="45.406231" lon="10.547127"><ele>116.0</ele><time>2026-03-30T13:22:58.095Z</time></trkpt><trkpt lat="45.4061525" lon="10.5471795"><ele>116.99999999999999</ele><time>2026-03-30T13:22:59.096Z</time></trkpt><trkpt lat="45.4060747" lon="10.5472225"><ele>118.0</ele><time>2026-03-30T13:23:00.095Z</time></trkpt><trkpt lat="45.4059945" lon="10.5472565"><ele>119.0</ele><time>2026-03-30T13:23:01.095Z</time></trkpt><trkpt lat="45.4059148" lon="10.5472887"><ele>120.0</ele><time>2026-03-30T13:23:02.095Z</time></trkpt><trkpt lat="45.4058333" lon="10.5473235"><ele>120.99999999999999</ele><time>2026-03-30T13:23:03.098Z</time></trkpt><trkpt lat="45.4057518" lon="10.5473588"><ele>122.0</ele><time>2026-03-30T13:23:04.096Z</time></trkpt><trkpt lat="45.40567" lon="10.5473943"><ele>121.99999999999999</ele><time>2026-03-30T13:23:05.096Z</time></trkpt><trkpt lat="45.4055878" lon="10.5474313"><ele>122.0</ele><time>2026-03-30T13:23:06.098Z</time></trkpt><trkpt lat="45.4055067" lon="10.5474727"><ele>122.0</ele><time>2026-03-30T13:23:07.096Z</time></trkpt><trkpt lat="45.4054248" lon="10.5475223"><ele>122.0</ele><time>2026-03-30T13:23:08.096Z</time></trkpt><trkpt lat="45.4053425" lon="10.5475797"><ele>121.99999999999999</ele><time>2026-03-30T13:23:09.096Z</time></trkpt><trkpt lat="45.40526" lon="10.5476433"><ele>122.0</ele><time>2026-03-30T13:23:10.096Z</time></trkpt><trkpt lat="45.4051775" lon="10.5477105"><ele>122.19999999999999</ele><time>2026-03-30T13:23:11.095Z</time></trkpt><trkpt lat="45.4050937" lon="10.5477785"><ele>122.39999999999999</ele><time>2026-03-30T13:23:12.094Z</time></trkpt><trkpt lat="45.4050097" lon="10.5478488"><ele>122.60000000000001</ele><time>2026-03-30T13:23:13.098Z</time></trkpt><trkpt lat="45.4049267" lon="10.5479195"><ele>122.80000000000001</ele><time>2026-03-30T13:23:14.098Z</time></trkpt><trkpt lat="45.4048438" lon="10.5479902"><ele>123.0</ele><time>2026-03-30T13:23:15.097Z</time></trkpt><trkpt lat="45.4047607" lon="10.548058"><ele>123.0</ele><time>2026-03-30T13:23:16.096Z</time></trkpt><trkpt lat="45.4046785" lon="10.5481263"><ele>123.00000000000001</ele><time>2026-03-30T13:23:17.096Z</time></trkpt><trkpt lat="45.4045963" lon="10.5481967"><ele>123.00000000000001</ele><time>2026-03-30T13:23:18.094Z</time></trkpt><trkpt lat="45.4045143" lon="10.548266"><ele>123.0</ele><time>2026-03-30T13:23:19.093Z</time></trkpt><trkpt lat="45.4044302" lon="10.548336"><ele>123.0</ele><time>2026-03-30T13:23:20.093Z</time></trkpt><trkpt lat="45.4043463" lon="10.5484067"><ele>122.80000000000001</ele><time>2026-03-30T13:23:21.095Z</time></trkpt><trkpt lat="45.4042642" lon="10.548477"><ele>122.60000000000001</ele><time>2026-03-30T13:23:22.095Z</time></trkpt><trkpt lat="45.4041837" lon="10.5485478"><ele>122.39999999999999</ele><time>2026-03-30T13:23:23.098Z</time></trkpt><trkpt lat="45.4041063" lon="10.5486208"><ele>122.19999999999999</ele><time>2026-03-30T13:23:24.097Z</time></trkpt><trkpt lat="45.4040312" lon="10.548699"><ele>122.0</ele><time>2026-03-30T13:23:25.095Z</time></trkpt><trkpt lat="45.4039593" lon="10.548781"><ele>122.0</ele><time>2026-03-30T13:23:26.096Z</time></trkpt><trkpt lat="45.4038927" lon="10.5488682"><ele>122.0</ele><time>2026-03-30T13:23:27.095Z</time></trkpt><trkpt lat="45.4037557" lon="10.5490553"><ele>122.0</ele><time>2026-03-30T13:23:29.095Z</time></trkpt><trkpt lat="45.4036828" lon="10.5491452"><ele>122.0</ele><time>2026-03-30T13:23:30.096Z</time></trkpt><trkpt lat="45.403604" lon="10.5492248"><ele>121.0</ele><time>2026-03-30T13:23:31.098Z</time></trkpt><trkpt lat="45.40352" lon="10.5492933"><ele>119.99999999999999</ele><time>2026-03-30T13:23:32.096Z</time></trkpt><trkpt lat="45.4034328" lon="10.5493512"><ele>118.99999999999999</ele><time>2026-03-30T13:23:33.097Z</time></trkpt><trkpt lat="45.4033437" lon="10.5494022"><ele>118.0</ele><time>2026-03-30T13:23:34.093Z</time></trkpt><trkpt lat="45.4032515" lon="10.549444"><ele>117.0</ele><time>2026-03-30T13:23:35.095Z</time></trkpt><trkpt lat="45.4031573" lon="10.5494685"><ele>117.0</ele><time>2026-03-30T13:23:36.093Z</time></trkpt><trkpt lat="45.403062" lon="10.5494747"><ele>116.99999999999999</ele><time>2026-03-30T13:23:37.093Z</time></trkpt><trkpt lat="45.402969" lon="10.5494643"><ele>116.99999999999999</ele><time>2026-03-30T13:23:38.095Z</time></trkpt><trkpt lat="45.4028767" lon="10.5494447"><ele>117.0</ele><time>2026-03-30T13:23:39.096Z</time></trkpt><trkpt lat="45.4027797" lon="10.5494312"><ele>117.0</ele><time>2026-03-30T13:23:40.094Z</time></trkpt><trkpt lat="45.4026822" lon="10.5494322"><ele>117.19999999999999</ele><time>2026-03-30T13:23:41.095Z</time></trkpt><trkpt lat="45.4025898" lon="10.5494518"><ele>117.39999999999999</ele><time>2026-03-30T13:23:42.096Z</time></trkpt><trkpt lat="45.4025033" lon="10.5494918"><ele>117.60000000000001</ele><time>2026-03-30T13:23:43.093Z</time></trkpt><trkpt lat="45.4024207" lon="10.5495498"><ele>117.80000000000001</ele><time>2026-03-30T13:23:44.096Z</time></trkpt><trkpt lat="45.4023407" lon="10.549624"><ele>118.0</ele><time>2026-03-30T13:23:45.093Z</time></trkpt><trkpt lat="45.4022648" lon="10.5497073"><ele>118.0</ele><time>2026-03-30T13:23:46.092Z</time></trkpt><trkpt lat="45.4021937" lon="10.5497948"><ele>118.00000000000001</ele><time>2026-03-30T13:23:47.096Z</time></trkpt><trkpt lat="45.4021193" lon="10.5498825"><ele>118.00000000000001</ele><time>2026-03-30T13:23:48.094Z</time></trkpt><trkpt lat="45.402048" lon="10.5499792"><ele>118.0</ele><time>2026-03-30T13:23:49.094Z</time></trkpt><trkpt lat="45.4019792" lon="10.5500752"><ele>118.0</ele><time>2026-03-30T13:23:50.098Z</time></trkpt><trkpt lat="45.4019087" lon="10.5501727"><ele>117.80000000000001</ele><time>2026-03-30T13:23:51.096Z</time></trkpt><trkpt lat="45.4018385" lon="10.5502728"><ele>117.60000000000001</ele><time>2026-03-30T13:23:52.092Z</time></trkpt><trkpt lat="45.4017692" lon="10.550369"><ele>117.39999999999999</ele><time>2026-03-30T13:23:53.093Z</time></trkpt><trkpt lat="45.4016943" lon="10.5504668"><ele>117.19999999999999</ele><time>2026-03-30T13:23:54.095Z</time></trkpt><trkpt lat="45.4016202" lon="10.5505652"><ele>117.0</ele><time>2026-03-30T13:23:55.094Z</time></trkpt><trkpt lat="45.4015455" lon="10.5506632"><ele>117.0</ele><time>2026-03-30T13:23:56.112Z</time></trkpt><trkpt lat="45.4014685" lon="10.5507587"><ele>116.99999999999999</ele><time>2026-03-30T13:23:57.095Z</time></trkpt><trkpt lat="45.401394" lon="10.5508475"><ele>116.99999999999999</ele><time>2026-03-30T13:23:58.095Z</time></trkpt><trkpt lat="45.4013133" lon="10.550924"><ele>117.0</ele><time>2026-03-30T13:23:59.098Z</time></trkpt><trkpt lat="45.4012242" lon="10.550983"><ele>117.0</ele><time>2026-03-30T13:24:00.094Z</time></trkpt><trkpt lat="45.4011293" lon="10.5510212"><ele>116.39999999999999</ele><time>2026-03-30T13:24:01.096Z</time></trkpt><trkpt lat="45.4010307" lon="10.5510387"><ele>115.79999999999998</ele><time>2026-03-30T13:24:02.096Z</time></trkpt><trkpt lat="45.4009305" lon="10.5510412"><ele>115.2</ele><time>2026-03-30T13:24:03.095Z</time></trkpt><trkpt lat="45.40083" lon="10.5510407"><ele>114.6</ele><time>2026-03-30T13:24:04.096Z</time></trkpt><trkpt lat="45.4007277" lon="10.5510433"><ele>114.0</ele><time>2026-03-30T13:24:05.099Z</time></trkpt><trkpt lat="45.400625" lon="10.5510497"><ele>114.0</ele><time>2026-03-30T13:24:06.094Z</time></trkpt><trkpt lat="45.4005085" lon="10.55107"><ele>114.0</ele><time>2026-03-30T13:24:07.092Z</time></trkpt><trkpt lat="45.4003985" lon="10.5511015"><ele>114.0</ele><time>2026-03-30T13:24:08.092Z</time></trkpt><trkpt lat="45.4002917" lon="10.5511505"><ele>114.0</ele><time>2026-03-30T13:24:09.092Z</time></trkpt><trkpt lat="45.4001855" lon="10.551227"><ele>113.4</ele><time>2026-03-30T13:24:10.092Z</time></trkpt><trkpt lat="45.4000872" lon="10.5513085"><ele>112.80000000000001</ele><time>2026-03-30T13:24:11.094Z</time></trkpt><trkpt lat="45.3999955" lon="10.5513822"><ele>112.19999999999999</ele><time>2026-03-30T13:24:12.095Z</time></trkpt><trkpt lat="45.399908" lon="10.551439"><ele>111.6</ele><time>2026-03-30T13:24:13.095Z</time></trkpt><trkpt lat="45.3998247" lon="10.5514748"><ele>111.0</ele><time>2026-03-30T13:24:14.094Z</time></trkpt><trkpt lat="45.3997467" lon="10.5514963"><ele>111.0</ele><time>2026-03-30T13:24:15.097Z</time></trkpt><trkpt lat="45.3996737" lon="10.5515055"><ele>111.0</ele><time>2026-03-30T13:24:16.096Z</time></trkpt><trkpt lat="45.3996058" lon="10.5515103"><ele>111.0</ele><time>2026-03-30T13:24:17.094Z</time></trkpt><trkpt lat="45.3995375" lon="10.55152"><ele>111.0</ele><time>2026-03-30T13:24:18.095Z</time></trkpt><trkpt lat="45.3994683" lon="10.5515303"><ele>111.0</ele><time>2026-03-30T13:24:19.095Z</time></trkpt><trkpt lat="45.3994033" lon="10.5515363"><ele>111.0</ele><time>2026-03-30T13:24:20.095Z</time></trkpt><trkpt lat="45.3992875" lon="10.5515447"><ele>111.8</ele><time>2026-03-30T13:24:22.095Z</time></trkpt><trkpt lat="45.3991987" lon="10.5515325"><ele>112.6</ele><time>2026-03-30T13:24:24.096Z</time></trkpt><trkpt lat="45.3992315" lon="10.5514075"><ele>113.4</ele><time>2026-03-30T13:24:32.094Z</time></trkpt><trkpt lat="45.3992117" lon="10.5512747"><ele>114.2</ele><time>2026-03-30T13:24:35.096Z</time></trkpt><trkpt lat="45.3990765" lon="10.5511672"><ele>115.0</ele><time>2026-03-30T13:24:38.096Z</time></trkpt><trkpt lat="45.3990085" lon="10.5511265"><ele>116.50000000000001</ele><time>2026-03-30T13:24:39.094Z</time></trkpt><trkpt lat="45.3989202" lon="10.5510755"><ele>118.0</ele><time>2026-03-30T13:24:40.094Z</time></trkpt><trkpt lat="45.398825" lon="10.551018"><ele>119.5</ele><time>2026-03-30T13:24:41.093Z</time></trkpt><trkpt lat="45.3987477" lon="10.5509793"><ele>121.0</ele><time>2026-03-30T13:24:42.094Z</time></trkpt><trkpt lat="45.3986822" lon="10.550959"><ele>122.50000000000001</ele><time>2026-03-30T13:24:43.098Z</time></trkpt><trkpt lat="45.3986108" lon="10.5509573"><ele>124.0</ele><time>2026-03-30T13:24:44.097Z</time></trkpt><trkpt lat="45.3985273" lon="10.5509727"><ele>125.71428571428572</ele><time>2026-03-30T13:24:45.094Z</time></trkpt><trkpt lat="45.3984618" lon="10.5509935"><ele>127.42857142857144</ele><time>2026-03-30T13:24:46.094Z</time></trkpt><trkpt lat="45.3983912" lon="10.551003"><ele>129.14285714285714</ele><time>2026-03-30T13:24:48.095Z</time></trkpt><trkpt lat="45.3983543" lon="10.5509253"><ele>130.85714285714286</ele><time>2026-03-30T13:24:59.093Z</time></trkpt><trkpt lat="45.3983035" lon="10.5508265"><ele>132.57142857142856</ele><time>2026-03-30T13:25:01.095Z</time></trkpt><trkpt lat="45.3982732" lon="10.550726"><ele>134.28571428571428</ele><time>2026-03-30T13:25:03.095Z</time></trkpt><trkpt lat="45.3982577" lon="10.5506158"><ele>136.0</ele><time>2026-03-30T13:25:15.094Z</time></trkpt><trkpt lat="45.3982373" lon="10.5505203"><ele>136.0</ele><time>2026-03-30T13:25:17.099Z</time></trkpt><trkpt lat="45.3982187" lon="10.550375"><ele>136.0</ele><time>2026-03-30T13:25:19.097Z</time></trkpt><trkpt lat="45.3981968" lon="10.5502292"><ele>136.0</ele><time>2026-03-30T13:25:21.093Z</time></trkpt><trkpt lat="45.3981245" lon="10.5501608"><ele>136.0</ele><time>2026-03-30T13:25:23.092Z</time></trkpt><trkpt lat="45.3980498" lon="10.5501767"><ele>136.0</ele><time>2026-03-30T13:25:25.097Z</time></trkpt><trkpt lat="45.3980015" lon="10.550247"><ele>136.0</ele><time>2026-03-30T13:25:27.095Z</time></trkpt><trkpt lat="45.3979498" lon="10.5503565"><ele>133.83333333333334</ele><time>2026-03-30T13:25:29.096Z</time></trkpt><trkpt lat="45.3978828" lon="10.5504982"><ele>131.66666666666669</ele><time>2026-03-30T13:25:31.095Z</time></trkpt><trkpt lat="45.397846" lon="10.5505772"><ele>129.5</ele><time>2026-03-30T13:25:32.098Z</time></trkpt><trkpt lat="45.3978092" lon="10.5506643"><ele>127.33333333333334</ele><time>2026-03-30T13:25:33.095Z</time></trkpt><trkpt lat="45.3977713" lon="10.5507513"><ele>125.16666666666667</ele><time>2026-03-30T13:25:34.096Z</time></trkpt><trkpt lat="45.397729" lon="10.5508427"><ele>123.0</ele><time>2026-03-30T13:25:35.097Z</time></trkpt><trkpt lat="45.3976885" lon="10.5509343"><ele>123.00000000000001</ele><time>2026-03-30T13:25:36.094Z</time></trkpt><trkpt lat="45.397648" lon="10.5510205"><ele>123.0</ele><time>2026-03-30T13:25:37.095Z</time></trkpt><trkpt lat="45.3976057" lon="10.5510992"><ele>123.00000000000001</ele><time>2026-03-30T13:25:38.096Z</time></trkpt><trkpt lat="45.3975588" lon="10.5511673"><ele>123.00000000000001</ele><time>2026-03-30T13:25:39.096Z</time></trkpt><trkpt lat="45.3975072" lon="10.5512222"><ele>123.0</ele><time>2026-03-30T13:25:40.096Z</time></trkpt><trkpt lat="45.3974492" lon="10.5512583"><ele>123.00000000000001</ele><time>2026-03-30T13:25:41.096Z</time></trkpt><trkpt lat="45.3973868" lon="10.551278"><ele>123.00000000000001</ele><time>2026-03-30T13:25:42.094Z</time></trkpt><trkpt lat="45.3973172" lon="10.5512928"><ele>122.83333333333333</ele><time>2026-03-30T13:25:43.096Z</time></trkpt><trkpt lat="45.3972453" lon="10.5512998"><ele>122.66666666666666</ele><time>2026-03-30T13:25:44.095Z</time></trkpt><trkpt lat="45.3971753" lon="10.5512978"><ele>122.5</ele><time>2026-03-30T13:25:45.095Z</time></trkpt><trkpt lat="45.3970595" lon="10.551313"><ele>122.33333333333333</ele><time>2026-03-30T13:25:47.093Z</time></trkpt><trkpt lat="45.3970017" lon="10.5514053"><ele>122.16666666666666</ele><time>2026-03-30T13:25:49.094Z</time></trkpt><trkpt lat="45.3969885" lon="10.5515288"><ele>122.0</ele><time>2026-03-30T13:25:51.095Z</time></trkpt><trkpt lat="45.3969472" lon="10.5516147"><ele>121.83333333333333</ele><time>2026-03-30T13:25:53.097Z</time></trkpt><trkpt lat="45.3969037" lon="10.551708"><ele>121.66666666666666</ele><time>2026-03-30T13:25:55.095Z</time></trkpt><trkpt lat="45.3969107" lon="10.5518213"><ele>121.5</ele><time>2026-03-30T13:25:58.096Z</time></trkpt><trkpt lat="45.3969215" lon="10.5519353"><ele>121.33333333333334</ele><time>2026-03-30T13:26:01.093Z</time></trkpt><trkpt lat="45.3969207" lon="10.5520457"><ele>121.16666666666667</ele><time>2026-03-30T13:26:03.093Z</time></trkpt><trkpt lat="45.3969452" lon="10.5522008"><ele>121.0</ele><time>2026-03-30T13:26:05.093Z</time></trkpt><trkpt lat="45.3969725" lon="10.5523013"><ele>120.00000000000001</ele><time>2026-03-30T13:26:06.098Z</time></trkpt><trkpt lat="45.3970073" lon="10.5524055"><ele>119.0</ele><time>2026-03-30T13:26:07.097Z</time></trkpt><trkpt lat="45.3970455" lon="10.5525115"><ele>118.0</ele><time>2026-03-30T13:26:08.093Z</time></trkpt><trkpt lat="45.3970717" lon="10.5526233"><ele>117.0</ele><time>2026-03-30T13:26:09.094Z</time></trkpt><trkpt lat="45.3971103" lon="10.5527458"><ele>116.00000000000001</ele><time>2026-03-30T13:26:10.09Z</time></trkpt><trkpt lat="45.3971438" lon="10.5528723"><ele>115.0</ele><time>2026-03-30T13:26:11.091Z</time></trkpt><trkpt lat="45.3971745" lon="10.5530033"><ele>115.0</ele><time>2026-03-30T13:26:12.092Z</time></trkpt><trkpt lat="45.3972022" lon="10.55313"><ele>115.0</ele><time>2026-03-30T13:26:13.095Z</time></trkpt><trkpt lat="45.3972387" lon="10.5532655"><ele>115.0</ele><time>2026-03-30T13:26:14.093Z</time></trkpt><trkpt lat="45.3972793" lon="10.5534012"><ele>115.0</ele><time>2026-03-30T13:26:15.093Z</time></trkpt><trkpt lat="45.3973175" lon="10.5535358"><ele>115.0</ele><time>2026-03-30T13:26:16.094Z</time></trkpt><trkpt lat="45.3973615" lon="10.5536727"><ele>114.6</ele><time>2026-03-30T13:26:17.097Z</time></trkpt><trkpt lat="45.3974035" lon="10.5538105"><ele>114.2</ele><time>2026-03-30T13:26:18.096Z</time></trkpt><trkpt lat="45.3974462" lon="10.553947"><ele>113.80000000000001</ele><time>2026-03-30T13:26:19.096Z</time></trkpt><trkpt lat="45.3974877" lon="10.5540875"><ele>113.4</ele><time>2026-03-30T13:26:20.096Z</time></trkpt><trkpt lat="45.3975277" lon="10.554237"><ele>113.0</ele><time>2026-03-30T13:26:21.098Z</time></trkpt><trkpt lat="45.39756" lon="10.5543995"><ele>112.25</ele><time>2026-03-30T13:26:22.097Z</time></trkpt><trkpt lat="45.3975783" lon="10.5545783"><ele>111.5</ele><time>2026-03-30T13:26:23.096Z</time></trkpt><trkpt lat="45.397579" lon="10.5547682"><ele>110.75</ele><time>2026-03-30T13:26:24.098Z</time></trkpt><trkpt lat="45.3975537" lon="10.5549598"><ele>110.0</ele><time>2026-03-30T13:26:25.096Z</time></trkpt><trkpt lat="45.3975125" lon="10.5551353"><ele>110.0</ele><time>2026-03-30T13:26:26.097Z</time></trkpt><trkpt lat="45.3974698" lon="10.5552938"><ele>110.0</ele><time>2026-03-30T13:26:27.101Z</time></trkpt><trkpt lat="45.3974298" lon="10.5554373"><ele>110.0</ele><time>2026-03-30T13:26:28.096Z</time></trkpt><trkpt lat="45.3973973" lon="10.555562"><ele>110.0</ele><time>2026-03-30T13:26:29.097Z</time></trkpt><trkpt lat="45.397367" lon="10.5556653"><ele>110.0</ele><time>2026-03-30T13:26:30.096Z</time></trkpt><trkpt lat="45.3972907" lon="10.5557715"><ele>109.0</ele><time>2026-03-30T13:26:32.095Z</time></trkpt><trkpt lat="45.397177" lon="10.5557468"><ele>108.0</ele><time>2026-03-30T13:26:34.094Z</time></trkpt><trkpt lat="45.3970868" lon="10.5557032"><ele>107.0</ele><time>2026-03-30T13:26:35.093Z</time></trkpt><trkpt lat="45.3970132" lon="10.5556437"><ele>106.0</ele><time>2026-03-30T13:26:36.093Z</time></trkpt><trkpt lat="45.396955" lon="10.5555663"><ele>105.0</ele><time>2026-03-30T13:26:37.096Z</time></trkpt><trkpt lat="45.3968862" lon="10.5554785"><ele>107.4</ele><time>2026-03-30T13:26:38.093Z</time></trkpt><trkpt lat="45.3968115" lon="10.555429"><ele>109.8</ele><time>2026-03-30T13:26:39.094Z</time></trkpt><trkpt lat="45.3967175" lon="10.5554017"><ele>112.19999999999999</ele><time>2026-03-30T13:26:40.095Z</time></trkpt><trkpt lat="45.3966002" lon="10.555395"><ele>114.6</ele><time>2026-03-30T13:26:41.095Z</time></trkpt><trkpt lat="45.3964785" lon="10.555384"><ele>117.0</ele><time>2026-03-30T13:26:42.096Z</time></trkpt><trkpt lat="45.3963755" lon="10.555347"><ele>117.16666666666667</ele><time>2026-03-30T13:26:43.096Z</time></trkpt><trkpt lat="45.3962758" lon="10.5552972"><ele>117.33333333333334</ele><time>2026-03-30T13:26:44.095Z</time></trkpt><trkpt lat="45.3962093" lon="10.5552783"><ele>117.5</ele><time>2026-03-30T13:26:45.096Z</time></trkpt><trkpt lat="45.3961533" lon="10.5553585"><ele>117.66666666666667</ele><time>2026-03-30T13:26:48.095Z</time></trkpt><trkpt lat="45.3962062" lon="10.5554263"><ele>117.83333333333334</ele><time>2026-03-30T13:26:57.095Z</time></trkpt><trkpt lat="45.3963237" lon="10.5554637"><ele>118.0</ele><time>2026-03-30T13:27:00.091Z</time></trkpt><trkpt lat="45.3963958" lon="10.5554865"><ele>118.00000000000001</ele><time>2026-03-30T13:27:01.095Z</time></trkpt><trkpt lat="45.3964692" lon="10.5555098"><ele>118.0</ele><time>2026-03-30T13:27:02.096Z</time></trkpt><trkpt lat="45.396531" lon="10.5555302"><ele>118.0</ele><time>2026-03-30T13:27:03.095Z</time></trkpt><trkpt lat="45.3965927" lon="10.555601"><ele>118.0</ele><time>2026-03-30T13:27:05.096Z</time></trkpt><trkpt lat="45.3965928" lon="10.5557518"><ele>118.00000000000001</ele><time>2026-03-30T13:27:07.096Z</time></trkpt><trkpt lat="45.3965838" lon="10.5558692"><ele>118.0</ele><time>2026-03-30T13:27:08.094Z</time></trkpt><trkpt lat="45.3965737" lon="10.5560228"><ele>118.00000000000001</ele><time>2026-03-30T13:27:09.097Z</time></trkpt><trkpt lat="45.396562" lon="10.5561693"><ele>118.0</ele><time>2026-03-30T13:27:10.094Z</time></trkpt><trkpt lat="45.3965485" lon="10.556294"><ele>118.0</ele><time>2026-03-30T13:27:11.097Z</time></trkpt><trkpt lat="45.3965365" lon="10.5563952"><ele>118.0</ele><time>2026-03-30T13:27:12.095Z</time></trkpt><trkpt lat="45.396535" lon="10.5564903"><ele>118.00000000000001</ele><time>2026-03-30T13:27:14.094Z</time></trkpt><trkpt lat="45.3965463" lon="10.5565968"><ele>118.0</ele><time>2026-03-30T13:27:17.094Z</time></trkpt><trkpt lat="45.3965435" lon="10.5566957"><ele>118.00000000000001</ele><time>2026-03-30T13:27:20.094Z</time></trkpt><trkpt lat="45.396523" lon="10.5568042"><ele>118.0</ele><time>2026-03-30T13:30:37.098Z</time></trkpt><trkpt lat="45.3964575" lon="10.5568237"><ele>118.0</ele><time>2026-03-30T13:30:42.094Z</time></trkpt><trkpt lat="45.3963643" lon="10.5568443"><ele>118.0</ele><time>2026-03-30T13:30:44.095Z</time></trkpt><trkpt lat="45.3962603" lon="10.5568648"><ele>118.00000000000001</ele><time>2026-03-30T13:30:46.099Z</time></trkpt><trkpt lat="45.3961898" lon="10.5568628"><ele>118.0</ele><time>2026-03-30T13:30:47.097Z</time></trkpt><trkpt lat="45.3961255" lon="10.556859"><ele>120.33333333333334</ele><time>2026-03-30T13:30:48.099Z</time></trkpt><trkpt lat="45.3960528" lon="10.5568798"><ele>122.66666666666667</ele><time>2026-03-30T13:30:50.099Z</time></trkpt><trkpt lat="45.3959837" lon="10.556897"><ele>125.0</ele><time>2026-03-30T13:30:52.097Z</time></trkpt><trkpt lat="45.3959182" lon="10.5568477"><ele>127.33333333333334</ele><time>2026-03-30T13:30:54.098Z</time></trkpt><trkpt lat="45.3958602" lon="10.5567708"><ele>129.66666666666666</ele><time>2026-03-30T13:30:56.097Z</time></trkpt><trkpt lat="45.3957878" lon="10.556762"><ele>132.0</ele><time>2026-03-30T13:33:15.094Z</time></trkpt><trkpt lat="45.395706" lon="10.556759"><ele>132.0</ele><time>2026-03-30T13:33:19.095Z</time></trkpt><trkpt lat="45.3956338" lon="10.5567933"><ele>132.0</ele><time>2026-03-30T13:33:27.095Z</time></trkpt><trkpt lat="45.3955655" lon="10.5567783"><ele>132.0</ele><time>2026-03-30T13:33:30.094Z</time></trkpt><trkpt lat="45.3954977" lon="10.5568028"><ele>132.0</ele><time>2026-03-30T13:33:33.093Z</time></trkpt><trkpt lat="45.3954203" lon="10.5567967"><ele>132.0</ele><time>2026-03-30T13:33:36.098Z</time></trkpt><trkpt lat="45.3953373" lon="10.5567755"><ele>132.0</ele><time>2026-03-30T13:33:38.099Z</time></trkpt><trkpt lat="45.395225" lon="10.5567898"><ele>132.2</ele><time>2026-03-30T13:33:40.098Z</time></trkpt><trkpt lat="45.3951087" lon="10.5568038"><ele>132.39999999999998</ele><time>2026-03-30T13:33:42.098Z</time></trkpt><trkpt lat="45.3950002" lon="10.5568317"><ele>132.60000000000002</ele><time>2026-03-30T13:33:44.096Z</time></trkpt><trkpt lat="45.3948867" lon="10.5568335"><ele>132.8</ele><time>2026-03-30T13:33:46.098Z</time></trkpt><trkpt lat="45.3948052" lon="10.5568352"><ele>133.0</ele><time>2026-03-30T13:33:48.099Z</time></trkpt><trkpt lat="45.394722" lon="10.5568202"><ele>132.83333333333334</ele><time>2026-03-30T13:33:51.097Z</time></trkpt><trkpt lat="45.3946243" lon="10.5568225"><ele>132.66666666666669</ele><time>2026-03-30T13:33:53.096Z</time></trkpt><trkpt lat="45.3945032" lon="10.5568192"><ele>132.5</ele><time>2026-03-30T13:33:55.094Z</time></trkpt><trkpt lat="45.394436" lon="10.5568147"><ele>132.33333333333334</ele><time>2026-03-30T13:33:56.094Z</time></trkpt><trkpt lat="45.3943628" lon="10.5568103"><ele>132.16666666666666</ele><time>2026-03-30T13:33:57.092Z</time></trkpt><trkpt lat="45.394277" lon="10.5568128"><ele>132.0</ele><time>2026-03-30T13:33:58.092Z</time></trkpt><trkpt lat="45.3941712" lon="10.556808"><ele>132.0</ele><time>2026-03-30T13:33:59.093Z</time></trkpt><trkpt lat="45.3940757" lon="10.556804"><ele>132.0</ele><time>2026-03-30T13:34:00.097Z</time></trkpt><trkpt lat="45.3939895" lon="10.5568098"><ele>132.0</ele><time>2026-03-30T13:34:01.099Z</time></trkpt><trkpt lat="45.3939102" lon="10.5568265"><ele>132.0</ele><time>2026-03-30T13:34:02.097Z</time></trkpt><trkpt lat="45.393838" lon="10.556844"><ele>132.0</ele><time>2026-03-30T13:34:03.096Z</time></trkpt><trkpt lat="45.3937182" lon="10.5568358"><ele>131.79999999999998</ele><time>2026-03-30T13:34:05.116Z</time></trkpt><trkpt lat="45.3936475" lon="10.5568238"><ele>131.6</ele><time>2026-03-30T13:34:06.097Z</time></trkpt><trkpt lat="45.3935755" lon="10.5568295"><ele>131.39999999999998</ele><time>2026-03-30T13:34:07.111Z</time></trkpt><trkpt lat="45.3934998" lon="10.5568245"><ele>131.2</ele><time>2026-03-30T13:34:08.096Z</time></trkpt><trkpt lat="45.3933857" lon="10.556809"><ele>131.0</ele><time>2026-03-30T13:34:10.094Z</time></trkpt><trkpt lat="45.3932887" lon="10.5569032"><ele>131.0</ele><time>2026-03-30T13:34:12.098Z</time></trkpt><trkpt lat="45.3932335" lon="10.557003"><ele>131.0</ele><time>2026-03-30T13:34:13.096Z</time></trkpt><trkpt lat="45.393181" lon="10.5570923"><ele>131.0</ele><time>2026-03-30T13:34:14.095Z</time></trkpt><trkpt lat="45.3931278" lon="10.5571593"><ele>131.0</ele><time>2026-03-30T13:34:15.098Z</time></trkpt><trkpt lat="45.3930283" lon="10.5572443"><ele>131.0</ele><time>2026-03-30T13:34:17.096Z</time></trkpt><trkpt lat="45.3929387" lon="10.5572748"><ele>131.0</ele><time>2026-03-30T13:34:19.095Z</time></trkpt><trkpt lat="45.3928623" lon="10.5572832"><ele>131.0</ele><time>2026-03-30T13:34:21.094Z</time></trkpt><trkpt lat="45.3928073" lon="10.5572352"><ele>131.0</ele><time>2026-03-30T13:34:28.098Z</time></trkpt><trkpt lat="45.3926685" lon="10.5570965"><ele>131.0</ele><time>2026-03-30T13:34:32.099Z</time></trkpt><trkpt lat="45.392585" lon="10.5570488"><ele>131.0</ele><time>2026-03-30T13:34:34.098Z</time></trkpt><trkpt lat="45.3925032" lon="10.5570253"><ele>131.0</ele><time>2026-03-30T13:44:30.094Z</time></trkpt><trkpt lat="45.392409" lon="10.5570145"><ele>131.0</ele><time>2026-03-30T13:46:43.096Z</time></trkpt><trkpt lat="45.3923027" lon="10.557064"><ele>131.0</ele><time>2026-03-30T13:46:45.095Z</time></trkpt><trkpt lat="45.3922248" lon="10.5570838"><ele>131.0</ele><time>2026-03-30T13:46:46.094Z</time></trkpt><trkpt lat="45.392135" lon="10.5571065"><ele>131.0</ele><time>2026-03-30T13:46:47.095Z</time></trkpt><trkpt lat="45.3920548" lon="10.5571265"><ele>130.83333333333331</ele><time>2026-03-30T13:46:48.094Z</time></trkpt><trkpt lat="45.3919667" lon="10.5571165"><ele>130.66666666666666</ele><time>2026-03-30T13:46:50.099Z</time></trkpt><trkpt lat="45.3919118" lon="10.557065"><ele>130.5</ele><time>2026-03-30T13:46:52.096Z</time></trkpt><trkpt lat="45.3918168" lon="10.5570578"><ele>130.33333333333334</ele><time>2026-03-30T13:46:55.095Z</time></trkpt><trkpt lat="45.391734" lon="10.5571025"><ele>130.16666666666669</ele><time>2026-03-30T13:46:58.095Z</time></trkpt><trkpt lat="45.3916652" lon="10.557165"><ele>130.0</ele><time>2026-03-30T13:47:00.091Z</time></trkpt><trkpt lat="45.3915902" lon="10.5572345"><ele>130.0</ele><time>2026-03-30T13:47:02.093Z</time></trkpt><trkpt lat="45.3915263" lon="10.557265"><ele>130.0</ele><time>2026-03-30T13:47:05.098Z</time></trkpt><trkpt lat="45.3914478" lon="10.5573137"><ele>130.0</ele><time>2026-03-30T13:47:08.099Z</time></trkpt><trkpt lat="45.3913707" lon="10.5573657"><ele>130.0</ele><time>2026-03-30T13:47:10.099Z</time></trkpt><trkpt lat="45.3912832" lon="10.557431"><ele>130.0</ele><time>2026-03-30T13:47:12.096Z</time></trkpt><trkpt lat="45.391183" lon="10.5575015"><ele>130.0</ele><time>2026-03-30T13:47:14.097Z</time></trkpt><trkpt lat="45.3910778" lon="10.5575473"><ele>128.8</ele><time>2026-03-30T13:47:16.098Z</time></trkpt><trkpt lat="45.3909768" lon="10.5575842"><ele>127.6</ele><time>2026-03-30T13:47:18.1Z</time></trkpt><trkpt lat="45.390888" lon="10.5575817"><ele>126.4</ele><time>2026-03-30T13:47:20.097Z</time></trkpt><trkpt lat="45.3907703" lon="10.5575405"><ele>125.2</ele><time>2026-03-30T13:47:22.094Z</time></trkpt><trkpt lat="45.3907012" lon="10.5575265"><ele>124.0</ele><time>2026-03-30T13:47:23.093Z</time></trkpt><trkpt lat="45.3906332" lon="10.5575345"><ele>124.00000000000001</ele><time>2026-03-30T13:47:24.094Z</time></trkpt><trkpt lat="45.3905613" lon="10.5575647"><ele>124.0</ele><time>2026-03-30T13:47:25.094Z</time></trkpt><trkpt lat="45.3904792" lon="10.557598"><ele>124.0</ele><time>2026-03-30T13:47:26.094Z</time></trkpt><trkpt lat="45.3903922" lon="10.5576248"><ele>124.0</ele><time>2026-03-30T13:47:27.095Z</time></trkpt><trkpt lat="45.3903052" lon="10.5576647"><ele>124.00000000000001</ele><time>2026-03-30T13:47:28.098Z</time></trkpt><trkpt lat="45.3902323" lon="10.5577317"><ele>124.0</ele><time>2026-03-30T13:47:29.096Z</time></trkpt><trkpt lat="45.3901775" lon="10.5578115"><ele>124.00000000000001</ele><time>2026-03-30T13:47:30.096Z</time></trkpt><trkpt lat="45.3901212" lon="10.5578712"><ele>124.0</ele><time>2026-03-30T13:47:31.099Z</time></trkpt><trkpt lat="45.3900495" lon="10.5579052"><ele>124.0</ele><time>2026-03-30T13:47:32.096Z</time></trkpt><trkpt lat="45.3899592" lon="10.5579368"><ele>124.0</ele><time>2026-03-30T13:47:33.095Z</time></trkpt><trkpt lat="45.3898695" lon="10.557966"><ele>124.00000000000001</ele><time>2026-03-30T13:47:34.095Z</time></trkpt><trkpt lat="45.3897898" lon="10.5579917"><ele>124.0</ele><time>2026-03-30T13:47:35.096Z</time></trkpt><trkpt lat="45.3897192" lon="10.5580145"><ele>122.6</ele><time>2026-03-30T13:47:36.114Z</time></trkpt><trkpt lat="45.3896572" lon="10.5580422"><ele>121.2</ele><time>2026-03-30T13:47:37.096Z</time></trkpt><trkpt lat="45.389587" lon="10.5581515"><ele>119.79999999999998</ele><time>2026-03-30T13:47:39.097Z</time></trkpt><trkpt lat="45.3895737" lon="10.5583368"><ele>118.39999999999999</ele><time>2026-03-30T13:47:41.097Z</time></trkpt><trkpt lat="45.3895507" lon="10.558439"><ele>117.0</ele><time>2026-03-30T13:47:42.099Z</time></trkpt><trkpt lat="45.3895078" lon="10.558532"><ele>117.0</ele><time>2026-03-30T13:47:43.093Z</time></trkpt><trkpt lat="45.3894417" lon="10.5586252"><ele>116.99999999999999</ele><time>2026-03-30T13:47:44.097Z</time></trkpt><trkpt lat="45.3893773" lon="10.5587145"><ele>116.99999999999999</ele><time>2026-03-30T13:47:45.095Z</time></trkpt><trkpt lat="45.3893123" lon="10.5588077"><ele>117.0</ele><time>2026-03-30T13:47:46.094Z</time></trkpt><trkpt lat="45.3892483" lon="10.5589072"><ele>117.0</ele><time>2026-03-30T13:47:47.095Z</time></trkpt><trkpt lat="45.3891872" lon="10.5590123"><ele>117.8</ele><time>2026-03-30T13:47:48.094Z</time></trkpt><trkpt lat="45.3891257" lon="10.5591275"><ele>118.6</ele><time>2026-03-30T13:47:49.093Z</time></trkpt><trkpt lat="45.3890677" lon="10.5592478"><ele>119.39999999999999</ele><time>2026-03-30T13:47:50.094Z</time></trkpt><trkpt lat="45.3890222" lon="10.5593653"><ele>120.19999999999999</ele><time>2026-03-30T13:47:51.094Z</time></trkpt><trkpt lat="45.3889768" lon="10.5594932"><ele>121.0</ele><time>2026-03-30T13:47:52.096Z</time></trkpt><trkpt lat="45.3889328" lon="10.5596242"><ele>121.50000000000001</ele><time>2026-03-30T13:47:53.097Z</time></trkpt><trkpt lat="45.3888883" lon="10.5597495"><ele>122.0</ele><time>2026-03-30T13:47:54.097Z</time></trkpt><trkpt lat="45.3888555" lon="10.5598565"><ele>122.5</ele><time>2026-03-30T13:47:55.095Z</time></trkpt><trkpt lat="45.3888232" lon="10.5599582"><ele>123.0</ele><time>2026-03-30T13:47:56.094Z</time></trkpt><trkpt lat="45.3887837" lon="10.5600547"><ele>123.50000000000001</ele><time>2026-03-30T13:47:57.095Z</time></trkpt><trkpt lat="45.3887408" lon="10.5601345"><ele>124.0</ele><time>2026-03-30T13:47:58.094Z</time></trkpt><trkpt lat="45.3886915" lon="10.5601988"><ele>123.0</ele><time>2026-03-30T13:47:59.096Z</time></trkpt><trkpt lat="45.3886483" lon="10.5602662"><ele>122.0</ele><time>2026-03-30T13:48:00.095Z</time></trkpt><trkpt lat="45.3885798" lon="10.560409"><ele>121.0</ele><time>2026-03-30T13:48:02.096Z</time></trkpt><trkpt lat="45.3884902" lon="10.5605058"><ele>120.0</ele><time>2026-03-30T13:48:04.094Z</time></trkpt><trkpt lat="45.3883847" lon="10.5605708"><ele>119.0</ele><time>2026-03-30T13:48:06.093Z</time></trkpt><trkpt lat="45.3882842" lon="10.5606483"><ele>118.99999999999999</ele><time>2026-03-30T13:48:08.093Z</time></trkpt><trkpt lat="45.3882098" lon="10.5606793"><ele>119.0</ele><time>2026-03-30T13:48:10.097Z</time></trkpt><trkpt lat="45.388194" lon="10.5605758"><ele>119.0</ele><time>2026-03-30T13:48:14.091Z</time></trkpt><trkpt lat="45.3882233" lon="10.5604713"><ele>119.0</ele><time>2026-03-30T13:48:17.097Z</time></trkpt><trkpt lat="45.3882607" lon="10.5603425"><ele>118.99999999999999</ele><time>2026-03-30T13:48:19.094Z</time></trkpt><trkpt lat="45.3882902" lon="10.5602308"><ele>119.0</ele><time>2026-03-30T13:48:20.094Z</time></trkpt><trkpt lat="45.3883238" lon="10.560105"><ele>118.80000000000001</ele><time>2026-03-30T13:48:21.098Z</time></trkpt><trkpt lat="45.3883522" lon="10.559968"><ele>118.60000000000001</ele><time>2026-03-30T13:48:22.093Z</time></trkpt><trkpt lat="45.3883818" lon="10.559817"><ele>118.4</ele><time>2026-03-30T13:48:23.093Z</time></trkpt><trkpt lat="45.3884208" lon="10.5596718"><ele>118.2</ele><time>2026-03-30T13:48:24.095Z</time></trkpt><trkpt lat="45.3884667" lon="10.5595322"><ele>118.0</ele><time>2026-03-30T13:48:25.095Z</time></trkpt><trkpt lat="45.3885188" lon="10.5593963"><ele>117.4</ele><time>2026-03-30T13:48:26.095Z</time></trkpt><trkpt lat="45.388577" lon="10.5592593"><ele>116.80000000000001</ele><time>2026-03-30T13:48:27.097Z</time></trkpt><trkpt lat="45.3886405" lon="10.5591273"><ele>116.2</ele><time>2026-03-30T13:48:28.094Z</time></trkpt><trkpt lat="45.388705" lon="10.558997"><ele>115.6</ele><time>2026-03-30T13:48:29.097Z</time></trkpt><trkpt lat="45.388771" lon="10.5588688"><ele>115.0</ele><time>2026-03-30T13:48:30.097Z</time></trkpt><trkpt lat="45.388839" lon="10.5587442"><ele>115.4</ele><time>2026-03-30T13:48:31.094Z</time></trkpt><trkpt lat="45.3889065" lon="10.5586263"><ele>115.8</ele><time>2026-03-30T13:48:32.094Z</time></trkpt><trkpt lat="45.3889783" lon="10.5585152"><ele>116.19999999999999</ele><time>2026-03-30T13:48:33.094Z</time></trkpt><trkpt lat="45.3890515" lon="10.5584033"><ele>116.6</ele><time>2026-03-30T13:48:34.094Z</time></trkpt><trkpt lat="45.3891128" lon="10.5582978"><ele>117.0</ele><time>2026-03-30T13:48:35.093Z</time></trkpt><trkpt lat="45.3891583" lon="10.5581833"><ele>117.0</ele><time>2026-03-30T13:48:36.095Z</time></trkpt><trkpt lat="45.3891965" lon="10.5580557"><ele>117.0</ele><time>2026-03-30T13:48:37.091Z</time></trkpt><trkpt lat="45.3892333" lon="10.5579308"><ele>117.0</ele><time>2026-03-30T13:48:38.091Z</time></trkpt><trkpt lat="45.389273" lon="10.5578295"><ele>117.0</ele><time>2026-03-30T13:48:39.09Z</time></trkpt><trkpt lat="45.3893238" lon="10.5577572"><ele>117.0</ele><time>2026-03-30T13:48:40.08Z</time></trkpt><trkpt lat="45.389383" lon="10.5577112"><ele>117.0</ele><time>2026-03-30T13:48:41.092Z</time></trkpt><trkpt lat="45.3894535" lon="10.5576647"><ele>117.8</ele><time>2026-03-30T13:48:42.092Z</time></trkpt><trkpt lat="45.3895268" lon="10.5576262"><ele>118.6</ele><time>2026-03-30T13:48:43.091Z</time></trkpt><trkpt lat="45.3896098" lon="10.5575828"><ele>119.39999999999999</ele><time>2026-03-30T13:48:44.095Z</time></trkpt><trkpt lat="45.3896985" lon="10.5575392"><ele>120.19999999999999</ele><time>2026-03-30T13:48:45.095Z</time></trkpt><trkpt lat="45.3897908" lon="10.5574935"><ele>121.0</ele><time>2026-03-30T13:48:46.108Z</time></trkpt><trkpt lat="45.3898902" lon="10.5574428"><ele>121.0</ele><time>2026-03-30T13:48:47.094Z</time></trkpt><trkpt lat="45.3899778" lon="10.5573942"><ele>121.0</ele><time>2026-03-30T13:48:48.094Z</time></trkpt><trkpt lat="45.3900853" lon="10.5573318"><ele>121.0</ele><time>2026-03-30T13:48:49.093Z</time></trkpt><trkpt lat="45.3901927" lon="10.5572748"><ele>121.0</ele><time>2026-03-30T13:48:50.093Z</time></trkpt><trkpt lat="45.3902998" lon="10.5572177"><ele>121.0</ele><time>2026-03-30T13:48:51.094Z</time></trkpt><trkpt lat="45.3904053" lon="10.557154"><ele>121.0</ele><time>2026-03-30T13:48:52.093Z</time></trkpt><trkpt lat="45.3905002" lon="10.5571005"><ele>121.0</ele><time>2026-03-30T13:48:53.094Z</time></trkpt><trkpt lat="45.3905952" lon="10.5570443"><ele>121.0</ele><time>2026-03-30T13:48:54.096Z</time></trkpt><trkpt lat="45.3906867" lon="10.5569747"><ele>121.0</ele><time>2026-03-30T13:48:55.094Z</time></trkpt><trkpt lat="45.3907712" lon="10.5568925"><ele>121.0</ele><time>2026-03-30T13:48:56.094Z</time></trkpt><trkpt lat="45.390847" lon="10.5568025"><ele>120.19999999999999</ele><time>2026-03-30T13:48:57.098Z</time></trkpt><trkpt lat="45.3909203" lon="10.5566998"><ele>119.39999999999999</ele><time>2026-03-30T13:48:58.096Z</time></trkpt><trkpt lat="45.3909877" lon="10.556597"><ele>118.6</ele><time>2026-03-30T13:48:59.093Z</time></trkpt><trkpt lat="45.3910513" lon="10.5565023"><ele>117.8</ele><time>2026-03-30T13:49:00.093Z</time></trkpt><trkpt lat="45.3911118" lon="10.5564097"><ele>117.0</ele><time>2026-03-30T13:49:01.106Z</time></trkpt><trkpt lat="45.3911693" lon="10.5563162"><ele>117.0</ele><time>2026-03-30T13:49:02.092Z</time></trkpt><trkpt lat="45.3912245" lon="10.5562217"><ele>117.0</ele><time>2026-03-30T13:49:03.092Z</time></trkpt><trkpt lat="45.3912752" lon="10.556133"><ele>117.0</ele><time>2026-03-30T13:49:04.105Z</time></trkpt><trkpt lat="45.3913212" lon="10.556051"><ele>117.0</ele><time>2026-03-30T13:49:05.092Z</time></trkpt><trkpt lat="45.391362" lon="10.5559788"><ele>117.0</ele><time>2026-03-30T13:49:06.096Z</time></trkpt><trkpt lat="45.3914107" lon="10.5558732"><ele>117.0</ele><time>2026-03-30T13:49:08.094Z</time></trkpt><trkpt lat="45.3914338" lon="10.5557883"><ele>117.28571428571429</ele><time>2026-03-30T13:49:17.098Z</time></trkpt><trkpt lat="45.3914198" lon="10.5556867"><ele>117.57142857142858</ele><time>2026-03-30T13:49:23.092Z</time></trkpt><trkpt lat="45.3913977" lon="10.555581"><ele>117.85714285714286</ele><time>2026-03-30T13:49:25.092Z</time></trkpt><trkpt lat="45.3913455" lon="10.5554827"><ele>118.14285714285714</ele><time>2026-03-30T13:49:27.091Z</time></trkpt><trkpt lat="45.3913088" lon="10.5553912"><ele>118.42857142857143</ele><time>2026-03-30T13:49:29.092Z</time></trkpt><trkpt lat="45.3912665" lon="10.5553058"><ele>118.71428571428572</ele><time>2026-03-30T13:49:35.094Z</time></trkpt><trkpt lat="45.3912735" lon="10.5552132"><ele>119.0</ele><time>2026-03-30T13:49:37.092Z</time></trkpt><trkpt lat="45.3912847" lon="10.5550523"><ele>117.16666666666666</ele><time>2026-03-30T13:49:39.093Z</time></trkpt><trkpt lat="45.39125" lon="10.5548968"><ele>115.33333333333333</ele><time>2026-03-30T13:49:41.094Z</time></trkpt><trkpt lat="45.3912232" lon="10.5548127"><ele>113.5</ele><time>2026-03-30T13:49:42.093Z</time></trkpt><trkpt lat="45.3911857" lon="10.5547113"><ele>111.66666666666666</ele><time>2026-03-30T13:49:43.097Z</time></trkpt><trkpt lat="45.3911458" lon="10.5546075"><ele>109.83333333333333</ele><time>2026-03-30T13:49:44.095Z</time></trkpt><trkpt lat="45.3911002" lon="10.554502"><ele>108.0</ele><time>2026-03-30T13:49:45.095Z</time></trkpt><trkpt lat="45.3910523" lon="10.5544063"><ele>107.66666666666667</ele><time>2026-03-30T13:49:46.096Z</time></trkpt><trkpt lat="45.3910097" lon="10.554315"><ele>107.33333333333334</ele><time>2026-03-30T13:49:47.094Z</time></trkpt><trkpt lat="45.3909747" lon="10.5542282"><ele>107.0</ele><time>2026-03-30T13:49:48.094Z</time></trkpt><trkpt lat="45.3909118" lon="10.5540885"><ele>106.66666666666667</ele><time>2026-03-30T13:49:50.094Z</time></trkpt><trkpt lat="45.3908437" lon="10.5540232"><ele>106.33333333333334</ele><time>2026-03-30T13:49:52.092Z</time></trkpt><trkpt lat="45.3907688" lon="10.5540532"><ele>106.0</ele><time>2026-03-30T13:49:54.094Z</time></trkpt><trkpt lat="45.3906325" lon="10.5541368"><ele>106.0</ele><time>2026-03-30T13:49:56.095Z</time></trkpt><trkpt lat="45.3905275" lon="10.5541947"><ele>106.0</ele><time>2026-03-30T13:49:57.092Z</time></trkpt><trkpt lat="45.3904043" lon="10.554267"><ele>106.0</ele><time>2026-03-30T13:49:58.097Z</time></trkpt><trkpt lat="45.390296" lon="10.5543308"><ele>106.0</ele><time>2026-03-30T13:49:59.098Z</time></trkpt><trkpt lat="45.3901993" lon="10.5543862"><ele>106.66666666666667</ele><time>2026-03-30T13:50:00.096Z</time></trkpt><trkpt lat="45.3901193" lon="10.5544335"><ele>107.33333333333334</ele><time>2026-03-30T13:50:01.102Z</time></trkpt><trkpt lat="45.3900565" lon="10.5544602"><ele>108.0</ele><time>2026-03-30T13:50:02.095Z</time></trkpt><trkpt lat="45.3899802" lon="10.55441"><ele>108.66666666666666</ele><time>2026-03-30T13:50:04.096Z</time></trkpt><trkpt lat="45.3899542" lon="10.5543177"><ele>109.33333333333333</ele><time>2026-03-30T13:50:06.094Z</time></trkpt><trkpt lat="45.3899272" lon="10.5541557"><ele>110.0</ele><time>2026-03-30T13:50:08.094Z</time></trkpt><trkpt lat="45.389915" lon="10.5540478"><ele>109.99999999999999</ele><time>2026-03-30T13:50:09.098Z</time></trkpt><trkpt lat="45.3899052" lon="10.5539353"><ele>110.0</ele><time>2026-03-30T13:50:10.099Z</time></trkpt><trkpt lat="45.3898927" lon="10.5538225"><ele>110.0</ele><time>2026-03-30T13:50:11.097Z</time></trkpt><trkpt lat="45.3898787" lon="10.553711"><ele>110.0</ele><time>2026-03-30T13:50:12.099Z</time></trkpt><trkpt lat="45.3898627" lon="10.5536038"><ele>109.99999999999999</ele><time>2026-03-30T13:50:13.096Z</time></trkpt><trkpt lat="45.3898462" lon="10.5534852"><ele>110.0</ele><time>2026-03-30T13:50:14.098Z</time></trkpt><trkpt lat="45.3898293" lon="10.5533462"><ele>110.5</ele><time>2026-03-30T13:50:15.094Z</time></trkpt><trkpt lat="45.3898087" lon="10.5531852"><ele>111.0</ele><time>2026-03-30T13:50:16.094Z</time></trkpt><trkpt lat="45.3897855" lon="10.5530212"><ele>111.5</ele><time>2026-03-30T13:50:17.095Z</time></trkpt><trkpt lat="45.3897623" lon="10.5528603"><ele>112.0</ele><time>2026-03-30T13:50:18.095Z</time></trkpt><trkpt lat="45.3897415" lon="10.5527042"><ele>112.00000000000001</ele><time>2026-03-30T13:50:19.096Z</time></trkpt><trkpt lat="45.3897197" lon="10.552554"><ele>112.0</ele><time>2026-03-30T13:50:20.099Z</time></trkpt><trkpt lat="45.3896995" lon="10.5524103"><ele>112.0</ele><time>2026-03-30T13:50:21.097Z</time></trkpt><trkpt lat="45.3896825" lon="10.5522827"><ele>112.0</ele><time>2026-03-30T13:50:22.098Z</time></trkpt><trkpt lat="45.3896698" lon="10.5521743"><ele>112.00000000000001</ele><time>2026-03-30T13:50:23.096Z</time></trkpt><trkpt lat="45.3896548" lon="10.5520865"><ele>112.0</ele><time>2026-03-30T13:50:24.096Z</time></trkpt><trkpt lat="45.3896368" lon="10.5519502"><ele>112.66666666666667</ele><time>2026-03-30T13:50:26.096Z</time></trkpt><trkpt lat="45.3896685" lon="10.551831"><ele>113.33333333333334</ele><time>2026-03-30T13:50:28.096Z</time></trkpt><trkpt lat="45.3896987" lon="10.5517427"><ele>114.0</ele><time>2026-03-30T13:50:30.097Z</time></trkpt><trkpt lat="45.3896887" lon="10.5516088"><ele>114.66666666666666</ele><time>2026-03-30T13:50:45.096Z</time></trkpt><trkpt lat="45.389714" lon="10.5514827"><ele>115.33333333333333</ele><time>2026-03-30T13:50:47.097Z</time></trkpt><trkpt lat="45.3897695" lon="10.5514168"><ele>116.0</ele><time>2026-03-30T13:50:50.098Z</time></trkpt><trkpt lat="45.3898465" lon="10.5514182"><ele>115.99999999999999</ele><time>2026-03-30T13:50:53.098Z</time></trkpt><trkpt lat="45.3899463" lon="10.5514078"><ele>116.0</ele><time>2026-03-30T13:50:55.1Z</time></trkpt><trkpt lat="45.3900205" lon="10.5513997"><ele>116.0</ele><time>2026-03-30T13:50:56.098Z</time></trkpt><trkpt lat="45.390103" lon="10.551387"><ele>116.0</ele><time>2026-03-30T13:50:57.101Z</time></trkpt><trkpt lat="45.3901925" lon="10.5513657"><ele>115.99999999999999</ele><time>2026-03-30T13:50:58.101Z</time></trkpt><trkpt lat="45.3902848" lon="10.5513373"><ele>116.0</ele><time>2026-03-30T13:50:59.097Z</time></trkpt><trkpt lat="45.3903793" lon="10.5513078"><ele>116.0</ele><time>2026-03-30T13:51:00.097Z</time></trkpt><trkpt lat="45.3904783" lon="10.5512788"><ele>116.0</ele><time>2026-03-30T13:51:01.1Z</time></trkpt><trkpt lat="45.3905823" lon="10.551255"><ele>116.0</ele><time>2026-03-30T13:51:02.097Z</time></trkpt><trkpt lat="45.3906888" lon="10.551235"><ele>116.0</ele><time>2026-03-30T13:51:03.098Z</time></trkpt><trkpt lat="45.3907957" lon="10.5512208"><ele>116.0</ele><time>2026-03-30T13:51:04.095Z</time></trkpt><trkpt lat="45.390907" lon="10.5512095"><ele>116.0</ele><time>2026-03-30T13:51:05.094Z</time></trkpt><trkpt lat="45.3910203" lon="10.5511987"><ele>116.0</ele><time>2026-03-30T13:51:06.095Z</time></trkpt><trkpt lat="45.3911323" lon="10.5511928"><ele>116.0</ele><time>2026-03-30T13:51:07.097Z</time></trkpt><trkpt lat="45.3912442" lon="10.5511943"><ele>116.0</ele><time>2026-03-30T13:51:08.099Z</time></trkpt><trkpt lat="45.3913472" lon="10.5512"><ele>116.0</ele><time>2026-03-30T13:51:09.101Z</time></trkpt><trkpt lat="45.3914452" lon="10.5512108"><ele>114.6</ele><time>2026-03-30T13:51:10.098Z</time></trkpt><trkpt lat="45.3915482" lon="10.5512272"><ele>113.19999999999999</ele><time>2026-03-30T13:51:11.096Z</time></trkpt><trkpt lat="45.3916518" lon="10.5512418"><ele>111.80000000000001</ele><time>2026-03-30T13:51:12.1Z</time></trkpt><trkpt lat="45.391758" lon="10.5512597"><ele>110.4</ele><time>2026-03-30T13:51:13.096Z</time></trkpt><trkpt lat="45.3918557" lon="10.5512767"><ele>109.0</ele><time>2026-03-30T13:51:14.099Z</time></trkpt><trkpt lat="45.3919333" lon="10.5512912"><ele>109.0</ele><time>2026-03-30T13:51:15.098Z</time></trkpt><trkpt lat="45.3920388" lon="10.5513032"><ele>109.0</ele><time>2026-03-30T13:51:17.099Z</time></trkpt><trkpt lat="45.3920775" lon="10.5512302"><ele>109.0</ele><time>2026-03-30T13:51:20.097Z</time></trkpt><trkpt lat="45.3919927" lon="10.5511958"><ele>109.0</ele><time>2026-03-30T13:51:23.098Z</time></trkpt><trkpt lat="45.3918882" lon="10.5511602"><ele>109.0</ele><time>2026-03-30T13:51:25.099Z</time></trkpt><trkpt lat="45.3917613" lon="10.5511288"><ele>110.16666666666667</ele><time>2026-03-30T13:51:27.098Z</time></trkpt><trkpt lat="45.3916918" lon="10.5510987"><ele>111.33333333333334</ele><time>2026-03-30T13:51:28.097Z</time></trkpt><trkpt lat="45.3916218" lon="10.5510635"><ele>112.5</ele><time>2026-03-30T13:51:29.093Z</time></trkpt><trkpt lat="45.39155" lon="10.5510267"><ele>113.66666666666666</ele><time>2026-03-30T13:51:30.095Z</time></trkpt><trkpt lat="45.3914722" lon="10.5509935"><ele>114.83333333333333</ele><time>2026-03-30T13:51:31.097Z</time></trkpt><trkpt lat="45.3913945" lon="10.5509597"><ele>116.0</ele><time>2026-03-30T13:51:32.096Z</time></trkpt><trkpt lat="45.391315" lon="10.5509238"><ele>116.49999999999999</ele><time>2026-03-30T13:51:33.098Z</time></trkpt><trkpt lat="45.3912342" lon="10.5508858"><ele>117.0</ele><time>2026-03-30T13:51:34.097Z</time></trkpt><trkpt lat="45.3911538" lon="10.550846"><ele>117.5</ele><time>2026-03-30T13:51:35.1Z</time></trkpt><trkpt lat="45.3910703" lon="10.5508097"><ele>118.0</ele><time>2026-03-30T13:51:36.099Z</time></trkpt><trkpt lat="45.390985" lon="10.5507715"><ele>118.49999999999999</ele><time>2026-03-30T13:51:37.097Z</time></trkpt><trkpt lat="45.3908992" lon="10.5507328"><ele>119.0</ele><time>2026-03-30T13:51:38.1Z</time></trkpt><trkpt lat="45.3908195" lon="10.5506978"><ele>118.99999999999999</ele><time>2026-03-30T13:51:39.098Z</time></trkpt><trkpt lat="45.3907553" lon="10.550656"><ele>119.0</ele><time>2026-03-30T13:51:40.1Z</time></trkpt><trkpt lat="45.3907028" lon="10.550602"><ele>119.0</ele><time>2026-03-30T13:51:41.099Z</time></trkpt><trkpt lat="45.3906343" lon="10.5504578"><ele>119.0</ele><time>2026-03-30T13:51:43.099Z</time></trkpt><trkpt lat="45.390614" lon="10.5503688"><ele>118.99999999999999</ele><time>2026-03-30T13:51:44.099Z</time></trkpt><trkpt lat="45.3905945" lon="10.5502683"><ele>119.0</ele><time>2026-03-30T13:51:45.098Z</time></trkpt><trkpt lat="45.3905698" lon="10.5501605"><ele>119.80000000000001</ele><time>2026-03-30T13:51:46.098Z</time></trkpt><trkpt lat="45.3905405" lon="10.5500462"><ele>120.60000000000001</ele><time>2026-03-30T13:51:47.097Z</time></trkpt><trkpt lat="45.3905092" lon="10.5499255"><ele>121.4</ele><time>2026-03-30T13:51:48.097Z</time></trkpt><trkpt lat="45.390477" lon="10.5497998"><ele>122.2</ele><time>2026-03-30T13:51:49.096Z</time></trkpt><trkpt lat="45.3904437" lon="10.5496687"><ele>123.0</ele><time>2026-03-30T13:51:50.097Z</time></trkpt><trkpt lat="45.3904103" lon="10.5495338"><ele>123.4</ele><time>2026-03-30T13:51:51.101Z</time></trkpt><trkpt lat="45.390379" lon="10.549395"><ele>123.80000000000001</ele><time>2026-03-30T13:51:52.097Z</time></trkpt><trkpt lat="45.3903465" lon="10.5492562"><ele>124.2</ele><time>2026-03-30T13:51:53.096Z</time></trkpt><trkpt lat="45.3903128" lon="10.5491192"><ele>124.6</ele><time>2026-03-30T13:51:54.094Z</time></trkpt><trkpt lat="45.3902793" lon="10.5489815"><ele>125.0</ele><time>2026-03-30T13:51:55.095Z</time></trkpt><trkpt lat="45.3902458" lon="10.5488452"><ele>124.0</ele><time>2026-03-30T13:51:56.094Z</time></trkpt><trkpt lat="45.3902097" lon="10.5487067"><ele>123.0</ele><time>2026-03-30T13:51:57.096Z</time></trkpt><trkpt lat="45.390173" lon="10.5485652"><ele>122.0</ele><time>2026-03-30T13:51:58.096Z</time></trkpt><trkpt lat="45.3901353" lon="10.5484215"><ele>121.0</ele><time>2026-03-30T13:51:59.096Z</time></trkpt><trkpt lat="45.3900952" lon="10.5482752"><ele>120.0</ele><time>2026-03-30T13:52:00.095Z</time></trkpt><trkpt lat="45.3900558" lon="10.5481278"><ele>120.0</ele><time>2026-03-30T13:52:01.095Z</time></trkpt><trkpt lat="45.3900157" lon="10.5479795"><ele>120.0</ele><time>2026-03-30T13:52:02.095Z</time></trkpt><trkpt lat="45.3899767" lon="10.547832"><ele>120.0</ele><time>2026-03-30T13:52:03.097Z</time></trkpt><trkpt lat="45.3899367" lon="10.5476833"><ele>120.0</ele><time>2026-03-30T13:52:04.096Z</time></trkpt><trkpt lat="45.3898903" lon="10.5475305"><ele>120.0</ele><time>2026-03-30T13:52:05.097Z</time></trkpt><trkpt lat="45.3898438" lon="10.5473813"><ele>120.0</ele><time>2026-03-30T13:52:06.097Z</time></trkpt><trkpt lat="45.3897978" lon="10.5472323"><ele>120.0</ele><time>2026-03-30T13:52:07.095Z</time></trkpt><trkpt lat="45.3897493" lon="10.5470855"><ele>120.0</ele><time>2026-03-30T13:52:08.097Z</time></trkpt><trkpt lat="45.3897002" lon="10.5469388"><ele>119.8</ele><time>2026-03-30T13:52:09.098Z</time></trkpt><trkpt lat="45.3896503" lon="10.5467932"><ele>119.6</ele><time>2026-03-30T13:52:10.096Z</time></trkpt><trkpt lat="45.3896007" lon="10.5466488"><ele>119.4</ele><time>2026-03-30T13:52:11.098Z</time></trkpt><trkpt lat="45.3895513" lon="10.5465055"><ele>119.2</ele><time>2026-03-30T13:52:12.095Z</time></trkpt><trkpt lat="45.3895015" lon="10.5463652"><ele>119.0</ele><time>2026-03-30T13:52:13.096Z</time></trkpt><trkpt lat="45.389453" lon="10.546226"><ele>120.2</ele><time>2026-03-30T13:52:14.097Z</time></trkpt><trkpt lat="45.3894065" lon="10.5460883"><ele>121.4</ele><time>2026-03-30T13:52:15.099Z</time></trkpt><trkpt lat="45.3893608" lon="10.5459512"><ele>122.6</ele><time>2026-03-30T13:52:16.097Z</time></trkpt><trkpt lat="45.389316" lon="10.545817"><ele>123.8</ele><time>2026-03-30T13:52:17.097Z</time></trkpt><trkpt lat="45.3892702" lon="10.5456868"><ele>125.0</ele><time>2026-03-30T13:52:18.092Z</time></trkpt><trkpt lat="45.3892208" lon="10.5455565"><ele>124.99999999999999</ele><time>2026-03-30T13:52:19.095Z</time></trkpt><trkpt lat="45.3891688" lon="10.5454235"><ele>125.0</ele><time>2026-03-30T13:52:20.095Z</time></trkpt><trkpt lat="45.3891215" lon="10.5452965"><ele>125.0</ele><time>2026-03-30T13:52:21.097Z</time></trkpt><trkpt lat="45.3890822" lon="10.5451892"><ele>125.0</ele><time>2026-03-30T13:52:22.101Z</time></trkpt><trkpt lat="45.3890445" lon="10.5451152"><ele>124.99999999999999</ele><time>2026-03-30T13:52:23.101Z</time></trkpt><trkpt lat="45.3889662" lon="10.5450837"><ele>125.0</ele><time>2026-03-30T13:52:25.098Z</time></trkpt><trkpt lat="45.3888993" lon="10.5451488"><ele>125.33333333333333</ele><time>2026-03-30T13:52:27.098Z</time></trkpt><trkpt lat="45.3888308" lon="10.545267"><ele>125.66666666666666</ele><time>2026-03-30T13:52:29.098Z</time></trkpt><trkpt lat="45.3887873" lon="10.5453425"><ele>126.0</ele><time>2026-03-30T13:52:30.097Z</time></trkpt><trkpt lat="45.3887318" lon="10.5454223"><ele>126.33333333333334</ele><time>2026-03-30T13:52:31.097Z</time></trkpt><trkpt lat="45.388669" lon="10.54551"><ele>126.66666666666667</ele><time>2026-03-30T13:52:32.097Z</time></trkpt><trkpt lat="45.3886025" lon="10.5456092"><ele>127.0</ele><time>2026-03-30T13:52:33.096Z</time></trkpt><trkpt lat="45.3885312" lon="10.545714"><ele>126.19999999999999</ele><time>2026-03-30T13:52:34.097Z</time></trkpt><trkpt lat="45.3884545" lon="10.5458202"><ele>125.39999999999999</ele><time>2026-03-30T13:52:35.097Z</time></trkpt><trkpt lat="45.3883735" lon="10.5459272"><ele>124.60000000000001</ele><time>2026-03-30T13:52:36.096Z</time></trkpt><trkpt lat="45.388287" lon="10.5460307"><ele>123.80000000000001</ele><time>2026-03-30T13:52:37.097Z</time></trkpt><trkpt lat="45.3881947" lon="10.5461317"><ele>123.0</ele><time>2026-03-30T13:52:38.098Z</time></trkpt><trkpt lat="45.3881" lon="10.546232"><ele>123.25</ele><time>2026-03-30T13:52:39.095Z</time></trkpt><trkpt lat="45.388005" lon="10.5463287"><ele>123.5</ele><time>2026-03-30T13:52:40.097Z</time></trkpt><trkpt lat="45.3879093" lon="10.546427"><ele>123.75</ele><time>2026-03-30T13:52:41.095Z</time></trkpt><trkpt lat="45.3878128" lon="10.5465183"><ele>124.0</ele><time>2026-03-30T13:52:42.094Z</time></trkpt><trkpt lat="45.3877162" lon="10.5466047"><ele>124.0</ele><time>2026-03-30T13:52:43.097Z</time></trkpt><trkpt lat="45.387623" lon="10.5466958"><ele>124.0</ele><time>2026-03-30T13:52:44.094Z</time></trkpt><trkpt lat="45.3875325" lon="10.5467918"><ele>124.0</ele><time>2026-03-30T13:52:45.094Z</time></trkpt><trkpt lat="45.387444" lon="10.5468917"><ele>124.0</ele><time>2026-03-30T13:52:46.096Z</time></trkpt><trkpt lat="45.3873532" lon="10.5469902"><ele>124.25</ele><time>2026-03-30T13:52:47.097Z</time></trkpt><trkpt lat="45.3872595" lon="10.5470855"><ele>124.5</ele><time>2026-03-30T13:52:48.098Z</time></trkpt><trkpt lat="45.3871672" lon="10.5471778"><ele>124.75</ele><time>2026-03-30T13:52:49.096Z</time></trkpt><trkpt lat="45.3870773" lon="10.5472703"><ele>125.0</ele><time>2026-03-30T13:52:50.095Z</time></trkpt><trkpt lat="45.3869862" lon="10.5473622"><ele>125.0</ele><time>2026-03-30T13:52:51.095Z</time></trkpt><trkpt lat="45.386896" lon="10.5474503"><ele>125.0</ele><time>2026-03-30T13:52:52.096Z</time></trkpt><trkpt lat="45.386814" lon="10.5475282"><ele>125.0</ele><time>2026-03-30T13:52:53.098Z</time></trkpt><trkpt lat="45.3867425" lon="10.5475918"><ele>125.0</ele><time>2026-03-30T13:52:54.098Z</time></trkpt><trkpt lat="45.3866792" lon="10.5476362"><ele>125.0</ele><time>2026-03-30T13:52:55.096Z</time></trkpt><trkpt lat="45.3865508" lon="10.547708"><ele>125.0</ele><time>2026-03-30T13:52:57.098Z</time></trkpt><trkpt lat="45.386471" lon="10.5477695"><ele>125.0</ele><time>2026-03-30T13:52:58.096Z</time></trkpt><trkpt lat="45.3863975" lon="10.5478468"><ele>125.0</ele><time>2026-03-30T13:52:59.096Z</time></trkpt><trkpt lat="45.3863227" lon="10.54793"><ele>125.0</ele><time>2026-03-30T13:53:00.096Z</time></trkpt><trkpt lat="45.386242" lon="10.5480105"><ele>125.0</ele><time>2026-03-30T13:53:01.098Z</time></trkpt><trkpt lat="45.3861567" lon="10.54809"><ele>125.0</ele><time>2026-03-30T13:53:02.096Z</time></trkpt><trkpt lat="45.3860683" lon="10.548165"><ele>125.0</ele><time>2026-03-30T13:53:03.1Z</time></trkpt><trkpt lat="45.3859767" lon="10.5482322"><ele>125.0</ele><time>2026-03-30T13:53:04.097Z</time></trkpt><trkpt lat="45.3858843" lon="10.5482923"><ele>125.0</ele><time>2026-03-30T13:53:05.097Z</time></trkpt><trkpt lat="45.3857938" lon="10.5483603"><ele>125.0</ele><time>2026-03-30T13:53:06.094Z</time></trkpt><trkpt lat="45.3857067" lon="10.5484458"><ele>125.0</ele><time>2026-03-30T13:53:07.093Z</time></trkpt><trkpt lat="45.3856187" lon="10.5485578"><ele>125.0</ele><time>2026-03-30T13:53:08.095Z</time></trkpt><trkpt lat="45.3855347" lon="10.5486765"><ele>125.0</ele><time>2026-03-30T13:53:09.094Z</time></trkpt><trkpt lat="45.385456" lon="10.548795"><ele>125.0</ele><time>2026-03-30T13:53:10.095Z</time></trkpt><trkpt lat="45.3853817" lon="10.5489092"><ele>125.8</ele><time>2026-03-30T13:53:11.096Z</time></trkpt><trkpt lat="45.3853078" lon="10.5490207"><ele>126.6</ele><time>2026-03-30T13:53:12.095Z</time></trkpt><trkpt lat="45.3852388" lon="10.5491115"><ele>127.4</ele><time>2026-03-30T13:53:13.095Z</time></trkpt><trkpt lat="45.3851777" lon="10.5491812"><ele>128.2</ele><time>2026-03-30T13:53:14.098Z</time></trkpt><trkpt lat="45.3850767" lon="10.5492415"><ele>129.0</ele><time>2026-03-30T13:53:16.095Z</time></trkpt><trkpt lat="45.3850073" lon="10.5492317"><ele>129.0</ele><time>2026-03-30T13:53:19.098Z</time></trkpt><trkpt lat="45.384909" lon="10.5491703"><ele>129.0</ele><time>2026-03-30T13:53:31.092Z</time></trkpt><trkpt lat="45.3848387" lon="10.5491557"><ele>129.0</ele><time>2026-03-30T13:53:32.093Z</time></trkpt><trkpt lat="45.3847543" lon="10.5491433"><ele>129.0</ele><time>2026-03-30T13:53:33.093Z</time></trkpt><trkpt lat="45.3846732" lon="10.549124"><ele>129.0</ele><time>2026-03-30T13:53:34.095Z</time></trkpt><trkpt lat="45.384602" lon="10.549095"><ele>129.0</ele><time>2026-03-30T13:53:35.092Z</time></trkpt><trkpt lat="45.3845382" lon="10.5490547"><ele>129.0</ele><time>2026-03-30T13:53:36.093Z</time></trkpt><trkpt lat="45.3844795" lon="10.5490102"><ele>129.0</ele><time>2026-03-30T13:53:37.091Z</time></trkpt><trkpt lat="45.3843985" lon="10.5489568"><ele>129.0</ele><time>2026-03-30T13:53:38.091Z</time></trkpt><trkpt lat="45.3843167" lon="10.5488917"><ele>129.0</ele><time>2026-03-30T13:53:39.092Z</time></trkpt><trkpt lat="45.3842372" lon="10.548835"><ele>129.0</ele><time>2026-03-30T13:53:40.089Z</time></trkpt><trkpt lat="45.38417" lon="10.5487822"><ele>129.0</ele><time>2026-03-30T13:53:41.092Z</time></trkpt><trkpt lat="45.3841185" lon="10.5487163"><ele>127.33333333333333</ele><time>2026-03-30T13:53:42.092Z</time></trkpt><trkpt lat="45.3840727" lon="10.5486407"><ele>125.66666666666666</ele><time>2026-03-30T13:53:43.093Z</time></trkpt><trkpt lat="45.38402" lon="10.5485643"><ele>124.0</ele><time>2026-03-30T13:53:44.095Z</time></trkpt><trkpt lat="45.3839538" lon="10.5484822"><ele>122.33333333333333</ele><time>2026-03-30T13:53:45.094Z</time></trkpt><trkpt lat="45.3838812" lon="10.5483932"><ele>120.66666666666666</ele><time>2026-03-30T13:53:46.093Z</time></trkpt><trkpt lat="45.3838058" lon="10.548303"><ele>119.0</ele><time>2026-03-30T13:53:47.093Z</time></trkpt><trkpt lat="45.3837292" lon="10.5482095"><ele>118.80000000000001</ele><time>2026-03-30T13:53:48.094Z</time></trkpt><trkpt lat="45.3836537" lon="10.5481145"><ele>118.60000000000001</ele><time>2026-03-30T13:53:49.094Z</time></trkpt><trkpt lat="45.3835802" lon="10.5480177"><ele>118.4</ele><time>2026-03-30T13:53:50.095Z</time></trkpt><trkpt lat="45.3835083" lon="10.5479205"><ele>118.2</ele><time>2026-03-30T13:53:51.093Z</time></trkpt><trkpt lat="45.3834423" lon="10.5478247"><ele>118.0</ele><time>2026-03-30T13:53:52.094Z</time></trkpt><trkpt lat="45.383385" lon="10.5477215"><ele>117.60000000000001</ele><time>2026-03-30T13:53:53.095Z</time></trkpt><trkpt lat="45.383333" lon="10.5476077"><ele>117.20000000000002</ele><time>2026-03-30T13:53:54.093Z</time></trkpt><trkpt lat="45.383286" lon="10.5474843"><ele>116.8</ele><time>2026-03-30T13:53:55.093Z</time></trkpt><trkpt lat="45.3832402" lon="10.5473545"><ele>116.4</ele><time>2026-03-30T13:53:56.093Z</time></trkpt><trkpt lat="45.3831933" lon="10.5472205"><ele>116.0</ele><time>2026-03-30T13:53:57.093Z</time></trkpt><trkpt lat="45.3831463" lon="10.5470813"><ele>115.75</ele><time>2026-03-30T13:53:58.092Z</time></trkpt><trkpt lat="45.3830985" lon="10.5469375"><ele>115.5</ele><time>2026-03-30T13:53:59.094Z</time></trkpt><trkpt lat="45.3830507" lon="10.5467923"><ele>115.25</ele><time>2026-03-30T13:54:00.095Z</time></trkpt><trkpt lat="45.383002" lon="10.5466448"><ele>115.0</ele><time>2026-03-30T13:54:01.094Z</time></trkpt><trkpt lat="45.3829507" lon="10.5464968"><ele>115.25</ele><time>2026-03-30T13:54:02.104Z</time></trkpt><trkpt lat="45.3828992" lon="10.5463483"><ele>115.5</ele><time>2026-03-30T13:54:03.096Z</time></trkpt><trkpt lat="45.3828437" lon="10.5461982"><ele>115.75</ele><time>2026-03-30T13:54:04.095Z</time></trkpt><trkpt lat="45.3827825" lon="10.5460517"><ele>116.0</ele><time>2026-03-30T13:54:05.095Z</time></trkpt><trkpt lat="45.3827177" lon="10.545915"><ele>116.0</ele><time>2026-03-30T13:54:06.096Z</time></trkpt><trkpt lat="45.3826478" lon="10.5457845"><ele>116.0</ele><time>2026-03-30T13:54:07.094Z</time></trkpt><trkpt lat="45.3825712" lon="10.5456628"><ele>116.0</ele><time>2026-03-30T13:54:08.095Z</time></trkpt><trkpt lat="45.3824888" lon="10.5455445"><ele>116.0</ele><time>2026-03-30T13:54:09.094Z</time></trkpt><trkpt lat="45.3824082" lon="10.5454295"><ele>116.0</ele><time>2026-03-30T13:54:10.094Z</time></trkpt><trkpt lat="45.3823305" lon="10.5453183"><ele>116.0</ele><time>2026-03-30T13:54:11.095Z</time></trkpt><trkpt lat="45.3822637" lon="10.5452218"><ele>116.0</ele><time>2026-03-30T13:54:12.095Z</time></trkpt><trkpt lat="45.3822045" lon="10.5451315"><ele>116.0</ele><time>2026-03-30T13:54:13.094Z</time></trkpt><trkpt lat="45.3821448" lon="10.5450452"><ele>116.0</ele><time>2026-03-30T13:54:14.095Z</time></trkpt><trkpt lat="45.3820873" lon="10.5449602"><ele>115.99999999999999</ele><time>2026-03-30T13:54:15.095Z</time></trkpt><trkpt lat="45.3820317" lon="10.5448767"><ele>116.0</ele><time>2026-03-30T13:54:16.095Z</time></trkpt><trkpt lat="45.3819845" lon="10.5448008"><ele>116.0</ele><time>2026-03-30T13:54:17.094Z</time></trkpt><trkpt lat="45.3819123" lon="10.5446967"><ele>116.0</ele><time>2026-03-30T13:54:19.108Z</time></trkpt><trkpt lat="45.3818433" lon="10.5446803"><ele>115.99999999999999</ele><time>2026-03-30T13:54:21.093Z</time></trkpt><trkpt lat="45.3817653" lon="10.5446543"><ele>116.0</ele><time>2026-03-30T13:54:24.095Z</time></trkpt><trkpt lat="45.3817227" lon="10.544567"><ele>115.83333333333333</ele><time>2026-03-30T13:54:28.094Z</time></trkpt><trkpt lat="45.3816887" lon="10.5444662"><ele>115.66666666666666</ele><time>2026-03-30T13:54:31.094Z</time></trkpt><trkpt lat="45.3816217" lon="10.5443392"><ele>115.5</ele><time>2026-03-30T13:54:33.095Z</time></trkpt><trkpt lat="45.3815657" lon="10.5441808"><ele>115.33333333333334</ele><time>2026-03-30T13:54:35.097Z</time></trkpt><trkpt lat="45.3815527" lon="10.5440905"><ele>115.16666666666667</ele><time>2026-03-30T13:54:36.096Z</time></trkpt><trkpt lat="45.3815462" lon="10.5439918"><ele>115.0</ele><time>2026-03-30T13:54:37.096Z</time></trkpt><trkpt lat="45.3815388" lon="10.5439003"><ele>115.0</ele><time>2026-03-30T13:54:38.094Z</time></trkpt><trkpt lat="45.3815317" lon="10.5437343"><ele>115.0</ele><time>2026-03-30T13:54:40.094Z</time></trkpt><trkpt lat="45.3815248" lon="10.5435735"><ele>115.0</ele><time>2026-03-30T13:54:42.093Z</time></trkpt><trkpt lat="45.381517" lon="10.5434752"><ele>115.0</ele><time>2026-03-30T13:54:43.093Z</time></trkpt><trkpt lat="45.3815067" lon="10.5433662"><ele>115.0</ele><time>2026-03-30T13:54:44.096Z</time></trkpt><trkpt lat="45.3814955" lon="10.5432512"><ele>114.6</ele><time>2026-03-30T13:54:45.093Z</time></trkpt><trkpt lat="45.3814837" lon="10.5431317"><ele>114.2</ele><time>2026-03-30T13:54:46.092Z</time></trkpt><trkpt lat="45.3814698" lon="10.5429973"><ele>113.80000000000001</ele><time>2026-03-30T13:54:47.092Z</time></trkpt><trkpt lat="45.3814477" lon="10.5428445"><ele>113.4</ele><time>2026-03-30T13:54:48.094Z</time></trkpt><trkpt lat="45.3814287" lon="10.5426785"><ele>113.0</ele><time>2026-03-30T13:54:49.094Z</time></trkpt><trkpt lat="45.3814152" lon="10.5425062"><ele>113.66666666666666</ele><time>2026-03-30T13:54:50.092Z</time></trkpt><trkpt lat="45.381402" lon="10.54236"><ele>114.33333333333333</ele><time>2026-03-30T13:54:51.094Z</time></trkpt><trkpt lat="45.381394" lon="10.5422307"><ele>115.0</ele><time>2026-03-30T13:54:52.094Z</time></trkpt><trkpt lat="45.381385" lon="10.5421093"><ele>115.66666666666666</ele><time>2026-03-30T13:54:53.095Z</time></trkpt><trkpt lat="45.3813617" lon="10.5420038"><ele>116.33333333333333</ele><time>2026-03-30T13:54:54.098Z</time></trkpt><trkpt lat="45.3813205" lon="10.541929"><ele>117.0</ele><time>2026-03-30T13:54:55.11Z</time></trkpt><trkpt lat="45.3812373" lon="10.541849"><ele>119.16666666666667</ele><time>2026-03-30T13:54:57.094Z</time></trkpt><trkpt lat="45.3811772" lon="10.5418192"><ele>121.33333333333334</ele><time>2026-03-30T13:54:59.097Z</time></trkpt><trkpt lat="45.3811107" lon="10.5417992"><ele>123.5</ele><time>2026-03-30T13:55:06.094Z</time></trkpt><trkpt lat="45.381034" lon="10.5417988"><ele>125.66666666666667</ele><time>2026-03-30T13:55:08.095Z</time></trkpt><trkpt lat="45.380918" lon="10.5418077"><ele>127.83333333333334</ele><time>2026-03-30T13:55:10.093Z</time></trkpt><trkpt lat="45.3808543" lon="10.5418415"><ele>130.0</ele><time>2026-03-30T13:55:11.093Z</time></trkpt><trkpt lat="45.3807827" lon="10.5418828"><ele>130.0</ele><time>2026-03-30T13:55:12.092Z</time></trkpt><trkpt lat="45.3807053" lon="10.5419292"><ele>130.0</ele><time>2026-03-30T13:55:13.094Z</time></trkpt><trkpt lat="45.3806185" lon="10.5419898"><ele>130.0</ele><time>2026-03-30T13:55:14.095Z</time></trkpt><trkpt lat="45.3805277" lon="10.5420507"><ele>130.0</ele><time>2026-03-30T13:55:15.094Z</time></trkpt><trkpt lat="45.3804393" lon="10.5421102"><ele>130.0</ele><time>2026-03-30T13:55:16.094Z</time></trkpt><trkpt lat="45.3803505" lon="10.5421653"><ele>128.6</ele><time>2026-03-30T13:55:17.094Z</time></trkpt><trkpt lat="45.3802618" lon="10.5422248"><ele>127.2</ele><time>2026-03-30T13:55:18.094Z</time></trkpt><trkpt lat="45.3801728" lon="10.5422967"><ele>125.80000000000001</ele><time>2026-03-30T13:55:19.095Z</time></trkpt><trkpt lat="45.3800717" lon="10.542392"><ele>124.4</ele><time>2026-03-30T13:55:20.095Z</time></trkpt><trkpt lat="45.3799802" lon="10.5424808"><ele>123.0</ele><time>2026-03-30T13:55:21.096Z</time></trkpt><trkpt lat="45.3798882" lon="10.5425867"><ele>123.0</ele><time>2026-03-30T13:55:22.094Z</time></trkpt><trkpt lat="45.3797973" lon="10.542728"><ele>123.0</ele><time>2026-03-30T13:55:23.112Z</time></trkpt><trkpt lat="45.3796993" lon="10.5428752"><ele>123.0</ele><time>2026-03-30T13:55:24.094Z</time></trkpt><trkpt lat="45.3796307" lon="10.5429757"><ele>123.0</ele><time>2026-03-30T13:55:25.093Z</time></trkpt><trkpt lat="45.3795738" lon="10.5430588"><ele>124.83333333333333</ele><time>2026-03-30T13:55:26.097Z</time></trkpt><trkpt lat="45.3795335" lon="10.5431475"><ele>126.66666666666666</ele><time>2026-03-30T13:55:27.095Z</time></trkpt><trkpt lat="45.3795223" lon="10.5432428"><ele>128.5</ele><time>2026-03-30T13:55:29.095Z</time></trkpt><trkpt lat="45.3794997" lon="10.5433283"><ele>130.33333333333331</ele><time>2026-03-30T13:55:31.092Z</time></trkpt><trkpt lat="45.3794543" lon="10.5434443"><ele>132.16666666666666</ele><time>2026-03-30T13:55:33.094Z</time></trkpt><trkpt lat="45.3794065" lon="10.5435838"><ele>134.0</ele><time>2026-03-30T13:55:35.091Z</time></trkpt><trkpt lat="45.3793617" lon="10.5436948"><ele>133.83333333333331</ele><time>2026-03-30T13:55:38.094Z</time></trkpt><trkpt lat="45.3793192" lon="10.5437998"><ele>133.66666666666666</ele><time>2026-03-30T13:55:40.095Z</time></trkpt><trkpt lat="45.3792883" lon="10.543896"><ele>133.5</ele><time>2026-03-30T13:55:42.093Z</time></trkpt><trkpt lat="45.3793027" lon="10.5440188"><ele>133.33333333333334</ele><time>2026-03-30T13:55:45.097Z</time></trkpt><trkpt lat="45.3792882" lon="10.5441447"><ele>133.16666666666669</ele><time>2026-03-30T13:55:48.093Z</time></trkpt><trkpt lat="45.3792412" lon="10.5442347"><ele>133.0</ele><time>2026-03-30T13:55:52.094Z</time></trkpt><trkpt lat="45.3791658" lon="10.5442742"><ele>133.0</ele><time>2026-03-30T13:55:57.091Z</time></trkpt><trkpt lat="45.3790777" lon="10.5442957"><ele>133.0</ele><time>2026-03-30T13:56:00.091Z</time></trkpt><trkpt lat="45.3790032" lon="10.5443078"><ele>133.0</ele><time>2026-03-30T13:56:02.094Z</time></trkpt><trkpt lat="45.3789168" lon="10.544327"><ele>133.0</ele><time>2026-03-30T13:56:04.095Z</time></trkpt><trkpt lat="45.3788258" lon="10.5443332"><ele>133.0</ele><time>2026-03-30T13:56:06.092Z</time></trkpt><trkpt lat="45.3787482" lon="10.544341"><ele>133.0</ele><time>2026-03-30T13:56:08.093Z</time></trkpt><trkpt lat="45.3786462" lon="10.544337"><ele>135.0</ele><time>2026-03-30T13:56:10.094Z</time></trkpt><trkpt lat="45.3785295" lon="10.5443355"><ele>137.0</ele><time>2026-03-30T13:56:12.094Z</time></trkpt><trkpt lat="45.3784653" lon="10.5443363"><ele>139.0</ele><time>2026-03-30T13:56:13.092Z</time></trkpt><trkpt lat="45.378396" lon="10.5443395"><ele>141.0</ele><time>2026-03-30T13:56:14.096Z</time></trkpt><trkpt lat="45.3783275" lon="10.5443442"><ele>143.0</ele><time>2026-03-30T13:56:15.095Z</time></trkpt><trkpt lat="45.3782135" lon="10.544351"><ele>145.0</ele><time>2026-03-30T13:56:17.094Z</time></trkpt><trkpt lat="45.3781485" lon="10.5443607"><ele>145.0</ele><time>2026-03-30T13:56:20.095Z</time></trkpt><trkpt lat="45.3780715" lon="10.5444413"><ele>145.0</ele><time>2026-03-30T13:56:51.094Z</time></trkpt><trkpt lat="45.3780313" lon="10.5445352"><ele>145.0</ele><time>2026-03-30T13:56:52.095Z</time></trkpt><trkpt lat="45.3779872" lon="10.5446588"><ele>145.0</ele><time>2026-03-30T13:56:53.095Z</time></trkpt><trkpt lat="45.3779403" lon="10.5447737"><ele>145.0</ele><time>2026-03-30T13:56:54.095Z</time></trkpt><trkpt lat="45.3778953" lon="10.5448785"><ele>144.33333333333334</ele><time>2026-03-30T13:56:55.097Z</time></trkpt><trkpt lat="45.3778455" lon="10.5449755"><ele>143.66666666666669</ele><time>2026-03-30T13:56:56.097Z</time></trkpt><trkpt lat="45.3777982" lon="10.545077"><ele>143.0</ele><time>2026-03-30T13:56:57.099Z</time></trkpt><trkpt lat="45.377751" lon="10.5451768"><ele>142.33333333333334</ele><time>2026-03-30T13:56:58.096Z</time></trkpt><trkpt lat="45.377704" lon="10.545275"><ele>141.66666666666666</ele><time>2026-03-30T13:56:59.094Z</time></trkpt><trkpt lat="45.3776558" lon="10.5453723"><ele>141.0</ele><time>2026-03-30T13:57:00.095Z</time></trkpt><trkpt lat="45.3776067" lon="10.545474"><ele>140.33333333333334</ele><time>2026-03-30T13:57:01.096Z</time></trkpt><trkpt lat="45.3775583" lon="10.5455815"><ele>139.66666666666666</ele><time>2026-03-30T13:57:02.096Z</time></trkpt><trkpt lat="45.3775112" lon="10.5456878"><ele>139.0</ele><time>2026-03-30T13:57:03.095Z</time></trkpt><trkpt lat="45.3774685" lon="10.5457977"><ele>138.33333333333331</ele><time>2026-03-30T13:57:04.095Z</time></trkpt><trkpt lat="45.3774328" lon="10.5459135"><ele>137.66666666666666</ele><time>2026-03-30T13:57:05.095Z</time></trkpt><trkpt lat="45.3774008" lon="10.5460168"><ele>137.0</ele><time>2026-03-30T13:57:06.095Z</time></trkpt><trkpt lat="45.3773403" lon="10.546129"><ele>137.0</ele><time>2026-03-30T13:57:08.094Z</time></trkpt><trkpt lat="45.3772773" lon="10.5462107"><ele>137.0</ele><time>2026-03-30T13:57:41.094Z</time></trkpt><trkpt lat="45.3771725" lon="10.5463045"><ele>137.0</ele><time>2026-03-30T13:57:43.092Z</time></trkpt><trkpt lat="45.3771018" lon="10.546368"><ele>137.0</ele><time>2026-03-30T13:57:44.095Z</time></trkpt><trkpt lat="45.376938" lon="10.5465052"><ele>138.0</ele><time>2026-03-30T13:57:46.093Z</time></trkpt><trkpt lat="45.3768502" lon="10.5465592"><ele>139.0</ele><time>2026-03-30T13:57:47.094Z</time></trkpt><trkpt lat="45.3766378" lon="10.5466333"><ele>140.0</ele><time>2026-03-30T13:57:49.094Z</time></trkpt><trkpt lat="45.3765285" lon="10.546657"><ele>141.0</ele><time>2026-03-30T13:57:50.094Z</time></trkpt><trkpt lat="45.3764282" lon="10.546704"><ele>141.4</ele><time>2026-03-30T13:57:51.094Z</time></trkpt><trkpt lat="45.3763225" lon="10.5467743"><ele>141.8</ele><time>2026-03-30T13:57:52.092Z</time></trkpt><trkpt lat="45.3762205" lon="10.5468435"><ele>142.20000000000002</ele><time>2026-03-30T13:57:53.092Z</time></trkpt><trkpt lat="45.376132" lon="10.546907"><ele>142.6</ele><time>2026-03-30T13:57:54.093Z</time></trkpt><trkpt lat="45.3760595" lon="10.5469558"><ele>143.0</ele><time>2026-03-30T13:57:55.093Z</time></trkpt><trkpt lat="45.3759567" lon="10.5469807"><ele>143.0</ele><time>2026-03-30T13:57:57.094Z</time></trkpt><trkpt lat="45.3758997" lon="10.5469253"><ele>143.0</ele><time>2026-03-30T13:57:59.093Z</time></trkpt><trkpt lat="45.3758625" lon="10.5468232"><ele>143.0</ele><time>2026-03-30T13:58:01.092Z</time></trkpt><trkpt lat="45.3758398" lon="10.5466795"><ele>143.0</ele><time>2026-03-30T13:58:03.092Z</time></trkpt><trkpt lat="45.3758253" lon="10.5465072"><ele>143.0</ele><time>2026-03-30T13:58:05.094Z</time></trkpt><trkpt lat="45.3758275" lon="10.5464113"><ele>143.0</ele><time>2026-03-30T13:58:06.095Z</time></trkpt><trkpt lat="45.3758312" lon="10.5463117"><ele>142.5</ele><time>2026-03-30T13:58:07.093Z</time></trkpt><trkpt lat="45.3758325" lon="10.5462058"><ele>142.0</ele><time>2026-03-30T13:58:08.092Z</time></trkpt><trkpt lat="45.3758252" lon="10.5460983"><ele>141.5</ele><time>2026-03-30T13:58:09.093Z</time></trkpt><trkpt lat="45.3758225" lon="10.5459873"><ele>141.0</ele><time>2026-03-30T13:58:10.093Z</time></trkpt><trkpt lat="45.3758187" lon="10.5458707"><ele>140.5</ele><time>2026-03-30T13:58:11.093Z</time></trkpt><trkpt lat="45.3758087" lon="10.5457583"><ele>140.0</ele><time>2026-03-30T13:58:12.092Z</time></trkpt><trkpt lat="45.3757988" lon="10.5456412"><ele>140.0</ele><time>2026-03-30T13:58:13.091Z</time></trkpt><trkpt lat="45.3757928" lon="10.5455373"><ele>140.0</ele><time>2026-03-30T13:58:14.093Z</time></trkpt><trkpt lat="45.3757945" lon="10.5454393"><ele>140.0</ele><time>2026-03-30T13:58:15.094Z</time></trkpt><trkpt lat="45.3757853" lon="10.545282"><ele>140.0</ele><time>2026-03-30T13:58:17.096Z</time></trkpt><trkpt lat="45.3757797" lon="10.545139"><ele>140.0</ele><time>2026-03-30T13:58:19.093Z</time></trkpt><trkpt lat="45.3757752" lon="10.544985"><ele>139.33333333333331</ele><time>2026-03-30T13:58:21.096Z</time></trkpt><trkpt lat="45.3757682" lon="10.5448025"><ele>138.66666666666666</ele><time>2026-03-30T13:58:23.092Z</time></trkpt><trkpt lat="45.3757652" lon="10.5447005"><ele>138.0</ele><time>2026-03-30T13:58:24.104Z</time></trkpt><trkpt lat="45.3757588" lon="10.5445947"><ele>137.33333333333334</ele><time>2026-03-30T13:58:25.091Z</time></trkpt><trkpt lat="45.3757478" lon="10.544487"><ele>136.66666666666669</ele><time>2026-03-30T13:58:26.091Z</time></trkpt><trkpt lat="45.375737" lon="10.544379"><ele>136.0</ele><time>2026-03-30T13:58:27.09Z</time></trkpt><trkpt lat="45.3757297" lon="10.5442652"><ele>135.0</ele><time>2026-03-30T13:58:28.09Z</time></trkpt><trkpt lat="45.3757172" lon="10.5441502"><ele>134.0</ele><time>2026-03-30T13:58:29.091Z</time></trkpt><trkpt lat="45.375697" lon="10.5440342"><ele>133.0</ele><time>2026-03-30T13:58:30.092Z</time></trkpt><trkpt lat="45.3756737" lon="10.5439205"><ele>132.0</ele><time>2026-03-30T13:58:31.094Z</time></trkpt><trkpt lat="45.3756475" lon="10.5438213"><ele>131.0</ele><time>2026-03-30T13:58:32.108Z</time></trkpt><trkpt lat="45.3755973" lon="10.5436805"><ele>130.0</ele><time>2026-03-30T13:58:34.094Z</time></trkpt><trkpt lat="45.3755363" lon="10.5436333"><ele>128.0</ele><time>2026-03-30T13:58:36.093Z</time></trkpt><trkpt lat="45.3754462" lon="10.5436518"><ele>126.0</ele><time>2026-03-30T13:58:39.093Z</time></trkpt><trkpt lat="45.3758325" lon="10.5462058"><ele>128.33333333333334</ele><time>2026-03-30T13:58:08.092Z</time></trkpt><trkpt lat="45.3758252" lon="10.5460983"><ele>130.66666666666666</ele><time>2026-03-30T13:58:09.093Z</time></trkpt><trkpt lat="45.3758225" lon="10.5459873"><ele>133.0</ele><time>2026-03-30T13:58:10.093Z</time></trkpt><trkpt lat="45.3758187" lon="10.5458707"><ele>135.33333333333331</ele><time>2026-03-30T13:58:11.093Z</time></trkpt><trkpt lat="45.3758087" lon="10.5457583"><ele>137.66666666666666</ele><time>2026-03-30T13:58:12.092Z</time></trkpt><trkpt lat="45.3757988" lon="10.5456412"><ele>140.0</ele><time>2026-03-30T13:58:13.091Z</time></trkpt><trkpt lat="45.3757928" lon="10.5455373"><ele>140.0</ele><time>2026-03-30T13:58:14.093Z</time></trkpt><trkpt lat="45.3757945" lon="10.5454393"><ele>140.0</ele><time>2026-03-30T13:58:15.094Z</time></trkpt><trkpt lat="45.3757853" lon="10.545282"><ele>140.0</ele><time>2026-03-30T13:58:17.096Z</time></trkpt><trkpt lat="45.3757797" lon="10.545139"><ele>140.0</ele><time>2026-03-30T13:58:19.093Z</time></trkpt><trkpt lat="45.3757752" lon="10.544985"><ele>140.0</ele><time>2026-03-30T13:58:21.096Z</time></trkpt><trkpt lat="45.3757682" lon="10.5448025"><ele>139.33333333333331</ele><time>2026-03-30T13:58:23.092Z</time></trkpt><trkpt lat="45.3757652" lon="10.5447005"><ele>138.66666666666666</ele><time>2026-03-30T13:58:24.104Z</time></trkpt><trkpt lat="45.3757588" lon="10.5445947"><ele>138.0</ele><time>2026-03-30T13:58:25.091Z</time></trkpt><trkpt lat="45.3757478" lon="10.544487"><ele>137.33333333333334</ele><time>2026-03-30T13:58:26.091Z</time></trkpt><trkpt lat="45.375737" lon="10.544379"><ele>136.66666666666669</ele><time>2026-03-30T13:58:27.09Z</time></trkpt><trkpt lat="45.3757297" lon="10.5442652"><ele>136.0</ele><time>2026-03-30T13:58:28.09Z</time></trkpt><trkpt lat="45.3757172" lon="10.5441502"><ele>135.0</ele><time>2026-03-30T13:58:29.091Z</time></trkpt><trkpt lat="45.375697" lon="10.5440342"><ele>134.0</ele><time>2026-03-30T13:58:30.092Z</time></trkpt><trkpt lat="45.3756737" lon="10.5439205"><ele>133.0</ele><time>2026-03-30T13:58:31.094Z</time></trkpt><trkpt lat="45.3756475" lon="10.5438213"><ele>132.0</ele><time>2026-03-30T13:58:32.108Z</time></trkpt><trkpt lat="45.3755973" lon="10.5436805"><ele>131.0</ele><time>2026-03-30T13:58:34.094Z</time></trkpt><trkpt lat="45.3755363" lon="10.5436333"><ele>130.0</ele><time>2026-03-30T13:58:36.093Z</time></trkpt><trkpt lat="45.3754462" lon="10.5436518"><ele>130.0</ele><time>2026-03-30T13:58:39.093Z</time></trkpt><trkpt lat="45.3753768" lon="10.5436872"><ele>130.0</ele><time>2026-03-30T13:58:42.092Z</time></trkpt><trkpt lat="45.3753063" lon="10.5437208"><ele>130.0</ele><time>2026-03-30T13:58:47.093Z</time></trkpt><trkpt lat="45.3751217" lon="10.5438598"><ele>130.0</ele><time>2026-03-30T13:58:50.091Z</time></trkpt><trkpt lat="45.3750345" lon="10.5439603"><ele>130.0</ele><time>2026-03-30T13:58:51.091Z</time></trkpt><trkpt lat="45.3749197" lon="10.5440803"><ele>130.0</ele><time>2026-03-30T13:58:52.092Z</time></trkpt><trkpt lat="45.3747992" lon="10.5441937"><ele>130.0</ele><time>2026-03-30T13:58:53.091Z</time></trkpt><trkpt lat="45.3746598" lon="10.544333"><ele>131.0</ele><time>2026-03-30T13:58:54.093Z</time></trkpt><trkpt lat="45.3745037" lon="10.5444935"><ele>132.0</ele><time>2026-03-30T13:58:55.092Z</time></trkpt><trkpt lat="45.3743575" lon="10.544663"><ele>133.0</ele><time>2026-03-30T13:58:56.094Z</time></trkpt><trkpt lat="45.3742375" lon="10.5447955"><ele>133.0</ele><time>2026-03-30T13:58:57.093Z</time></trkpt><trkpt lat="45.3741353" lon="10.5449045"><ele>133.0</ele><time>2026-03-30T13:58:58.09Z</time></trkpt><trkpt lat="45.3740562" lon="10.5449838"><ele>133.0</ele><time>2026-03-30T13:58:59.09Z</time></trkpt><trkpt lat="45.3740005" lon="10.5450492"><ele>133.0</ele><time>2026-03-30T13:59:00.093Z</time></trkpt><trkpt lat="45.3739598" lon="10.5451478"><ele>133.0</ele><time>2026-03-30T13:59:02.093Z</time></trkpt><trkpt lat="45.3739607" lon="10.5452728"><ele>132.0</ele><time>2026-03-30T13:59:04.092Z</time></trkpt><trkpt lat="45.3739883" lon="10.545384"><ele>131.0</ele><time>2026-03-30T13:59:06.094Z</time></trkpt><trkpt lat="45.3739547" lon="10.5454745"><ele>130.0</ele><time>2026-03-30T13:59:09.098Z</time></trkpt><trkpt lat="45.3738938" lon="10.5455485"><ele>129.0</ele><time>2026-03-30T13:59:12.096Z</time></trkpt><trkpt lat="45.373823" lon="10.5456273"><ele>128.0</ele><time>2026-03-30T13:59:14.092Z</time></trkpt><trkpt lat="45.37377" lon="10.5456872"><ele>127.0</ele><time>2026-03-30T13:59:15.089Z</time></trkpt><trkpt lat="45.3737075" lon="10.5457582"><ele>127.00000000000001</ele><time>2026-03-30T13:59:16.091Z</time></trkpt><trkpt lat="45.3736392" lon="10.5458338"><ele>127.0</ele><time>2026-03-30T13:59:17.091Z</time></trkpt><trkpt lat="45.3735665" lon="10.545917"><ele>127.0</ele><time>2026-03-30T13:59:18.092Z</time></trkpt><trkpt lat="45.3735003" lon="10.5459928"><ele>127.0</ele><time>2026-03-30T13:59:19.092Z</time></trkpt><trkpt lat="45.3734397" lon="10.5460603"><ele>127.00000000000001</ele><time>2026-03-30T13:59:20.096Z</time></trkpt><trkpt lat="45.373382" lon="10.5461237"><ele>127.0</ele><time>2026-03-30T13:59:21.094Z</time></trkpt><trkpt lat="45.3733158" lon="10.5462193"><ele>127.50000000000001</ele><time>2026-03-30T13:59:23.094Z</time></trkpt><trkpt lat="45.3733393" lon="10.5463322"><ele>128.0</ele><time>2026-03-30T13:59:27.094Z</time></trkpt><trkpt lat="45.3734095" lon="10.5463927"><ele>128.5</ele><time>2026-03-30T13:59:29.094Z</time></trkpt><trkpt lat="45.3734863" lon="10.5464758"><ele>129.0</ele><time>2026-03-30T13:59:31.094Z</time></trkpt><trkpt lat="45.3735492" lon="10.5465698"><ele>129.5</ele><time>2026-03-30T13:59:33.094Z</time></trkpt><trkpt lat="45.373562" lon="10.5466728"><ele>130.0</ele><time>2026-03-30T13:59:36.094Z</time></trkpt><trkpt lat="45.373487" lon="10.546792"><ele>130.0</ele><time>2026-03-30T13:59:39.091Z</time></trkpt><trkpt lat="45.3733798" lon="10.5469095"><ele>130.0</ele><time>2026-03-30T13:59:41.093Z</time></trkpt><trkpt lat="45.373315" lon="10.5469692"><ele>130.0</ele><time>2026-03-30T13:59:42.109Z</time></trkpt><trkpt lat="45.3732518" lon="10.5470273"><ele>130.0</ele><time>2026-03-30T13:59:43.093Z</time></trkpt><trkpt lat="45.3731837" lon="10.5470877"><ele>130.0</ele><time>2026-03-30T13:59:44.093Z</time></trkpt><trkpt lat="45.3731148" lon="10.5471488"><ele>130.0</ele><time>2026-03-30T13:59:45.094Z</time></trkpt><trkpt lat="45.3730453" lon="10.5472173"><ele>128.8</ele><time>2026-03-30T13:59:46.092Z</time></trkpt><trkpt lat="45.3729753" lon="10.5472817"><ele>127.6</ele><time>2026-03-30T13:59:47.094Z</time></trkpt><trkpt lat="45.3729015" lon="10.5473495"><ele>126.4</ele><time>2026-03-30T13:59:48.093Z</time></trkpt><trkpt lat="45.3728267" lon="10.5474233"><ele>125.2</ele><time>2026-03-30T13:59:49.095Z</time></trkpt><trkpt lat="45.3727492" lon="10.5474955"><ele>124.0</ele><time>2026-03-30T13:59:50.094Z</time></trkpt><trkpt lat="45.3726697" lon="10.54757"><ele>124.0</ele><time>2026-03-30T13:59:51.096Z</time></trkpt><trkpt lat="45.372588" lon="10.5476455"><ele>124.0</ele><time>2026-03-30T13:59:52.095Z</time></trkpt><trkpt lat="45.3725047" lon="10.547724"><ele>124.0</ele><time>2026-03-30T13:59:53.096Z</time></trkpt><trkpt lat="45.3724258" lon="10.5478013"><ele>124.0</ele><time>2026-03-30T13:59:54.094Z</time></trkpt><trkpt lat="45.3723485" lon="10.5478872"><ele>124.0</ele><time>2026-03-30T13:59:55.093Z</time></trkpt><trkpt lat="45.3722762" lon="10.5479713"><ele>124.66666666666667</ele><time>2026-03-30T13:59:56.094Z</time></trkpt><trkpt lat="45.3722092" lon="10.5480415"><ele>125.33333333333334</ele><time>2026-03-30T13:59:57.093Z</time></trkpt><trkpt lat="45.3721427" lon="10.5480915"><ele>126.0</ele><time>2026-03-30T13:59:58.093Z</time></trkpt><trkpt lat="45.3720693" lon="10.5481195"><ele>126.66666666666666</ele><time>2026-03-30T13:59:59.092Z</time></trkpt><trkpt lat="45.3719958" lon="10.5481355"><ele>127.33333333333333</ele><time>2026-03-30T14:00:00.092Z</time></trkpt><trkpt lat="45.3719132" lon="10.5481373"><ele>128.0</ele><time>2026-03-30T14:00:01.09Z</time></trkpt><trkpt lat="45.3718255" lon="10.5481393"><ele>128.0</ele><time>2026-03-30T14:00:02.093Z</time></trkpt><trkpt lat="45.3717288" lon="10.5481472"><ele>128.0</ele><time>2026-03-30T14:00:03.092Z</time></trkpt><trkpt lat="45.3716273" lon="10.5481567"><ele>128.0</ele><time>2026-03-30T14:00:04.093Z</time></trkpt><trkpt lat="45.371523" lon="10.5481593"><ele>128.0</ele><time>2026-03-30T14:00:05.093Z</time></trkpt><trkpt lat="45.3714163" lon="10.5481523"><ele>128.0</ele><time>2026-03-30T14:00:06.091Z</time></trkpt><trkpt lat="45.3713112" lon="10.548141"><ele>127.80000000000001</ele><time>2026-03-30T14:00:07.096Z</time></trkpt><trkpt lat="45.3712057" lon="10.5481402"><ele>127.60000000000001</ele><time>2026-03-30T14:00:08.093Z</time></trkpt><trkpt lat="45.3711007" lon="10.54815"><ele>127.39999999999999</ele><time>2026-03-30T14:00:09.093Z</time></trkpt><trkpt lat="45.3709922" lon="10.5481568"><ele>127.19999999999999</ele><time>2026-03-30T14:00:10.094Z</time></trkpt><trkpt lat="45.3708813" lon="10.5481613"><ele>127.0</ele><time>2026-03-30T14:00:11.094Z</time></trkpt><trkpt lat="45.3707712" lon="10.5481683"><ele>127.0</ele><time>2026-03-30T14:00:12.093Z</time></trkpt><trkpt lat="45.3706623" lon="10.5481758"><ele>126.99999999999999</ele><time>2026-03-30T14:00:13.091Z</time></trkpt><trkpt lat="45.3705608" lon="10.5481647"><ele>126.99999999999999</ele><time>2026-03-30T14:00:14.094Z</time></trkpt><trkpt lat="45.3704583" lon="10.5481298"><ele>127.0</ele><time>2026-03-30T14:00:15.093Z</time></trkpt><trkpt lat="45.3703555" lon="10.5480797"><ele>127.0</ele><time>2026-03-30T14:00:16.094Z</time></trkpt><trkpt lat="45.370251" lon="10.5480255"><ele>126.8</ele><time>2026-03-30T14:00:17.093Z</time></trkpt><trkpt lat="45.370147" lon="10.5479785"><ele>126.6</ele><time>2026-03-30T14:00:18.093Z</time></trkpt><trkpt lat="45.3700448" lon="10.5479522"><ele>126.39999999999999</ele><time>2026-03-30T14:00:19.091Z</time></trkpt><trkpt lat="45.3699382" lon="10.547949"><ele>126.19999999999999</ele><time>2026-03-30T14:00:20.092Z</time></trkpt><trkpt lat="45.3698285" lon="10.5479603"><ele>126.0</ele><time>2026-03-30T14:00:21.093Z</time></trkpt><trkpt lat="45.3697105" lon="10.5479713"><ele>125.0</ele><time>2026-03-30T14:00:22.093Z</time></trkpt><trkpt lat="45.3695933" lon="10.5479823"><ele>124.0</ele><time>2026-03-30T14:00:23.094Z</time></trkpt><trkpt lat="45.3694703" lon="10.5479928"><ele>123.0</ele><time>2026-03-30T14:00:24.093Z</time></trkpt><trkpt lat="45.3693462" lon="10.5480065"><ele>122.0</ele><time>2026-03-30T14:00:25.092Z</time></trkpt><trkpt lat="45.3692412" lon="10.548028"><ele>121.99999999999999</ele><time>2026-03-30T14:00:26.092Z</time></trkpt><trkpt lat="45.3691463" lon="10.5480523"><ele>122.0</ele><time>2026-03-30T14:00:27.091Z</time></trkpt><trkpt lat="45.3690605" lon="10.5480695"><ele>122.0</ele><time>2026-03-30T14:00:28.092Z</time></trkpt><trkpt lat="45.3689895" lon="10.5480817"><ele>122.0</ele><time>2026-03-30T14:00:29.089Z</time></trkpt><trkpt lat="45.3689108" lon="10.5481115"><ele>121.99999999999999</ele><time>2026-03-30T14:00:31.094Z</time></trkpt><trkpt lat="45.3688568" lon="10.5482245"><ele>122.0</ele><time>2026-03-30T14:01:15.093Z</time></trkpt><trkpt lat="45.3688437" lon="10.5483485"><ele>121.99999999999999</ele><time>2026-03-30T14:01:18.108Z</time></trkpt><trkpt lat="45.3688587" lon="10.5484868"><ele>122.0</ele><time>2026-03-30T14:01:20.096Z</time></trkpt><trkpt lat="45.3689227" lon="10.5486438"><ele>122.0</ele><time>2026-03-30T14:01:22.095Z</time></trkpt><trkpt lat="45.3689595" lon="10.5487303"><ele>122.0</ele><time>2026-03-30T14:01:23.095Z</time></trkpt><trkpt lat="45.3690017" lon="10.5488158"><ele>121.99999999999999</ele><time>2026-03-30T14:01:24.097Z</time></trkpt><trkpt lat="45.3690498" lon="10.5489017"><ele>122.0</ele><time>2026-03-30T14:01:25.096Z</time></trkpt><trkpt lat="45.3690982" lon="10.5489865"><ele>122.8</ele><time>2026-03-30T14:01:26.094Z</time></trkpt><trkpt lat="45.3691457" lon="10.5490737"><ele>123.6</ele><time>2026-03-30T14:01:27.096Z</time></trkpt><trkpt lat="45.3691858" lon="10.5491558"><ele>124.39999999999999</ele><time>2026-03-30T14:01:28.094Z</time></trkpt><trkpt lat="45.3692735" lon="10.549298"><ele>125.19999999999999</ele><time>2026-03-30T14:01:30.097Z</time></trkpt><trkpt lat="45.3693185" lon="10.5493702"><ele>126.0</ele><time>2026-03-30T14:01:31.094Z</time></trkpt><trkpt lat="45.3694152" lon="10.5494882"><ele>126.16666666666667</ele><time>2026-03-30T14:01:33.095Z</time></trkpt><trkpt lat="45.3694602" lon="10.5495722"><ele>126.33333333333334</ele><time>2026-03-30T14:01:34.094Z</time></trkpt><trkpt lat="45.3695125" lon="10.5496577"><ele>126.5</ele><time>2026-03-30T14:01:35.094Z</time></trkpt><trkpt lat="45.3695477" lon="10.549739"><ele>126.66666666666667</ele><time>2026-03-30T14:01:36.097Z</time></trkpt><trkpt lat="45.3696307" lon="10.5498793"><ele>126.83333333333334</ele><time>2026-03-30T14:01:38.094Z</time></trkpt><trkpt lat="45.3696772" lon="10.5499735"><ele>127.0</ele><time>2026-03-30T14:01:39.096Z</time></trkpt><trkpt lat="45.3697323" lon="10.5500513"><ele>127.83333333333334</ele><time>2026-03-30T14:01:40.096Z</time></trkpt><trkpt lat="45.3697737" lon="10.550137"><ele>128.66666666666669</ele><time>2026-03-30T14:01:41.093Z</time></trkpt><trkpt lat="45.3698137" lon="10.5502243"><ele>129.5</ele><time>2026-03-30T14:01:42.093Z</time></trkpt><trkpt lat="45.3698433" lon="10.5503065"><ele>130.33333333333334</ele><time>2026-03-30T14:01:43.093Z</time></trkpt><trkpt lat="45.3698645" lon="10.5503913"><ele>131.16666666666666</ele><time>2026-03-30T14:01:44.091Z</time></trkpt><trkpt lat="45.3699022" lon="10.5505242"><ele>132.0</ele><time>2026-03-30T14:01:45.094Z</time></trkpt><trkpt lat="45.3699413" lon="10.550645"><ele>132.16666666666666</ele><time>2026-03-30T14:01:46.107Z</time></trkpt><trkpt lat="45.3699732" lon="10.5507742"><ele>132.33333333333334</ele><time>2026-03-30T14:01:47.094Z</time></trkpt><trkpt lat="45.3699918" lon="10.5508878"><ele>132.5</ele><time>2026-03-30T14:01:48.094Z</time></trkpt><trkpt lat="45.3700073" lon="10.5510003"><ele>132.66666666666669</ele><time>2026-03-30T14:01:49.093Z</time></trkpt><trkpt lat="45.3700295" lon="10.551112"><ele>132.83333333333334</ele><time>2026-03-30T14:01:50.093Z</time></trkpt><trkpt lat="45.3700522" lon="10.5512157"><ele>133.0</ele><time>2026-03-30T14:01:51.094Z</time></trkpt><trkpt lat="45.370069" lon="10.5513047"><ele>133.0</ele><time>2026-03-30T14:01:52.095Z</time></trkpt><trkpt lat="45.3700902" lon="10.5513937"><ele>133.0</ele><time>2026-03-30T14:01:53.095Z</time></trkpt><trkpt lat="45.3701167" lon="10.5514832"><ele>133.0</ele><time>2026-03-30T14:01:54.096Z</time></trkpt><trkpt lat="45.370138" lon="10.551576"><ele>133.0</ele><time>2026-03-30T14:01:55.094Z</time></trkpt><trkpt lat="45.3701492" lon="10.5516735"><ele>133.0</ele><time>2026-03-30T14:01:56.095Z</time></trkpt><trkpt lat="45.3701677" lon="10.551775"><ele>133.0</ele><time>2026-03-30T14:01:57.095Z</time></trkpt><trkpt lat="45.3701867" lon="10.5518742"><ele>133.0</ele><time>2026-03-30T14:01:58.092Z</time></trkpt><trkpt lat="45.3702022" lon="10.5519692"><ele>132.85714285714286</ele><time>2026-03-30T14:01:59.094Z</time></trkpt><trkpt lat="45.370212" lon="10.5520625"><ele>132.71428571428572</ele><time>2026-03-30T14:02:00.093Z</time></trkpt><trkpt lat="45.3702022" lon="10.5521703"><ele>132.57142857142856</ele><time>2026-03-30T14:02:01.094Z</time></trkpt><trkpt lat="45.3701958" lon="10.5522877"><ele>132.42857142857144</ele><time>2026-03-30T14:02:03.097Z</time></trkpt><trkpt lat="45.370189" lon="10.5523787"><ele>132.28571428571428</ele><time>2026-03-30T14:02:05.097Z</time></trkpt><trkpt lat="45.3701782" lon="10.5524815"><ele>132.14285714285714</ele><time>2026-03-30T14:02:18.097Z</time></trkpt><trkpt lat="45.3700953" lon="10.5524928"><ele>132.0</ele><time>2026-03-30T14:02:20.095Z</time></trkpt><trkpt lat="45.3699933" lon="10.5524955"><ele>132.0</ele><time>2026-03-30T14:02:22.112Z</time></trkpt><trkpt lat="45.3698997" lon="10.552483"><ele>132.0</ele><time>2026-03-30T14:02:24.1Z</time></trkpt><trkpt lat="45.369808" lon="10.5524778"><ele>132.0</ele><time>2026-03-30T14:02:26.101Z</time></trkpt><trkpt lat="45.3697142" lon="10.5524567"><ele>132.0</ele><time>2026-03-30T14:02:28.099Z</time></trkpt><trkpt lat="45.369609" lon="10.5524252"><ele>132.0</ele><time>2026-03-30T14:02:30.094Z</time></trkpt><trkpt lat="45.3695255" lon="10.552401"><ele>131.25</ele><time>2026-03-30T14:02:31.094Z</time></trkpt><trkpt lat="45.3694225" lon="10.5523532"><ele>130.5</ele><time>2026-03-30T14:02:32.095Z</time></trkpt><trkpt lat="45.3693082" lon="10.5522933"><ele>129.75</ele><time>2026-03-30T14:02:33.094Z</time></trkpt><trkpt lat="45.3691877" lon="10.5522338"><ele>129.0</ele><time>2026-03-30T14:02:34.096Z</time></trkpt><trkpt lat="45.3690638" lon="10.552175"><ele>129.0</ele><time>2026-03-30T14:02:35.098Z</time></trkpt><trkpt lat="45.3689385" lon="10.5521188"><ele>129.0</ele><time>2026-03-30T14:02:36.1Z</time></trkpt><trkpt lat="45.3688178" lon="10.5520695"><ele>129.0</ele><time>2026-03-30T14:02:37.1Z</time></trkpt><trkpt lat="45.368704" lon="10.5520362"><ele>129.0</ele><time>2026-03-30T14:02:38.1Z</time></trkpt><trkpt lat="45.3685973" lon="10.5520233"><ele>128.8</ele><time>2026-03-30T14:02:39.101Z</time></trkpt><trkpt lat="45.3685032" lon="10.5520298"><ele>128.60000000000002</ele><time>2026-03-30T14:02:40.099Z</time></trkpt><trkpt lat="45.3684283" lon="10.5520513"><ele>128.4</ele><time>2026-03-30T14:02:41.1Z</time></trkpt><trkpt lat="45.368356" lon="10.552131"><ele>128.20000000000002</ele><time>2026-03-30T14:02:43.098Z</time></trkpt><trkpt lat="45.3683473" lon="10.5522523"><ele>128.0</ele><time>2026-03-30T14:02:45.098Z</time></trkpt><trkpt lat="45.3683517" lon="10.5524568"><ele>127.75</ele><time>2026-03-30T14:02:47.096Z</time></trkpt><trkpt lat="45.3683482" lon="10.5526053"><ele>127.5</ele><time>2026-03-30T14:02:48.096Z</time></trkpt><trkpt lat="45.3683482" lon="10.5527832"><ele>127.25</ele><time>2026-03-30T14:02:49.097Z</time></trkpt><trkpt lat="45.368347" lon="10.5529763"><ele>127.0</ele><time>2026-03-30T14:02:50.098Z</time></trkpt><trkpt lat="45.3683507" lon="10.5531463"><ele>126.75</ele><time>2026-03-30T14:02:51.1Z</time></trkpt><trkpt lat="45.368362" lon="10.5533068"><ele>126.5</ele><time>2026-03-30T14:02:52.098Z</time></trkpt><trkpt lat="45.3683872" lon="10.5534658"><ele>126.25</ele><time>2026-03-30T14:02:53.097Z</time></trkpt><trkpt lat="45.368413" lon="10.5536278"><ele>126.0</ele><time>2026-03-30T14:02:54.096Z</time></trkpt><trkpt lat="45.3684428" lon="10.5537907"><ele>125.8</ele><time>2026-03-30T14:02:55.095Z</time></trkpt><trkpt lat="45.3684685" lon="10.5539455"><ele>125.6</ele><time>2026-03-30T14:02:56.096Z</time></trkpt><trkpt lat="45.3684907" lon="10.5540912"><ele>125.4</ele><time>2026-03-30T14:02:57.093Z</time></trkpt><trkpt lat="45.368519" lon="10.5542268"><ele>125.2</ele><time>2026-03-30T14:02:58.096Z</time></trkpt><trkpt lat="45.3685512" lon="10.5543692"><ele>125.0</ele><time>2026-03-30T14:02:59.097Z</time></trkpt><trkpt lat="45.368581" lon="10.5545248"><ele>125.33333333333333</ele><time>2026-03-30T14:03:00.097Z</time></trkpt><trkpt lat="45.3686107" lon="10.5546812"><ele>125.66666666666666</ele><time>2026-03-30T14:03:01.098Z</time></trkpt><trkpt lat="45.3686385" lon="10.5548175"><ele>126.0</ele><time>2026-03-30T14:03:02.101Z</time></trkpt><trkpt lat="45.3686615" lon="10.5549388"><ele>126.33333333333334</ele><time>2026-03-30T14:03:03.098Z</time></trkpt><trkpt lat="45.3686845" lon="10.5550448"><ele>126.66666666666667</ele><time>2026-03-30T14:03:04.099Z</time></trkpt><trkpt lat="45.3687077" lon="10.5551378"><ele>127.0</ele><time>2026-03-30T14:03:05.099Z</time></trkpt><trkpt lat="45.3687352" lon="10.5552265"><ele>127.0</ele><time>2026-03-30T14:03:06.099Z</time></trkpt><trkpt lat="45.3687607" lon="10.5553142"><ele>126.99999999999999</ele><time>2026-03-30T14:03:07.097Z</time></trkpt><trkpt lat="45.3687763" lon="10.5554043"><ele>126.99999999999999</ele><time>2026-03-30T14:03:08.098Z</time></trkpt><trkpt lat="45.368793" lon="10.5555722"><ele>127.0</ele><time>2026-03-30T14:03:10.098Z</time></trkpt><trkpt lat="45.3688088" lon="10.5557318"><ele>127.0</ele><time>2026-03-30T14:03:12.101Z</time></trkpt><trkpt lat="45.3688158" lon="10.5558532"><ele>127.33333333333334</ele><time>2026-03-30T14:03:14.099Z</time></trkpt><trkpt lat="45.3688207" lon="10.5559707"><ele>127.66666666666667</ele><time>2026-03-30T14:03:33.096Z</time></trkpt><trkpt lat="45.3688742" lon="10.556022"><ele>128.0</ele><time>2026-03-30T14:03:36.098Z</time></trkpt><trkpt lat="45.3689307" lon="10.5560712"><ele>128.33333333333334</ele><time>2026-03-30T14:03:41.095Z</time></trkpt><trkpt lat="45.3690303" lon="10.556069"><ele>128.66666666666666</ele><time>2026-03-30T14:03:47.093Z</time></trkpt><trkpt lat="45.369142" lon="10.556072"><ele>129.0</ele><time>2026-03-30T14:03:49.098Z</time></trkpt><trkpt lat="45.3692102" lon="10.5560745"><ele>129.0</ele><time>2026-03-30T14:03:50.097Z</time></trkpt><trkpt lat="45.3692903" lon="10.5560765"><ele>129.0</ele><time>2026-03-30T14:03:51.097Z</time></trkpt><trkpt lat="45.369381" lon="10.5560778"><ele>129.0</ele><time>2026-03-30T14:03:52.097Z</time></trkpt><trkpt lat="45.3694752" lon="10.5560772"><ele>129.0</ele><time>2026-03-30T14:03:53.097Z</time></trkpt><trkpt lat="45.3695737" lon="10.5560773"><ele>129.0</ele><time>2026-03-30T14:03:54.096Z</time></trkpt><trkpt lat="45.3696773" lon="10.5560773"><ele>129.66666666666666</ele><time>2026-03-30T14:03:55.094Z</time></trkpt><trkpt lat="45.3697825" lon="10.5560763"><ele>130.33333333333334</ele><time>2026-03-30T14:03:56.096Z</time></trkpt><trkpt lat="45.3698828" lon="10.5560757"><ele>131.0</ele><time>2026-03-30T14:03:57.095Z</time></trkpt><trkpt lat="45.3699782" lon="10.556075"><ele>131.66666666666669</ele><time>2026-03-30T14:03:58.096Z</time></trkpt><trkpt lat="45.370059" lon="10.556073"><ele>132.33333333333334</ele><time>2026-03-30T14:03:59.095Z</time></trkpt><trkpt lat="45.3701235" lon="10.5560752"><ele>133.0</ele><time>2026-03-30T14:04:00.095Z</time></trkpt><trkpt lat="45.3701988" lon="10.5561097"><ele>134.0</ele><time>2026-03-30T14:04:02.096Z</time></trkpt><trkpt lat="45.370177" lon="10.5562352"><ele>135.0</ele><time>2026-03-30T14:04:05.096Z</time></trkpt><trkpt lat="45.3701552" lon="10.5563437"><ele>136.0</ele><time>2026-03-30T14:04:06.095Z</time></trkpt><trkpt lat="45.3701427" lon="10.5564512"><ele>137.0</ele><time>2026-03-30T14:04:07.096Z</time></trkpt><trkpt lat="45.37016" lon="10.5565888"><ele>138.0</ele><time>2026-03-30T14:04:09.092Z</time></trkpt><trkpt lat="45.3702248" lon="10.5566822"><ele>139.0</ele><time>2026-03-30T14:04:12.093Z</time></trkpt><trkpt lat="45.3702832" lon="10.5567558"><ele>139.0</ele><time>2026-03-30T14:04:14.094Z</time></trkpt><trkpt lat="45.3702843" lon="10.5568537"><ele>139.0</ele><time>2026-03-30T14:04:17.095Z</time></trkpt><trkpt lat="45.3702358" lon="10.5569677"><ele>139.0</ele><time>2026-03-30T14:04:21.095Z</time></trkpt><trkpt lat="45.3701548" lon="10.5571125"><ele>139.0</ele><time>2026-03-30T14:04:23.098Z</time></trkpt><trkpt lat="45.3700897" lon="10.5572012"><ele>139.0</ele><time>2026-03-30T14:04:24.096Z</time></trkpt><trkpt lat="45.3700087" lon="10.5572732"><ele>138.4</ele><time>2026-03-30T14:04:25.094Z</time></trkpt><trkpt lat="45.3699178" lon="10.5573338"><ele>137.8</ele><time>2026-03-30T14:04:26.094Z</time></trkpt><trkpt lat="45.3698218" lon="10.557385"><ele>137.2</ele><time>2026-03-30T14:04:27.095Z</time></trkpt><trkpt lat="45.3697232" lon="10.5574415"><ele>136.6</ele><time>2026-03-30T14:04:28.094Z</time></trkpt><trkpt lat="45.3696382" lon="10.5575105"><ele>136.0</ele><time>2026-03-30T14:04:29.092Z</time></trkpt><trkpt lat="45.3695728" lon="10.5575907"><ele>136.0</ele><time>2026-03-30T14:04:30.094Z</time></trkpt><trkpt lat="45.3695288" lon="10.55768"><ele>136.0</ele><time>2026-03-30T14:04:31.093Z</time></trkpt><trkpt lat="45.3694953" lon="10.557789"><ele>136.0</ele><time>2026-03-30T14:04:32.096Z</time></trkpt><trkpt lat="45.3694718" lon="10.5579203"><ele>136.0</ele><time>2026-03-30T14:04:33.093Z</time></trkpt><trkpt lat="45.369461" lon="10.5580678"><ele>136.0</ele><time>2026-03-30T14:04:34.092Z</time></trkpt><trkpt lat="45.3694662" lon="10.5582288"><ele>137.0</ele><time>2026-03-30T14:04:35.092Z</time></trkpt><trkpt lat="45.3694763" lon="10.5584038"><ele>138.0</ele><time>2026-03-30T14:04:36.11Z</time></trkpt><trkpt lat="45.3694858" lon="10.5585633"><ele>139.0</ele><time>2026-03-30T14:04:37.098Z</time></trkpt><trkpt lat="45.3694945" lon="10.5587065"><ele>140.0</ele><time>2026-03-30T14:04:38.096Z</time></trkpt><trkpt lat="45.3695018" lon="10.5588335"><ele>141.0</ele><time>2026-03-30T14:04:39.097Z</time></trkpt><trkpt lat="45.369512" lon="10.55895"><ele>141.0</ele><time>2026-03-30T14:04:40.095Z</time></trkpt><trkpt lat="45.3695253" lon="10.5590637"><ele>141.0</ele><time>2026-03-30T14:04:41.097Z</time></trkpt><trkpt lat="45.3695372" lon="10.5591702"><ele>141.0</ele><time>2026-03-30T14:04:42.097Z</time></trkpt><trkpt lat="45.3695978" lon="10.5593053"><ele>141.0</ele><time>2026-03-30T14:04:44.096Z</time></trkpt><trkpt lat="45.3696802" lon="10.5593375"><ele>141.0</ele><time>2026-03-30T14:04:46.094Z</time></trkpt><trkpt lat="45.369788" lon="10.5593775"><ele>142.8</ele><time>2026-03-30T14:04:48.098Z</time></trkpt><trkpt lat="45.3698923" lon="10.5594432"><ele>144.6</ele><time>2026-03-30T14:04:50.095Z</time></trkpt><trkpt lat="45.3699922" lon="10.5594948"><ele>146.4</ele><time>2026-03-30T14:04:52.094Z</time></trkpt><trkpt lat="45.3700988" lon="10.5595585"><ele>148.2</ele><time>2026-03-30T14:04:54.097Z</time></trkpt><trkpt lat="45.370197" lon="10.559637"><ele>150.0</ele><time>2026-03-30T14:04:56.093Z</time></trkpt><trkpt lat="45.3702757" lon="10.5597338"><ele>150.0</ele><time>2026-03-30T14:04:58.092Z</time></trkpt><trkpt lat="45.370352" lon="10.5598945"><ele>150.0</ele><time>2026-03-30T14:05:00.092Z</time></trkpt><trkpt lat="45.3704167" lon="10.5600332"><ele>150.0</ele><time>2026-03-30T14:05:01.092Z</time></trkpt><trkpt lat="45.370472" lon="10.560193"><ele>150.0</ele><time>2026-03-30T14:05:02.093Z</time></trkpt><trkpt lat="45.3705325" lon="10.5603607"><ele>153.4</ele><time>2026-03-30T14:05:03.095Z</time></trkpt><trkpt lat="45.3705963" lon="10.5605088"><ele>156.8</ele><time>2026-03-30T14:05:04.093Z</time></trkpt><trkpt lat="45.3706648" lon="10.5606488"><ele>160.2</ele><time>2026-03-30T14:05:05.094Z</time></trkpt><trkpt lat="45.370722" lon="10.560763"><ele>163.6</ele><time>2026-03-30T14:05:06.093Z</time></trkpt><trkpt lat="45.3707822" lon="10.5608618"><ele>167.0</ele><time>2026-03-30T14:05:07.093Z</time></trkpt><trkpt lat="45.3708418" lon="10.5609685"><ele>167.0</ele><time>2026-03-30T14:05:08.094Z</time></trkpt><trkpt lat="45.3709007" lon="10.5610672"><ele>167.0</ele><time>2026-03-30T14:05:09.094Z</time></trkpt><trkpt lat="45.370962" lon="10.5611712"><ele>167.0</ele><time>2026-03-30T14:05:10.095Z</time></trkpt><trkpt lat="45.3710302" lon="10.5612875"><ele>167.0</ele><time>2026-03-30T14:05:11.111Z</time></trkpt><trkpt lat="45.3710848" lon="10.5614082"><ele>167.0</ele><time>2026-03-30T14:05:12.098Z</time></trkpt><trkpt lat="45.3711433" lon="10.5615342"><ele>167.0</ele><time>2026-03-30T14:05:13.094Z</time></trkpt><trkpt lat="45.3712075" lon="10.5616865"><ele>167.0</ele><time>2026-03-30T14:05:14.096Z</time></trkpt><trkpt lat="45.3712793" lon="10.5618542"><ele>167.0</ele><time>2026-03-30T14:05:15.093Z</time></trkpt><trkpt lat="45.3713637" lon="10.5620297"><ele>167.0</ele><time>2026-03-30T14:05:16.091Z</time></trkpt><trkpt lat="45.3714347" lon="10.562179"><ele>169.66666666666666</ele><time>2026-03-30T14:05:17.092Z</time></trkpt><trkpt lat="45.3714912" lon="10.5622967"><ele>172.33333333333331</ele><time>2026-03-30T14:05:18.093Z</time></trkpt><trkpt lat="45.3715402" lon="10.5623808"><ele>175.0</ele><time>2026-03-30T14:05:19.095Z</time></trkpt><trkpt lat="45.371575" lon="10.5624588"><ele>177.66666666666666</ele><time>2026-03-30T14:05:20.093Z</time></trkpt><trkpt lat="45.371614" lon="10.5625635"><ele>180.33333333333334</ele><time>2026-03-30T14:05:22.09Z</time></trkpt><trkpt lat="45.3716618" lon="10.562651"><ele>183.0</ele><time>2026-03-30T14:05:25.092Z</time></trkpt><trkpt lat="45.3717373" lon="10.5627033"><ele>183.0</ele><time>2026-03-30T14:05:29.094Z</time></trkpt><trkpt lat="45.3717915" lon="10.5627683"><ele>183.0</ele><time>2026-03-30T14:05:32.091Z</time></trkpt><trkpt lat="45.3718415" lon="10.5628382"><ele>183.0</ele><time>2026-03-30T14:05:34.095Z</time></trkpt><trkpt lat="45.3719027" lon="10.5629305"><ele>183.0</ele><time>2026-03-30T14:05:36.093Z</time></trkpt><trkpt lat="45.3719563" lon="10.5629798"><ele>183.0</ele><time>2026-03-30T14:05:37.093Z</time></trkpt><trkpt lat="45.3720733" lon="10.56306"><ele>183.0</ele><time>2026-03-30T14:05:39.094Z</time></trkpt><trkpt lat="45.3721325" lon="10.5631035"><ele>183.16666666666666</ele><time>2026-03-30T14:05:40.093Z</time></trkpt><trkpt lat="45.3722025" lon="10.5631588"><ele>183.33333333333334</ele><time>2026-03-30T14:05:42.093Z</time></trkpt><trkpt lat="45.3722607" lon="10.5632168"><ele>183.5</ele><time>2026-03-30T14:05:46.089Z</time></trkpt><trkpt lat="45.3723222" lon="10.5632962"><ele>183.66666666666669</ele><time>2026-03-30T14:05:49.09Z</time></trkpt><trkpt lat="45.3723878" lon="10.5633915"><ele>183.83333333333334</ele><time>2026-03-30T14:05:52.093Z</time></trkpt><trkpt lat="45.3724333" lon="10.563457"><ele>184.0</ele><time>2026-03-30T14:05:54.094Z</time></trkpt><trkpt lat="45.3724923" lon="10.563554"><ele>184.0</ele><time>2026-03-30T14:05:57.094Z</time></trkpt><trkpt lat="45.3725722" lon="10.5635632"><ele>184.0</ele><time>2026-03-30T14:06:00.092Z</time></trkpt><trkpt lat="45.372613" lon="10.5634662"><ele>184.0</ele><time>2026-03-30T14:06:03.094Z</time></trkpt><trkpt lat="45.3726903" lon="10.5633565"><ele>184.0</ele><time>2026-03-30T14:06:05.092Z</time></trkpt><trkpt lat="45.3727718" lon="10.563238"><ele>184.0</ele><time>2026-03-30T14:06:07.094Z</time></trkpt><trkpt lat="45.372853" lon="10.5631175"><ele>184.0</ele><time>2026-03-30T14:06:09.093Z</time></trkpt><trkpt lat="45.3729372" lon="10.5630518"><ele>184.0</ele><time>2026-03-30T14:06:11.089Z</time></trkpt><trkpt lat="45.373031" lon="10.5630918"><ele>184.0</ele><time>2026-03-30T14:06:13.089Z</time></trkpt><trkpt lat="45.3731073" lon="10.5631767"><ele>184.0</ele><time>2026-03-30T14:06:15.092Z</time></trkpt><trkpt lat="45.373172" lon="10.5632372"><ele>184.0</ele><time>2026-03-30T14:06:17.097Z</time></trkpt><trkpt lat="45.3732327" lon="10.5632628"><ele>184.0</ele><time>2026-03-30T14:06:21.095Z</time></trkpt><trkpt lat="45.3732942" lon="10.5632957"><ele>183.42857142857144</ele><time>2026-03-30T14:06:33.095Z</time></trkpt><trkpt lat="45.3733578" lon="10.5632748"><ele>182.85714285714283</ele><time>2026-03-30T14:16:55.094Z</time></trkpt><trkpt lat="45.3733272" lon="10.5631865"><ele>182.28571428571428</ele><time>2026-03-30T14:16:58.093Z</time></trkpt><trkpt lat="45.3733163" lon="10.5630848"><ele>181.71428571428572</ele><time>2026-03-30T14:17:02.094Z</time></trkpt><trkpt lat="45.3733245" lon="10.5629897"><ele>181.14285714285717</ele><time>2026-03-30T14:17:04.094Z</time></trkpt><trkpt lat="45.3733318" lon="10.5628727"><ele>180.57142857142856</ele><time>2026-03-30T14:17:06.094Z</time></trkpt><trkpt lat="45.3733537" lon="10.562753"><ele>180.0</ele><time>2026-03-30T14:17:08.094Z</time></trkpt><trkpt lat="45.3733783" lon="10.5626563"><ele>180.0</ele><time>2026-03-30T14:17:10.095Z</time></trkpt><trkpt lat="45.3734265" lon="10.562538"><ele>180.0</ele><time>2026-03-30T14:17:12.095Z</time></trkpt><trkpt lat="45.3734963" lon="10.5624032"><ele>180.0</ele><time>2026-03-30T14:17:14.092Z</time></trkpt><trkpt lat="45.373561" lon="10.5622765"><ele>180.0</ele><time>2026-03-30T14:17:16.094Z</time></trkpt><trkpt lat="45.3736138" lon="10.5622137"><ele>180.0</ele><time>2026-03-30T14:17:18.094Z</time></trkpt><trkpt lat="45.3737077" lon="10.5621272"><ele>179.6</ele><time>2026-03-30T14:17:21.097Z</time></trkpt><trkpt lat="45.3737922" lon="10.5619852"><ele>179.2</ele><time>2026-03-30T14:17:23.096Z</time></trkpt><trkpt lat="45.3738382" lon="10.5618872"><ele>178.8</ele><time>2026-03-30T14:17:24.093Z</time></trkpt><trkpt lat="45.3738952" lon="10.5617822"><ele>178.4</ele><time>2026-03-30T14:17:25.093Z</time></trkpt><trkpt lat="45.3739573" lon="10.5616725"><ele>178.0</ele><time>2026-03-30T14:17:26.095Z</time></trkpt><trkpt lat="45.3740273" lon="10.5615585"><ele>178.0</ele><time>2026-03-30T14:17:27.095Z</time></trkpt><trkpt lat="45.3741058" lon="10.5614408"><ele>178.0</ele><time>2026-03-30T14:17:28.094Z</time></trkpt><trkpt lat="45.3741863" lon="10.5613167"><ele>178.0</ele><time>2026-03-30T14:17:29.093Z</time></trkpt><trkpt lat="45.3742885" lon="10.5611625"><ele>178.0</ele><time>2026-03-30T14:17:30.094Z</time></trkpt><trkpt lat="45.374396" lon="10.5610012"><ele>178.2</ele><time>2026-03-30T14:17:31.094Z</time></trkpt><trkpt lat="45.3744747" lon="10.5608687"><ele>178.4</ele><time>2026-03-30T14:17:32.093Z</time></trkpt><trkpt lat="45.3745348" lon="10.5607408"><ele>178.6</ele><time>2026-03-30T14:17:33.093Z</time></trkpt><trkpt lat="45.3745847" lon="10.56061"><ele>178.79999999999998</ele><time>2026-03-30T14:17:34.093Z</time></trkpt><trkpt lat="45.374637" lon="10.560478"><ele>179.0</ele><time>2026-03-30T14:17:35.093Z</time></trkpt><trkpt lat="45.374699" lon="10.5603482"><ele>179.0</ele><time>2026-03-30T14:17:36.092Z</time></trkpt><trkpt lat="45.3747652" lon="10.5602222"><ele>179.0</ele><time>2026-03-30T14:17:37.091Z</time></trkpt><trkpt lat="45.3748333" lon="10.5600977"><ele>179.0</ele><time>2026-03-30T14:17:38.089Z</time></trkpt><trkpt lat="45.3749062" lon="10.559975"><ele>179.0</ele><time>2026-03-30T14:17:39.089Z</time></trkpt><trkpt lat="45.3749863" lon="10.5598645"><ele>179.0</ele><time>2026-03-30T14:17:40.098Z</time></trkpt><trkpt lat="45.3750687" lon="10.559758"><ele>179.0</ele><time>2026-03-30T14:17:41.091Z</time></trkpt><trkpt lat="45.3751443" lon="10.5596428"><ele>179.0</ele><time>2026-03-30T14:17:42.093Z</time></trkpt><trkpt lat="45.375216" lon="10.5595213"><ele>179.0</ele><time>2026-03-30T14:17:43.09Z</time></trkpt><trkpt lat="45.3752783" lon="10.5593783"><ele>179.0</ele><time>2026-03-30T14:17:44.091Z</time></trkpt><trkpt lat="45.3753295" lon="10.5592092"><ele>178.2</ele><time>2026-03-30T14:17:45.091Z</time></trkpt><trkpt lat="45.3753825" lon="10.5590462"><ele>177.39999999999998</ele><time>2026-03-30T14:17:46.091Z</time></trkpt><trkpt lat="45.375431" lon="10.5588992"><ele>176.6</ele><time>2026-03-30T14:17:47.089Z</time></trkpt><trkpt lat="45.375487" lon="10.5587742"><ele>175.8</ele><time>2026-03-30T14:17:48.09Z</time></trkpt><trkpt lat="45.3755442" lon="10.5586672"><ele>175.0</ele><time>2026-03-30T14:17:49.091Z</time></trkpt><trkpt lat="45.3755905" lon="10.5585252"><ele>174.8</ele><time>2026-03-30T14:17:50.09Z</time></trkpt><trkpt lat="45.3756298" lon="10.5583735"><ele>174.6</ele><time>2026-03-30T14:17:51.092Z</time></trkpt><trkpt lat="45.375669" lon="10.5582237"><ele>174.39999999999998</ele><time>2026-03-30T14:17:52.092Z</time></trkpt><trkpt lat="45.3757005" lon="10.5580722"><ele>174.2</ele><time>2026-03-30T14:17:53.093Z</time></trkpt><trkpt lat="45.3757218" lon="10.5579218"><ele>174.0</ele><time>2026-03-30T14:17:54.092Z</time></trkpt><trkpt lat="45.3757445" lon="10.5577892"><ele>174.5</ele><time>2026-03-30T14:17:55.093Z</time></trkpt><trkpt lat="45.3757647" lon="10.5576693"><ele>175.0</ele><time>2026-03-30T14:17:56.094Z</time></trkpt><trkpt lat="45.3757883" lon="10.557551"><ele>175.5</ele><time>2026-03-30T14:17:57.094Z</time></trkpt><trkpt lat="45.3758127" lon="10.5574385"><ele>176.0</ele><time>2026-03-30T14:17:58.092Z</time></trkpt><trkpt lat="45.375831" lon="10.5573268"><ele>176.5</ele><time>2026-03-30T14:17:59.094Z</time></trkpt><trkpt lat="45.3758398" lon="10.5572212"><ele>177.0</ele><time>2026-03-30T14:18:00.097Z</time></trkpt><trkpt lat="45.3758445" lon="10.5571185"><ele>177.33333333333334</ele><time>2026-03-30T14:18:01.093Z</time></trkpt><trkpt lat="45.3758477" lon="10.5570198"><ele>177.66666666666666</ele><time>2026-03-30T14:18:02.092Z</time></trkpt><trkpt lat="45.3758545" lon="10.55692"><ele>178.0</ele><time>2026-03-30T14:18:03.092Z</time></trkpt><trkpt lat="45.3758513" lon="10.5567973"><ele>178.33333333333331</ele><time>2026-03-30T14:18:04.093Z</time></trkpt><trkpt lat="45.375849" lon="10.55665"><ele>178.66666666666666</ele><time>2026-03-30T14:18:05.092Z</time></trkpt><trkpt lat="45.3758557" lon="10.5564908"><ele>179.0</ele><time>2026-03-30T14:18:06.094Z</time></trkpt><trkpt lat="45.3758608" lon="10.5563232"><ele>179.0</ele><time>2026-03-30T14:18:07.093Z</time></trkpt><trkpt lat="45.3758608" lon="10.5561467"><ele>179.0</ele><time>2026-03-30T14:18:08.094Z</time></trkpt><trkpt lat="45.3758633" lon="10.5559582"><ele>179.0</ele><time>2026-03-30T14:18:09.094Z</time></trkpt><trkpt lat="45.3758692" lon="10.5557667"><ele>179.0</ele><time>2026-03-30T14:18:10.093Z</time></trkpt><trkpt lat="45.37588" lon="10.5555918"><ele>179.0</ele><time>2026-03-30T14:18:11.095Z</time></trkpt><trkpt lat="45.3758962" lon="10.5554355"><ele>179.0</ele><time>2026-03-30T14:18:12.107Z</time></trkpt><trkpt lat="45.375921" lon="10.5552957"><ele>179.0</ele><time>2026-03-30T14:18:13.095Z</time></trkpt><trkpt lat="45.375956" lon="10.5551657"><ele>179.0</ele><time>2026-03-30T14:18:14.11Z</time></trkpt><trkpt lat="45.3760013" lon="10.5550195"><ele>179.0</ele><time>2026-03-30T14:18:15.094Z</time></trkpt><trkpt lat="45.3760533" lon="10.5548705"><ele>179.39999999999998</ele><time>2026-03-30T14:18:16.09Z</time></trkpt><trkpt lat="45.3761007" lon="10.5547287"><ele>179.8</ele><time>2026-03-30T14:18:17.094Z</time></trkpt><trkpt lat="45.376145" lon="10.5545952"><ele>180.2</ele><time>2026-03-30T14:18:18.093Z</time></trkpt><trkpt lat="45.376182" lon="10.5544822"><ele>180.60000000000002</ele><time>2026-03-30T14:18:19.092Z</time></trkpt><trkpt lat="45.3762217" lon="10.554388"><ele>181.0</ele><time>2026-03-30T14:18:20.095Z</time></trkpt><trkpt lat="45.3762602" lon="10.5542523"><ele>181.16666666666669</ele><time>2026-03-30T14:18:22.094Z</time></trkpt><trkpt lat="45.3762703" lon="10.5541555"><ele>181.33333333333334</ele><time>2026-03-30T14:18:24.093Z</time></trkpt><trkpt lat="45.3762398" lon="10.5540653"><ele>181.5</ele><time>2026-03-30T14:18:36.096Z</time></trkpt><trkpt lat="45.3761305" lon="10.5540373"><ele>181.66666666666666</ele><time>2026-03-30T14:18:38.096Z</time></trkpt><trkpt lat="45.376036" lon="10.5539835"><ele>181.83333333333331</ele><time>2026-03-30T14:18:40.093Z</time></trkpt><trkpt lat="45.375982" lon="10.553908"><ele>182.0</ele><time>2026-03-30T14:18:42.095Z</time></trkpt><trkpt lat="45.3759335" lon="10.5537645"><ele>182.0</ele><time>2026-03-30T14:32:11.095Z</time></trkpt><trkpt lat="45.3758615" lon="10.5537632"><ele>182.0</ele><time>2026-03-30T14:32:13.097Z</time></trkpt><trkpt lat="45.3757648" lon="10.5537417"><ele>182.0</ele><time>2026-03-30T14:32:15.095Z</time></trkpt><trkpt lat="45.3756468" lon="10.553703"><ele>182.0</ele><time>2026-03-30T14:32:17.097Z</time></trkpt><trkpt lat="45.3755678" lon="10.553656"><ele>182.0</ele><time>2026-03-30T14:32:18.095Z</time></trkpt><trkpt lat="45.3755028" lon="10.5535885"><ele>181.83333333333331</ele><time>2026-03-30T14:32:19.094Z</time></trkpt><trkpt lat="45.3754622" lon="10.5534603"><ele>181.66666666666666</ele><time>2026-03-30T14:32:21.096Z</time></trkpt><trkpt lat="45.3754537" lon="10.5533248"><ele>181.5</ele><time>2026-03-30T14:32:23.094Z</time></trkpt><trkpt lat="45.3754618" lon="10.5531813"><ele>181.33333333333334</ele><time>2026-03-30T14:32:25.095Z</time></trkpt><trkpt lat="45.3754767" lon="10.5530888"><ele>181.16666666666669</ele><time>2026-03-30T14:32:26.098Z</time></trkpt><trkpt lat="45.3754933" lon="10.5529947"><ele>181.0</ele><time>2026-03-30T14:32:27.097Z</time></trkpt><trkpt lat="45.3755058" lon="10.5529033"><ele>180.0</ele><time>2026-03-30T14:32:28.093Z</time></trkpt><trkpt lat="45.375532" lon="10.5527908"><ele>179.0</ele><time>2026-03-30T14:32:30.095Z</time></trkpt><trkpt lat="45.375547" lon="10.552683"><ele>178.0</ele><time>2026-03-30T14:32:32.096Z</time></trkpt><trkpt lat="45.3755615" lon="10.552594"><ele>177.0</ele><time>2026-03-30T14:32:34.099Z</time></trkpt><trkpt lat="45.3755708" lon="10.5524925"><ele>176.0</ele><time>2026-03-30T14:32:36.1Z</time></trkpt><trkpt lat="45.3755653" lon="10.5523828"><ele>175.0</ele><time>2026-03-30T14:32:39.094Z</time></trkpt><trkpt lat="45.3755585" lon="10.5522715"><ele>175.0</ele><time>2026-03-30T14:32:41.097Z</time></trkpt><trkpt lat="45.3755552" lon="10.5521162"><ele>175.0</ele><time>2026-03-30T14:32:43.094Z</time></trkpt><trkpt lat="45.3755535" lon="10.5520243"><ele>175.0</ele><time>2026-03-30T14:32:44.095Z</time></trkpt><trkpt lat="45.3755542" lon="10.5519247"><ele>175.0</ele><time>2026-03-30T14:32:45.095Z</time></trkpt><trkpt lat="45.3755512" lon="10.5518108"><ele>175.0</ele><time>2026-03-30T14:32:46.094Z</time></trkpt><trkpt lat="45.375554" lon="10.5517013"><ele>175.0</ele><time>2026-03-30T14:32:47.098Z</time></trkpt><trkpt lat="45.3755575" lon="10.5516092"><ele>174.4</ele><time>2026-03-30T14:32:48.119Z</time></trkpt><trkpt lat="45.3755557" lon="10.5514727"><ele>173.8</ele><time>2026-03-30T14:32:50.094Z</time></trkpt><trkpt lat="45.375565" lon="10.5513435"><ele>173.2</ele><time>2026-03-30T14:32:52.099Z</time></trkpt><trkpt lat="45.3755598" lon="10.5511923"><ele>172.6</ele><time>2026-03-30T14:32:54.098Z</time></trkpt><trkpt lat="45.3755607" lon="10.5510868"><ele>172.0</ele><time>2026-03-30T14:32:56.094Z</time></trkpt><trkpt lat="45.3755523" lon="10.550939"><ele>171.8</ele><time>2026-03-30T14:32:58.096Z</time></trkpt><trkpt lat="45.37554" lon="10.550784"><ele>171.6</ele><time>2026-03-30T14:33:00.095Z</time></trkpt><trkpt lat="45.3755183" lon="10.5506038"><ele>171.4</ele><time>2026-03-30T14:33:02.094Z</time></trkpt><trkpt lat="45.3754998" lon="10.550486"><ele>171.20000000000002</ele><time>2026-03-30T14:33:03.095Z</time></trkpt><trkpt lat="45.3754905" lon="10.5503605"><ele>171.0</ele><time>2026-03-30T14:33:04.094Z</time></trkpt><trkpt lat="45.3754788" lon="10.550248"><ele>171.0</ele><time>2026-03-30T14:33:05.098Z</time></trkpt><trkpt lat="45.3754688" lon="10.5501333"><ele>171.0</ele><time>2026-03-30T14:33:06.096Z</time></trkpt><trkpt lat="45.3754517" lon="10.550018"><ele>171.0</ele><time>2026-03-30T14:33:07.095Z</time></trkpt><trkpt lat="45.3754365" lon="10.5499068"><ele>171.0</ele><time>2026-03-30T14:33:08.092Z</time></trkpt><trkpt lat="45.3754143" lon="10.5497955"><ele>171.0</ele><time>2026-03-30T14:33:09.095Z</time></trkpt><trkpt lat="45.3753895" lon="10.5496865"><ele>171.0</ele><time>2026-03-30T14:33:10.091Z</time></trkpt><trkpt lat="45.3753625" lon="10.5495797"><ele>170.5</ele><time>2026-03-30T14:33:11.093Z</time></trkpt><trkpt lat="45.3753437" lon="10.5494828"><ele>170.0</ele><time>2026-03-30T14:33:12.095Z</time></trkpt><trkpt lat="45.3753313" lon="10.5493922"><ele>169.5</ele><time>2026-03-30T14:33:13.092Z</time></trkpt><trkpt lat="45.3753025" lon="10.5492818"><ele>169.0</ele><time>2026-03-30T14:33:14.094Z</time></trkpt><trkpt lat="45.3752853" lon="10.549175"><ele>168.5</ele><time>2026-03-30T14:33:15.094Z</time></trkpt><trkpt lat="45.3752635" lon="10.5490825"><ele>168.0</ele><time>2026-03-30T14:33:16.093Z</time></trkpt><trkpt lat="45.3752362" lon="10.5489115"><ele>168.0</ele><time>2026-03-30T14:33:18.096Z</time></trkpt><trkpt lat="45.3752212" lon="10.548812"><ele>168.0</ele><time>2026-03-30T14:33:19.094Z</time></trkpt><trkpt lat="45.3752077" lon="10.5487075"><ele>168.0</ele><time>2026-03-30T14:33:20.093Z</time></trkpt><trkpt lat="45.3751627" lon="10.5485585"><ele>168.0</ele><time>2026-03-30T14:33:22.093Z</time></trkpt><trkpt lat="45.3751298" lon="10.5483932"><ele>168.0</ele><time>2026-03-30T14:33:24.094Z</time></trkpt><trkpt lat="45.3751062" lon="10.5482467"><ele>166.4</ele><time>2026-03-30T14:33:26.095Z</time></trkpt><trkpt lat="45.3750765" lon="10.5480907"><ele>164.8</ele><time>2026-03-30T14:33:28.093Z</time></trkpt><trkpt lat="45.3750633" lon="10.5479253"><ele>163.2</ele><time>2026-03-30T14:33:30.093Z</time></trkpt><trkpt lat="45.3750517" lon="10.547835"><ele>161.6</ele><time>2026-03-30T14:33:31.092Z</time></trkpt><trkpt lat="45.3750413" lon="10.5476932"><ele>160.0</ele><time>2026-03-30T14:33:33.091Z</time></trkpt><trkpt lat="45.3750235" lon="10.5475032"><ele>159.66666666666669</ele><time>2026-03-30T14:33:35.092Z</time></trkpt><trkpt lat="45.3750077" lon="10.5473683"><ele>159.33333333333334</ele><time>2026-03-30T14:33:36.095Z</time></trkpt><trkpt lat="45.3749897" lon="10.5472363"><ele>159.0</ele><time>2026-03-30T14:33:37.093Z</time></trkpt><trkpt lat="45.3749755" lon="10.5471243"><ele>158.66666666666666</ele><time>2026-03-30T14:33:38.095Z</time></trkpt><trkpt lat="45.3749635" lon="10.5470325"><ele>158.33333333333331</ele><time>2026-03-30T14:33:40.096Z</time></trkpt><trkpt lat="45.3749638" lon="10.546937"><ele>158.0</ele><time>2026-03-30T14:33:46.098Z</time></trkpt><trkpt lat="45.3749822" lon="10.5468495"><ele>158.0</ele><time>2026-03-30T14:34:05.096Z</time></trkpt><trkpt lat="45.3750133" lon="10.5467255"><ele>158.0</ele><time>2026-03-30T14:34:57.095Z</time></trkpt><trkpt lat="45.3750763" lon="10.5467073"><ele>158.0</ele><time>2026-03-30T14:35:00.097Z</time></trkpt><trkpt lat="45.3751255" lon="10.5467993"><ele>158.0</ele><time>2026-03-30T14:35:02.097Z</time></trkpt><trkpt lat="45.375212" lon="10.5468148"><ele>158.0</ele><time>2026-03-30T14:35:05.095Z</time></trkpt><trkpt lat="45.3753088" lon="10.5467395"><ele>158.0</ele><time>2026-03-30T14:35:07.095Z</time></trkpt><trkpt lat="45.3753658" lon="10.5466318"><ele>158.0</ele><time>2026-03-30T14:35:09.094Z</time></trkpt><trkpt lat="45.3754355" lon="10.546579"><ele>158.0</ele><time>2026-03-30T14:35:12.093Z</time></trkpt><trkpt lat="45.3754633" lon="10.5466728"><ele>158.0</ele><time>2026-03-30T14:35:15.095Z</time></trkpt><trkpt lat="45.3754762" lon="10.5468468"><ele>158.0</ele><time>2026-03-30T14:35:17.094Z</time></trkpt><trkpt lat="45.3755042" lon="10.5469525"><ele>158.0</ele><time>2026-03-30T14:35:19.092Z</time></trkpt><trkpt lat="45.3755737" lon="10.5470348"><ele>158.0</ele><time>2026-03-30T14:35:21.096Z</time></trkpt><trkpt lat="45.3756597" lon="10.5470477"><ele>156.0</ele><time>2026-03-30T14:35:23.093Z</time></trkpt><trkpt lat="45.3757308" lon="10.5470418"><ele>154.0</ele><time>2026-03-30T14:35:25.093Z</time></trkpt><trkpt lat="45.3758065" lon="10.5470445"><ele>152.0</ele><time>2026-03-30T14:35:28.095Z</time></trkpt><trkpt lat="45.3758707" lon="10.5470588"><ele>150.0</ele><time>2026-03-30T14:35:52.094Z</time></trkpt><trkpt lat="45.3759315" lon="10.5470152"><ele>148.0</ele><time>2026-03-30T14:35:53.095Z</time></trkpt><trkpt lat="45.3760132" lon="10.5469643"><ele>146.0</ele><time>2026-03-30T14:35:54.094Z</time></trkpt><trkpt lat="45.3761253" lon="10.5468957"><ele>145.25</ele><time>2026-03-30T14:35:55.097Z</time></trkpt><trkpt lat="45.3762605" lon="10.5468078"><ele>144.5</ele><time>2026-03-30T14:35:56.094Z</time></trkpt><trkpt lat="45.376393" lon="10.546738"><ele>143.75</ele><time>2026-03-30T14:35:57.093Z</time></trkpt><trkpt lat="45.3765388" lon="10.5466853"><ele>143.0</ele><time>2026-03-30T14:35:58.093Z</time></trkpt><trkpt lat="45.3766853" lon="10.5466508"><ele>142.5</ele><time>2026-03-30T14:35:59.094Z</time></trkpt><trkpt lat="45.3768087" lon="10.5465912"><ele>142.0</ele><time>2026-03-30T14:36:00.091Z</time></trkpt><trkpt lat="45.37694" lon="10.5464877"><ele>141.5</ele><time>2026-03-30T14:36:01.092Z</time></trkpt><trkpt lat="45.3770607" lon="10.5463882"><ele>141.0</ele><time>2026-03-30T14:36:02.093Z</time></trkpt><trkpt lat="45.3771513" lon="10.5463015"><ele>141.0</ele><time>2026-03-30T14:36:03.095Z</time></trkpt><trkpt lat="45.3772187" lon="10.5462437"><ele>141.0</ele><time>2026-03-30T14:36:04.095Z</time></trkpt><trkpt lat="45.3772853" lon="10.546233"><ele>141.0</ele><time>2026-03-30T14:36:06.097Z</time></trkpt><trkpt lat="45.377365" lon="10.5462713"><ele>141.0</ele><time>2026-03-30T14:36:18.094Z</time></trkpt><trkpt lat="45.3774278" lon="10.5463"><ele>141.0</ele><time>2026-03-30T14:36:19.094Z</time></trkpt><trkpt lat="45.3775182" lon="10.546308"><ele>141.0</ele><time>2026-03-30T14:36:20.097Z</time></trkpt><trkpt lat="45.377621" lon="10.5462892"><ele>141.0</ele><time>2026-03-30T14:36:21.097Z</time></trkpt><trkpt lat="45.3777285" lon="10.546254"><ele>141.0</ele><time>2026-03-30T14:36:22.095Z</time></trkpt><trkpt lat="45.3778272" lon="10.546199"><ele>141.0</ele><time>2026-03-30T14:36:23.095Z</time></trkpt><trkpt lat="45.3779235" lon="10.5461268"><ele>141.0</ele><time>2026-03-30T14:36:24.093Z</time></trkpt><trkpt lat="45.3780183" lon="10.5460412"><ele>141.0</ele><time>2026-03-30T14:36:25.095Z</time></trkpt><trkpt lat="45.3781087" lon="10.5459485"><ele>139.0</ele><time>2026-03-30T14:36:26.093Z</time></trkpt><trkpt lat="45.378199" lon="10.5458497"><ele>137.0</ele><time>2026-03-30T14:36:27.094Z</time></trkpt><trkpt lat="45.3782892" lon="10.5457505"><ele>135.0</ele><time>2026-03-30T14:36:28.097Z</time></trkpt><trkpt lat="45.3783827" lon="10.5456543"><ele>133.0</ele><time>2026-03-30T14:36:29.099Z</time></trkpt><trkpt lat="45.3784817" lon="10.545567"><ele>133.0</ele><time>2026-03-30T14:36:30.096Z</time></trkpt><trkpt lat="45.3785883" lon="10.5454975"><ele>133.0</ele><time>2026-03-30T14:36:31.096Z</time></trkpt><trkpt lat="45.3787002" lon="10.5454578"><ele>133.0</ele><time>2026-03-30T14:36:32.097Z</time></trkpt><trkpt lat="45.3788143" lon="10.5454622"><ele>133.0</ele><time>2026-03-30T14:36:33.096Z</time></trkpt><trkpt lat="45.3789298" lon="10.5454997"><ele>131.5</ele><time>2026-03-30T14:36:34.095Z</time></trkpt><trkpt lat="45.379039" lon="10.5455585"><ele>130.0</ele><time>2026-03-30T14:36:35.098Z</time></trkpt><trkpt lat="45.3791422" lon="10.5456348"><ele>128.5</ele><time>2026-03-30T14:36:36.099Z</time></trkpt><trkpt lat="45.3792437" lon="10.5457153"><ele>127.0</ele><time>2026-03-30T14:36:37.098Z</time></trkpt><trkpt lat="45.3793455" lon="10.545795"><ele>127.0</ele><time>2026-03-30T14:36:38.098Z</time></trkpt><trkpt lat="45.3794452" lon="10.5458775"><ele>126.99999999999999</ele><time>2026-03-30T14:36:39.097Z</time></trkpt><trkpt lat="45.3795388" lon="10.545952"><ele>126.99999999999999</ele><time>2026-03-30T14:36:40.099Z</time></trkpt><trkpt lat="45.379626" lon="10.546019"><ele>127.0</ele><time>2026-03-30T14:36:41.096Z</time></trkpt><trkpt lat="45.3797083" lon="10.5460707"><ele>127.0</ele><time>2026-03-30T14:36:42.099Z</time></trkpt><trkpt lat="45.3797797" lon="10.5461222"><ele>126.83333333333334</ele><time>2026-03-30T14:36:43.099Z</time></trkpt><trkpt lat="45.3798325" lon="10.5461885"><ele>126.66666666666667</ele><time>2026-03-30T14:36:44.099Z</time></trkpt><trkpt lat="45.3798638" lon="10.5462733"><ele>126.5</ele><time>2026-03-30T14:36:45.098Z</time></trkpt><trkpt lat="45.379869" lon="10.5463698"><ele>126.33333333333334</ele><time>2026-03-30T14:36:46.098Z</time></trkpt><trkpt lat="45.3798465" lon="10.546524"><ele>126.16666666666667</ele><time>2026-03-30T14:36:48.095Z</time></trkpt><trkpt lat="45.3798865" lon="10.5466468"><ele>126.0</ele><time>2026-03-30T14:36:50.097Z</time></trkpt><trkpt lat="45.3799402" lon="10.5467023"><ele>125.5</ele><time>2026-03-30T14:36:51.096Z</time></trkpt><trkpt lat="45.3800123" lon="10.546766"><ele>125.0</ele><time>2026-03-30T14:36:52.098Z</time></trkpt><trkpt lat="45.3800775" lon="10.5468237"><ele>124.5</ele><time>2026-03-30T14:36:53.098Z</time></trkpt><trkpt lat="45.38014" lon="10.5468703"><ele>124.0</ele><time>2026-03-30T14:36:54.101Z</time></trkpt><trkpt lat="45.3802037" lon="10.5468917"><ele>123.5</ele><time>2026-03-30T14:36:55.097Z</time></trkpt><trkpt lat="45.3803145" lon="10.5468265"><ele>123.0</ele><time>2026-03-30T14:36:57.097Z</time></trkpt><trkpt lat="45.3803495" lon="10.546737"><ele>123.0</ele><time>2026-03-30T14:36:58.098Z</time></trkpt><trkpt lat="45.3803767" lon="10.5466127"><ele>123.00000000000001</ele><time>2026-03-30T14:36:59.098Z</time></trkpt><trkpt lat="45.3804048" lon="10.5464617"><ele>123.00000000000001</ele><time>2026-03-30T14:37:00.098Z</time></trkpt><trkpt lat="45.3804342" lon="10.546302"><ele>123.0</ele><time>2026-03-30T14:37:01.096Z</time></trkpt><trkpt lat="45.380467" lon="10.5461367"><ele>123.0</ele><time>2026-03-30T14:37:02.097Z</time></trkpt><trkpt lat="45.3805023" lon="10.5459677"><ele>121.25</ele><time>2026-03-30T14:37:03.098Z</time></trkpt><trkpt lat="45.3805402" lon="10.5458057"><ele>119.5</ele><time>2026-03-30T14:37:04.094Z</time></trkpt><trkpt lat="45.3805847" lon="10.5456468"><ele>117.75</ele><time>2026-03-30T14:37:05.096Z</time></trkpt><trkpt lat="45.3806522" lon="10.5454893"><ele>116.0</ele><time>2026-03-30T14:37:06.096Z</time></trkpt><trkpt lat="45.3807407" lon="10.5453233"><ele>115.75</ele><time>2026-03-30T14:37:07.096Z</time></trkpt><trkpt lat="45.380833" lon="10.54516"><ele>115.5</ele><time>2026-03-30T14:37:08.098Z</time></trkpt><trkpt lat="45.380923" lon="10.545023"><ele>115.25</ele><time>2026-03-30T14:37:09.099Z</time></trkpt><trkpt lat="45.3809977" lon="10.5449195"><ele>115.0</ele><time>2026-03-30T14:37:10.098Z</time></trkpt><trkpt lat="45.3810665" lon="10.5448553"><ele>115.00000000000001</ele><time>2026-03-30T14:37:11.097Z</time></trkpt><trkpt lat="45.3811312" lon="10.544836"><ele>115.0</ele><time>2026-03-30T14:37:12.096Z</time></trkpt><trkpt lat="45.3812527" lon="10.5448758"><ele>115.0</ele><time>2026-03-30T14:37:14.097Z</time></trkpt><trkpt lat="45.3813165" lon="10.5448955"><ele>115.0</ele><time>2026-03-30T14:37:15.095Z</time></trkpt><trkpt lat="45.381384" lon="10.5448898"><ele>115.00000000000001</ele><time>2026-03-30T14:37:16.094Z</time></trkpt><trkpt lat="45.3814578" lon="10.5448617"><ele>115.0</ele><time>2026-03-30T14:37:17.098Z</time></trkpt><trkpt lat="45.3815405" lon="10.544823"><ele>115.2</ele><time>2026-03-30T14:37:18.098Z</time></trkpt><trkpt lat="45.381623" lon="10.5447797"><ele>115.4</ele><time>2026-03-30T14:37:19.095Z</time></trkpt><trkpt lat="45.381691" lon="10.5447392"><ele>115.6</ele><time>2026-03-30T14:37:20.096Z</time></trkpt><trkpt lat="45.3818" lon="10.5446947"><ele>115.8</ele><time>2026-03-30T14:37:22.097Z</time></trkpt><trkpt lat="45.3818827" lon="10.5447257"><ele>116.0</ele><time>2026-03-30T14:37:24.096Z</time></trkpt><trkpt lat="45.3819797" lon="10.544852"><ele>115.99999999999999</ele><time>2026-03-30T14:37:26.095Z</time></trkpt><trkpt lat="45.382034" lon="10.5449307"><ele>116.0</ele><time>2026-03-30T14:37:27.096Z</time></trkpt><trkpt lat="45.3820933" lon="10.545014"><ele>116.0</ele><time>2026-03-30T14:37:28.098Z</time></trkpt><trkpt lat="45.3821535" lon="10.5451027"><ele>116.0</ele><time>2026-03-30T14:37:29.097Z</time></trkpt><trkpt lat="45.3822153" lon="10.545192"><ele>115.99999999999999</ele><time>2026-03-30T14:37:30.093Z</time></trkpt><trkpt lat="45.3822792" lon="10.5452802"><ele>116.0</ele><time>2026-03-30T14:37:31.097Z</time></trkpt><trkpt lat="45.3823418" lon="10.5453693"><ele>115.99999999999999</ele><time>2026-03-30T14:37:32.096Z</time></trkpt><trkpt lat="45.382403" lon="10.5454592"><ele>116.0</ele><time>2026-03-30T14:37:33.098Z</time></trkpt><trkpt lat="45.3824625" lon="10.5455447"><ele>116.0</ele><time>2026-03-30T14:37:34.098Z</time></trkpt><trkpt lat="45.3825165" lon="10.5456138"><ele>116.0</ele><time>2026-03-30T14:37:35.098Z</time></trkpt><trkpt lat="45.3825998" lon="10.545663"><ele>115.99999999999999</ele><time>2026-03-30T14:37:37.092Z</time></trkpt><trkpt lat="45.382668" lon="10.5456017"><ele>116.0</ele><time>2026-03-30T14:37:39.096Z</time></trkpt><trkpt lat="45.382734" lon="10.54554"><ele>116.0</ele><time>2026-03-30T14:37:46.101Z</time></trkpt><trkpt lat="45.3826528" lon="10.5456127"><ele>116.0</ele><time>2026-03-30T14:37:54.096Z</time></trkpt><trkpt lat="45.3826097" lon="10.5457032"><ele>116.0</ele><time>2026-03-30T14:37:56.098Z</time></trkpt><trkpt lat="45.3826478" lon="10.545831"><ele>116.0</ele><time>2026-03-30T14:37:58.097Z</time></trkpt><trkpt lat="45.3826968" lon="10.5459427"><ele>116.0</ele><time>2026-03-30T14:37:59.097Z</time></trkpt><trkpt lat="45.3827618" lon="10.5460975"><ele>116.33333333333333</ele><time>2026-03-30T14:38:00.1Z</time></trkpt><trkpt lat="45.382835" lon="10.5462875"><ele>116.66666666666666</ele><time>2026-03-30T14:38:01.094Z</time></trkpt><trkpt lat="45.3829138" lon="10.5465113"><ele>117.0</ele><time>2026-03-30T14:38:02.095Z</time></trkpt><trkpt lat="45.3829975" lon="10.546769"><ele>116.66666666666666</ele><time>2026-03-30T14:38:03.093Z</time></trkpt><trkpt lat="45.3830813" lon="10.547029"><ele>116.33333333333333</ele><time>2026-03-30T14:38:04.093Z</time></trkpt><trkpt lat="45.3831603" lon="10.547271"><ele>116.0</ele><time>2026-03-30T14:38:05.093Z</time></trkpt><trkpt lat="45.3832357" lon="10.5474897"><ele>116.0</ele><time>2026-03-30T14:38:06.096Z</time></trkpt><trkpt lat="45.3833215" lon="10.5476847"><ele>116.0</ele><time>2026-03-30T14:38:07.097Z</time></trkpt><trkpt lat="45.383432" lon="10.5478673"><ele>116.0</ele><time>2026-03-30T14:38:08.096Z</time></trkpt><trkpt lat="45.3835713" lon="10.5480532"><ele>116.66666666666666</ele><time>2026-03-30T14:38:09.096Z</time></trkpt><trkpt lat="45.3837112" lon="10.5482317"><ele>117.33333333333334</ele><time>2026-03-30T14:38:10.095Z</time></trkpt><trkpt lat="45.3838343" lon="10.548384"><ele>118.0</ele><time>2026-03-30T14:38:11.103Z</time></trkpt><trkpt lat="45.3839243" lon="10.5484938"><ele>118.2</ele><time>2026-03-30T14:38:12.097Z</time></trkpt><trkpt lat="45.383994" lon="10.5485485"><ele>118.4</ele><time>2026-03-30T14:38:13.096Z</time></trkpt><trkpt lat="45.384064" lon="10.5485568"><ele>118.60000000000001</ele><time>2026-03-30T14:38:14.094Z</time></trkpt><trkpt lat="45.3841652" lon="10.5485468"><ele>118.80000000000001</ele><time>2026-03-30T14:38:15.094Z</time></trkpt><trkpt lat="45.3842912" lon="10.5485482"><ele>119.0</ele><time>2026-03-30T14:38:16.093Z</time></trkpt><trkpt lat="45.3844338" lon="10.5485763"><ele>119.0</ele><time>2026-03-30T14:38:17.095Z</time></trkpt><trkpt lat="45.3845512" lon="10.5486047"><ele>119.0</ele><time>2026-03-30T14:38:18.093Z</time></trkpt><trkpt lat="45.3846373" lon="10.5486073"><ele>119.0</ele><time>2026-03-30T14:38:19.108Z</time></trkpt><trkpt lat="45.3847153" lon="10.5485732"><ele>119.0</ele><time>2026-03-30T14:38:20.113Z</time></trkpt><trkpt lat="45.3847903" lon="10.5484833"><ele>119.0</ele><time>2026-03-30T14:38:21.098Z</time></trkpt><trkpt lat="45.384861" lon="10.5483552"><ele>119.75</ele><time>2026-03-30T14:38:22.093Z</time></trkpt><trkpt lat="45.3849505" lon="10.5482053"><ele>120.5</ele><time>2026-03-30T14:38:23.096Z</time></trkpt><trkpt lat="45.3850558" lon="10.5480592"><ele>121.25</ele><time>2026-03-30T14:38:24.094Z</time></trkpt><trkpt lat="45.3851792" lon="10.5479253"><ele>122.0</ele><time>2026-03-30T14:38:25.094Z</time></trkpt><trkpt lat="45.3853175" lon="10.5478013"><ele>121.66666666666666</ele><time>2026-03-30T14:38:26.094Z</time></trkpt><trkpt lat="45.3854753" lon="10.5476705"><ele>121.33333333333334</ele><time>2026-03-30T14:38:27.093Z</time></trkpt><trkpt lat="45.3856172" lon="10.5475432"><ele>121.0</ele><time>2026-03-30T14:38:28.096Z</time></trkpt><trkpt lat="45.3857318" lon="10.5474072"><ele>121.0</ele><time>2026-03-30T14:38:29.096Z</time></trkpt><trkpt lat="45.3858295" lon="10.5472323"><ele>121.0</ele><time>2026-03-30T14:38:30.105Z</time></trkpt><trkpt lat="45.3859075" lon="10.5470823"><ele>121.0</ele><time>2026-03-30T14:38:31.102Z</time></trkpt><trkpt lat="45.385987" lon="10.5469615"><ele>121.0</ele><time>2026-03-30T14:38:32.099Z</time></trkpt><trkpt lat="45.3860617" lon="10.5468742"><ele>120.83333333333334</ele><time>2026-03-30T14:38:33.099Z</time></trkpt><trkpt lat="45.3861322" lon="10.5468323"><ele>120.66666666666667</ele><time>2026-03-30T14:38:34.098Z</time></trkpt><trkpt lat="45.3862027" lon="10.54684"><ele>120.5</ele><time>2026-03-30T14:38:35.098Z</time></trkpt><trkpt lat="45.3862623" lon="10.5468925"><ele>120.33333333333334</ele><time>2026-03-30T14:38:36.097Z</time></trkpt><trkpt lat="45.3863215" lon="10.546998"><ele>120.16666666666667</ele><time>2026-03-30T14:38:37.098Z</time></trkpt><trkpt lat="45.3863973" lon="10.5471378"><ele>120.0</ele><time>2026-03-30T14:38:38.099Z</time></trkpt><trkpt lat="45.386487" lon="10.5472807"><ele>120.83333333333333</ele><time>2026-03-30T14:38:39.097Z</time></trkpt><trkpt lat="45.3865607" lon="10.5473922"><ele>121.66666666666666</ele><time>2026-03-30T14:38:40.101Z</time></trkpt><trkpt lat="45.386615" lon="10.5474637"><ele>122.5</ele><time>2026-03-30T14:38:41.099Z</time></trkpt><trkpt lat="45.3866857" lon="10.5475052"><ele>123.33333333333333</ele><time>2026-03-30T14:38:43.098Z</time></trkpt><trkpt lat="45.3867632" lon="10.547481"><ele>124.16666666666666</ele><time>2026-03-30T14:38:46.098Z</time></trkpt><trkpt lat="45.3868285" lon="10.5474252"><ele>125.0</ele><time>2026-03-30T14:38:49.1Z</time></trkpt><trkpt lat="45.386908" lon="10.5473677"><ele>125.0</ele><time>2026-03-30T14:38:52.097Z</time></trkpt><trkpt lat="45.3869648" lon="10.547306"><ele>125.0</ele><time>2026-03-30T14:38:54.097Z</time></trkpt><trkpt lat="45.387043" lon="10.547233"><ele>125.0</ele><time>2026-03-30T14:38:56.1Z</time></trkpt><trkpt lat="45.387133" lon="10.547142"><ele>125.0</ele><time>2026-03-30T14:38:58.099Z</time></trkpt><trkpt lat="45.3872188" lon="10.5470517"><ele>125.0</ele><time>2026-03-30T14:39:00.102Z</time></trkpt><trkpt lat="45.3873113" lon="10.5469512"><ele>124.83333333333333</ele><time>2026-03-30T14:39:02.099Z</time></trkpt><trkpt lat="45.3873975" lon="10.5468617"><ele>124.66666666666666</ele><time>2026-03-30T14:39:04.099Z</time></trkpt><trkpt lat="45.3874737" lon="10.5467932"><ele>124.5</ele><time>2026-03-30T14:39:06.099Z</time></trkpt><trkpt lat="45.3875248" lon="10.5467103"><ele>124.33333333333334</ele><time>2026-03-30T14:39:08.099Z</time></trkpt><trkpt lat="45.3875088" lon="10.5466153"><ele>124.16666666666667</ele><time>2026-03-30T14:39:10.098Z</time></trkpt><trkpt lat="45.3874717" lon="10.5465142"><ele>124.0</ele><time>2026-03-30T14:39:12.099Z</time></trkpt><trkpt lat="45.3874315" lon="10.5463805"><ele>124.00000000000001</ele><time>2026-03-30T14:39:14.1Z</time></trkpt><trkpt lat="45.3873943" lon="10.5462423"><ele>124.0</ele><time>2026-03-30T14:39:16.097Z</time></trkpt><trkpt lat="45.3873418" lon="10.5460967"><ele>124.0</ele><time>2026-03-30T14:39:18.096Z</time></trkpt><trkpt lat="45.387308" lon="10.5460168"><ele>124.0</ele><time>2026-03-30T14:39:19.098Z</time></trkpt><trkpt lat="45.387267" lon="10.5459367"><ele>124.00000000000001</ele><time>2026-03-30T14:39:20.099Z</time></trkpt><trkpt lat="45.3872183" lon="10.545859"><ele>124.0</ele><time>2026-03-30T14:39:21.099Z</time></trkpt><trkpt lat="45.3871575" lon="10.5457695"><ele>123.6</ele><time>2026-03-30T14:39:22.101Z</time></trkpt><trkpt lat="45.387097" lon="10.545681"><ele>123.2</ele><time>2026-03-30T14:39:23.103Z</time></trkpt><trkpt lat="45.3870335" lon="10.5455867"><ele>122.79999999999998</ele><time>2026-03-30T14:39:24.098Z</time></trkpt><trkpt lat="45.3869713" lon="10.54548"><ele>122.39999999999999</ele><time>2026-03-30T14:39:25.098Z</time></trkpt><trkpt lat="45.3869105" lon="10.5453553"><ele>122.0</ele><time>2026-03-30T14:39:26.097Z</time></trkpt><trkpt lat="45.3868417" lon="10.5452248"><ele>122.0</ele><time>2026-03-30T14:39:27.1Z</time></trkpt><trkpt lat="45.3867647" lon="10.545118"><ele>121.99999999999999</ele><time>2026-03-30T14:39:28.1Z</time></trkpt><trkpt lat="45.3866822" lon="10.5450293"><ele>121.99999999999999</ele><time>2026-03-30T14:39:29.098Z</time></trkpt><trkpt lat="45.3866075" lon="10.5449692"><ele>122.0</ele><time>2026-03-30T14:39:30.1Z</time></trkpt><trkpt lat="45.3865498" lon="10.5449292"><ele>122.0</ele><time>2026-03-30T14:39:31.099Z</time></trkpt><trkpt lat="45.3864768" lon="10.544852"><ele>122.0</ele><time>2026-03-30T14:39:33.099Z</time></trkpt><trkpt lat="45.386454" lon="10.544739"><ele>121.99999999999999</ele><time>2026-03-30T14:39:36.097Z</time></trkpt><trkpt lat="45.3865133" lon="10.5446915"><ele>121.99999999999999</ele><time>2026-03-30T14:39:42.097Z</time></trkpt><trkpt lat="45.3866398" lon="10.544631"><ele>122.0</ele><time>2026-03-30T14:39:44.1Z</time></trkpt><trkpt lat="45.3867368" lon="10.5445712"><ele>122.0</ele><time>2026-03-30T14:39:45.099Z</time></trkpt><trkpt lat="45.3868387" lon="10.5444942"><ele>122.75</ele><time>2026-03-30T14:39:46.098Z</time></trkpt><trkpt lat="45.3869422" lon="10.5444207"><ele>123.5</ele><time>2026-03-30T14:39:47.098Z</time></trkpt><trkpt lat="45.387066" lon="10.5443455"><ele>124.25</ele><time>2026-03-30T14:39:48.099Z</time></trkpt><trkpt lat="45.38717" lon="10.5442732"><ele>125.0</ele><time>2026-03-30T14:39:49.1Z</time></trkpt><trkpt lat="45.3872573" lon="10.544179"><ele>126.0</ele><time>2026-03-30T14:39:50.097Z</time></trkpt><trkpt lat="45.3873452" lon="10.5440657"><ele>127.0</ele><time>2026-03-30T14:39:51.098Z</time></trkpt><trkpt lat="45.3874472" lon="10.5439598"><ele>128.0</ele><time>2026-03-30T14:39:52.096Z</time></trkpt><trkpt lat="45.3875487" lon="10.5438588"><ele>129.0</ele><time>2026-03-30T14:39:53.098Z</time></trkpt><trkpt lat="45.3876332" lon="10.5437637"><ele>130.8</ele><time>2026-03-30T14:39:54.099Z</time></trkpt><trkpt lat="45.3877028" lon="10.5436855"><ele>132.60000000000002</ele><time>2026-03-30T14:39:55.098Z</time></trkpt><trkpt lat="45.387766" lon="10.5436325"><ele>134.4</ele><time>2026-03-30T14:39:56.098Z</time></trkpt><trkpt lat="45.3878607" lon="10.5435737"><ele>136.20000000000002</ele><time>2026-03-30T14:39:58.096Z</time></trkpt><trkpt lat="45.3879625" lon="10.5435308"><ele>138.0</ele><time>2026-03-30T14:40:00.098Z</time></trkpt><trkpt lat="45.388065" lon="10.5434673"><ele>140.0</ele><time>2026-03-30T14:40:02.095Z</time></trkpt><trkpt lat="45.3881315" lon="10.5433768"><ele>142.0</ele><time>2026-03-30T14:40:04.092Z</time></trkpt><trkpt lat="45.3882312" lon="10.5432647"><ele>144.0</ele><time>2026-03-30T14:40:06.094Z</time></trkpt><trkpt lat="45.388289" lon="10.5431675"><ele>146.0</ele><time>2026-03-30T14:40:07.091Z</time></trkpt><trkpt lat="45.3883513" lon="10.5430592"><ele>148.0</ele><time>2026-03-30T14:40:08.095Z</time></trkpt><trkpt lat="45.3884215" lon="10.5429605"><ele>148.6</ele><time>2026-03-30T14:40:09.095Z</time></trkpt><trkpt lat="45.3884835" lon="10.5428698"><ele>149.20000000000002</ele><time>2026-03-30T14:40:10.096Z</time></trkpt><trkpt lat="45.3885368" lon="10.54276"><ele>149.8</ele><time>2026-03-30T14:40:11.096Z</time></trkpt><trkpt lat="45.3885957" lon="10.5426442"><ele>150.4</ele><time>2026-03-30T14:40:12.099Z</time></trkpt><trkpt lat="45.38865" lon="10.5425365"><ele>151.0</ele><time>2026-03-30T14:40:13.095Z</time></trkpt><trkpt lat="45.3887088" lon="10.5424622"><ele>151.0</ele><time>2026-03-30T14:40:14.096Z</time></trkpt><trkpt lat="45.3887567" lon="10.5424037"><ele>151.0</ele><time>2026-03-30T14:40:15.097Z</time></trkpt><trkpt lat="45.3887692" lon="10.5422755"><ele>151.0</ele><time>2026-03-30T14:40:17.094Z</time></trkpt><trkpt lat="45.3887507" lon="10.5421395"><ele>151.0</ele><time>2026-03-30T14:40:19.094Z</time></trkpt><trkpt lat="45.3887605" lon="10.5420322"><ele>151.0</ele><time>2026-03-30T14:40:20.095Z</time></trkpt><trkpt lat="45.3887855" lon="10.5418788"><ele>151.0</ele><time>2026-03-30T14:40:21.097Z</time></trkpt><trkpt lat="45.3888177" lon="10.5417007"><ele>150.0</ele><time>2026-03-30T14:40:22.096Z</time></trkpt><trkpt lat="45.3888535" lon="10.5415095"><ele>149.0</ele><time>2026-03-30T14:40:23.098Z</time></trkpt><trkpt lat="45.3888948" lon="10.5412982"><ele>148.0</ele><time>2026-03-30T14:40:24.098Z</time></trkpt><trkpt lat="45.3889447" lon="10.5410623"><ele>148.0</ele><time>2026-03-30T14:40:25.098Z</time></trkpt><trkpt lat="45.388997" lon="10.5408463"><ele>148.0</ele><time>2026-03-30T14:40:26.098Z</time></trkpt><trkpt lat="45.3890483" lon="10.540655"><ele>148.0</ele><time>2026-03-30T14:40:27.1Z</time></trkpt><trkpt lat="45.3890838" lon="10.5404935"><ele>148.0</ele><time>2026-03-30T14:40:28.098Z</time></trkpt><trkpt lat="45.3890838" lon="10.5403402"><ele>147.75</ele><time>2026-03-30T14:40:29.095Z</time></trkpt><trkpt lat="45.3890582" lon="10.5401652"><ele>147.5</ele><time>2026-03-30T14:40:30.097Z</time></trkpt><trkpt lat="45.3890188" lon="10.5399555"><ele>147.25</ele><time>2026-03-30T14:40:31.094Z</time></trkpt><trkpt lat="45.3889743" lon="10.539745"><ele>147.0</ele><time>2026-03-30T14:40:32.101Z</time></trkpt><trkpt lat="45.3889298" lon="10.5395198"><ele>146.0</ele><time>2026-03-30T14:40:33.097Z</time></trkpt><trkpt lat="45.388891" lon="10.5393117"><ele>145.0</ele><time>2026-03-30T14:40:34.097Z</time></trkpt><trkpt lat="45.3888632" lon="10.5391373"><ele>144.0</ele><time>2026-03-30T14:40:35.098Z</time></trkpt><trkpt lat="45.3888523" lon="10.5389862"><ele>143.0</ele><time>2026-03-30T14:40:36.099Z</time></trkpt><trkpt lat="45.388862" lon="10.5388405"><ele>142.5</ele><time>2026-03-30T14:40:37.097Z</time></trkpt><trkpt lat="45.3888932" lon="10.5386723"><ele>142.0</ele><time>2026-03-30T14:40:38.097Z</time></trkpt><trkpt lat="45.3889398" lon="10.5385097"><ele>141.5</ele><time>2026-03-30T14:40:39.099Z</time></trkpt><trkpt lat="45.3890093" lon="10.5383407"><ele>141.0</ele><time>2026-03-30T14:40:40.097Z</time></trkpt><trkpt lat="45.389079" lon="10.5381728"><ele>141.0</ele><time>2026-03-30T14:40:41.1Z</time></trkpt><trkpt lat="45.389127" lon="10.5380283"><ele>141.0</ele><time>2026-03-30T14:40:42.099Z</time></trkpt><trkpt lat="45.389176" lon="10.5379278"><ele>141.0</ele><time>2026-03-30T14:40:43.097Z</time></trkpt><trkpt lat="45.3892493" lon="10.5378483"><ele>141.0</ele><time>2026-03-30T14:40:44.097Z</time></trkpt><trkpt lat="45.3893575" lon="10.5377483"><ele>141.0</ele><time>2026-03-30T14:40:45.098Z</time></trkpt><trkpt lat="45.3894702" lon="10.5376462"><ele>139.6</ele><time>2026-03-30T14:40:46.098Z</time></trkpt><trkpt lat="45.3895817" lon="10.5375675"><ele>138.2</ele><time>2026-03-30T14:40:47.1Z</time></trkpt><trkpt lat="45.3896895" lon="10.5375078"><ele>136.8</ele><time>2026-03-30T14:40:48.098Z</time></trkpt><trkpt lat="45.3897868" lon="10.537452"><ele>135.4</ele><time>2026-03-30T14:40:49.097Z</time></trkpt><trkpt lat="45.3898722" lon="10.5374028"><ele>134.0</ele><time>2026-03-30T14:40:50.095Z</time></trkpt><trkpt lat="45.3899477" lon="10.537363"><ele>134.0</ele><time>2026-03-30T14:40:51.099Z</time></trkpt><trkpt lat="45.3900087" lon="10.537318"><ele>134.0</ele><time>2026-03-30T14:40:52.096Z</time></trkpt><trkpt lat="45.3900732" lon="10.5372698"><ele>134.0</ele><time>2026-03-30T14:40:53.093Z</time></trkpt><trkpt lat="45.3901383" lon="10.5372248"><ele>134.0</ele><time>2026-03-30T14:40:54.094Z</time></trkpt><trkpt lat="45.3902002" lon="10.5371843"><ele>134.0</ele><time>2026-03-30T14:40:55.096Z</time></trkpt><trkpt lat="45.3902837" lon="10.5371188"><ele>134.0</ele><time>2026-03-30T14:40:57.098Z</time></trkpt><trkpt lat="45.390335" lon="10.5370242"><ele>133.33333333333331</ele><time>2026-03-30T14:41:00.1Z</time></trkpt><trkpt lat="45.3903898" lon="10.536947"><ele>132.66666666666666</ele><time>2026-03-30T14:41:03.099Z</time></trkpt><trkpt lat="45.3904822" lon="10.5369222"><ele>132.0</ele><time>2026-03-30T14:41:06.1Z</time></trkpt><trkpt lat="45.390569" lon="10.5369207"><ele>131.33333333333334</ele><time>2026-03-30T14:41:09.1Z</time></trkpt><trkpt lat="45.3906377" lon="10.536903"><ele>130.66666666666669</ele><time>2026-03-30T14:41:39.097Z</time></trkpt><trkpt lat="45.3907073" lon="10.5368953"><ele>130.0</ele><time>2026-03-30T14:41:41.095Z</time></trkpt><trkpt lat="45.3907825" lon="10.5368905"><ele>128.8</ele><time>2026-03-30T14:41:42.095Z</time></trkpt><trkpt lat="45.3908773" lon="10.536887"><ele>127.6</ele><time>2026-03-30T14:41:43.094Z</time></trkpt><trkpt lat="45.3909908" lon="10.5368813"><ele>126.4</ele><time>2026-03-30T14:41:44.093Z</time></trkpt><trkpt lat="45.3911092" lon="10.5368802"><ele>125.2</ele><time>2026-03-30T14:41:45.094Z</time></trkpt><trkpt lat="45.3912278" lon="10.5368783"><ele>124.0</ele><time>2026-03-30T14:41:46.096Z</time></trkpt><trkpt lat="45.3913427" lon="10.536877"><ele>123.80000000000001</ele><time>2026-03-30T14:41:47.099Z</time></trkpt><trkpt lat="45.3914447" lon="10.5368702"><ele>123.60000000000001</ele><time>2026-03-30T14:41:48.096Z</time></trkpt><trkpt lat="45.3915387" lon="10.5368452"><ele>123.4</ele><time>2026-03-30T14:41:49.096Z</time></trkpt><trkpt lat="45.3916352" lon="10.5367908"><ele>123.2</ele><time>2026-03-30T14:41:50.094Z</time></trkpt><trkpt lat="45.3917353" lon="10.5367182"><ele>123.0</ele><time>2026-03-30T14:41:51.099Z</time></trkpt><trkpt lat="45.3918447" lon="10.5366332"><ele>123.0</ele><time>2026-03-30T14:41:52.096Z</time></trkpt><trkpt lat="45.3919682" lon="10.5365465"><ele>123.0</ele><time>2026-03-30T14:41:53.096Z</time></trkpt><trkpt lat="45.3921162" lon="10.5364438"><ele>123.0</ele><time>2026-03-30T14:41:54.099Z</time></trkpt><trkpt lat="45.3922545" lon="10.5363515"><ele>123.0</ele><time>2026-03-30T14:41:55.097Z</time></trkpt><trkpt lat="45.392384" lon="10.5362668"><ele>123.0</ele><time>2026-03-30T14:41:56.096Z</time></trkpt><trkpt lat="45.392513" lon="10.536179"><ele>123.0</ele><time>2026-03-30T14:41:57.095Z</time></trkpt><trkpt lat="45.3926403" lon="10.5360863"><ele>123.0</ele><time>2026-03-30T14:41:58.095Z</time></trkpt><trkpt lat="45.3927695" lon="10.5359923"><ele>123.0</ele><time>2026-03-30T14:41:59.098Z</time></trkpt><trkpt lat="45.3928993" lon="10.5358973"><ele>123.0</ele><time>2026-03-30T14:42:00.095Z</time></trkpt><trkpt lat="45.3930298" lon="10.5357993"><ele>123.0</ele><time>2026-03-30T14:42:01.098Z</time></trkpt><trkpt lat="45.3931557" lon="10.5357017"><ele>123.0</ele><time>2026-03-30T14:42:02.098Z</time></trkpt><trkpt lat="45.3932783" lon="10.5356033"><ele>123.25</ele><time>2026-03-30T14:42:03.097Z</time></trkpt><trkpt lat="45.3934" lon="10.5355078"><ele>123.5</ele><time>2026-03-30T14:42:04.095Z</time></trkpt><trkpt lat="45.3935217" lon="10.5354125"><ele>123.75</ele><time>2026-03-30T14:42:05.097Z</time></trkpt><trkpt lat="45.3936453" lon="10.5353177"><ele>124.0</ele><time>2026-03-30T14:42:06.096Z</time></trkpt><trkpt lat="45.3937692" lon="10.5352207"><ele>124.0</ele><time>2026-03-30T14:42:07.094Z</time></trkpt><trkpt lat="45.3938935" lon="10.5351247"><ele>124.0</ele><time>2026-03-30T14:42:08.093Z</time></trkpt><trkpt lat="45.3940172" lon="10.5350285"><ele>124.0</ele><time>2026-03-30T14:42:09.094Z</time></trkpt><trkpt lat="45.3941403" lon="10.5349318"><ele>124.0</ele><time>2026-03-30T14:42:10.094Z</time></trkpt><trkpt lat="45.3942585" lon="10.5348392"><ele>124.0</ele><time>2026-03-30T14:42:11.096Z</time></trkpt><trkpt lat="45.3943702" lon="10.5347535"><ele>124.0</ele><time>2026-03-30T14:42:12.098Z</time></trkpt><trkpt lat="45.3944795" lon="10.5346718"><ele>124.0</ele><time>2026-03-30T14:42:13.096Z</time></trkpt><trkpt lat="45.3945825" lon="10.5346045"><ele>124.0</ele><time>2026-03-30T14:42:14.099Z</time></trkpt><trkpt lat="45.3946872" lon="10.5345538"><ele>122.75</ele><time>2026-03-30T14:42:15.097Z</time></trkpt><trkpt lat="45.3947967" lon="10.5345147"><ele>121.5</ele><time>2026-03-30T14:42:16.098Z</time></trkpt><trkpt lat="45.394911" lon="10.534477"><ele>120.25</ele><time>2026-03-30T14:42:17.096Z</time></trkpt><trkpt lat="45.3950313" lon="10.5344358"><ele>119.0</ele><time>2026-03-30T14:42:18.097Z</time></trkpt><trkpt lat="45.395159" lon="10.5343935"><ele>119.0</ele><time>2026-03-30T14:42:19.101Z</time></trkpt><trkpt lat="45.3952918" lon="10.5343462"><ele>119.0</ele><time>2026-03-30T14:42:20.097Z</time></trkpt><trkpt lat="45.3954248" lon="10.5342897"><ele>119.0</ele><time>2026-03-30T14:42:21.099Z</time></trkpt><trkpt lat="45.3955575" lon="10.5342252"><ele>119.0</ele><time>2026-03-30T14:42:22.1Z</time></trkpt><trkpt lat="45.395678" lon="10.5341575"><ele>119.25</ele><time>2026-03-30T14:42:23.098Z</time></trkpt><trkpt lat="45.3957887" lon="10.5340965"><ele>119.5</ele><time>2026-03-30T14:42:24.098Z</time></trkpt><trkpt lat="45.3958975" lon="10.5340338"><ele>119.75</ele><time>2026-03-30T14:42:25.097Z</time></trkpt><trkpt lat="45.396004" lon="10.5339727"><ele>120.0</ele><time>2026-03-30T14:42:26.098Z</time></trkpt><trkpt lat="45.3961157" lon="10.5339165"><ele>120.0</ele><time>2026-03-30T14:42:27.097Z</time></trkpt><trkpt lat="45.3962317" lon="10.5338608"><ele>120.0</ele><time>2026-03-30T14:42:28.098Z</time></trkpt><trkpt lat="45.3963495" lon="10.5338162"><ele>120.0</ele><time>2026-03-30T14:42:29.099Z</time></trkpt><trkpt lat="45.3964625" lon="10.5337778"><ele>120.0</ele><time>2026-03-30T14:42:30.097Z</time></trkpt><trkpt lat="45.3965633" lon="10.5337337"><ele>120.4</ele><time>2026-03-30T14:42:31.098Z</time></trkpt><trkpt lat="45.3966552" lon="10.5336662"><ele>120.8</ele><time>2026-03-30T14:42:32.095Z</time></trkpt><trkpt lat="45.3967453" lon="10.5335818"><ele>121.19999999999999</ele><time>2026-03-30T14:42:33.095Z</time></trkpt><trkpt lat="45.3968362" lon="10.5334945"><ele>121.6</ele><time>2026-03-30T14:42:34.095Z</time></trkpt><trkpt lat="45.396926" lon="10.5334147"><ele>122.0</ele><time>2026-03-30T14:42:35.098Z</time></trkpt><trkpt lat="45.3970202" lon="10.533346"><ele>122.0</ele><time>2026-03-30T14:42:36.098Z</time></trkpt><trkpt lat="45.3971195" lon="10.53329"><ele>121.99999999999999</ele><time>2026-03-30T14:42:37.097Z</time></trkpt><trkpt lat="45.3972207" lon="10.5332432"><ele>121.99999999999999</ele><time>2026-03-30T14:42:38.099Z</time></trkpt><trkpt lat="45.3973195" lon="10.533197"><ele>122.0</ele><time>2026-03-30T14:42:39.099Z</time></trkpt><trkpt lat="45.397404" lon="10.533139"><ele>122.0</ele><time>2026-03-30T14:42:40.097Z</time></trkpt><trkpt lat="45.3974713" lon="10.5330678"><ele>122.0</ele><time>2026-03-30T14:42:41.098Z</time></trkpt><trkpt lat="45.3975287" lon="10.5329948"><ele>121.99999999999999</ele><time>2026-03-30T14:42:42.1Z</time></trkpt><trkpt lat="45.3975745" lon="10.5329228"><ele>121.99999999999999</ele><time>2026-03-30T14:42:43.097Z</time></trkpt><trkpt lat="45.3976412" lon="10.5328005"><ele>122.0</ele><time>2026-03-30T14:42:45.095Z</time></trkpt><trkpt lat="45.3976932" lon="10.5327293"><ele>122.0</ele><time>2026-03-30T14:42:52.1Z</time></trkpt><trkpt lat="45.3977853" lon="10.5325745"><ele>121.99999999999999</ele><time>2026-03-30T14:42:54.097Z</time></trkpt><trkpt lat="45.3978598" lon="10.5324552"><ele>122.0</ele><time>2026-03-30T14:42:55.096Z</time></trkpt><trkpt lat="45.3979267" lon="10.5323462"><ele>122.0</ele><time>2026-03-30T14:42:56.095Z</time></trkpt><trkpt lat="45.397983" lon="10.5322588"><ele>122.0</ele><time>2026-03-30T14:42:57.095Z</time></trkpt><trkpt lat="45.398028" lon="10.5321925"><ele>121.99999999999999</ele><time>2026-03-30T14:42:58.094Z</time></trkpt><trkpt lat="45.3980922" lon="10.532158"><ele>122.0</ele><time>2026-03-30T14:43:00.098Z</time></trkpt><trkpt lat="45.3981388" lon="10.5322212"><ele>122.99999999999999</ele><time>2026-03-30T14:43:02.102Z</time></trkpt><trkpt lat="45.3981838" lon="10.5323583"><ele>124.0</ele><time>2026-03-30T14:43:04.098Z</time></trkpt><trkpt lat="45.398221" lon="10.532463"><ele>125.0</ele><time>2026-03-30T14:43:05.098Z</time></trkpt><trkpt lat="45.3982608" lon="10.5325718"><ele>126.0</ele><time>2026-03-30T14:43:06.097Z</time></trkpt><trkpt lat="45.398297" lon="10.532673"><ele>126.99999999999999</ele><time>2026-03-30T14:43:07.098Z</time></trkpt><trkpt lat="45.3983303" lon="10.5327665"><ele>128.0</ele><time>2026-03-30T14:43:08.098Z</time></trkpt><trkpt lat="45.3983637" lon="10.5328485"><ele>128.0</ele><time>2026-03-30T14:43:09.099Z</time></trkpt><trkpt lat="45.3984282" lon="10.5329902"><ele>128.0</ele><time>2026-03-30T14:43:11.098Z</time></trkpt><trkpt lat="45.3984917" lon="10.533112"><ele>128.0</ele><time>2026-03-30T14:43:13.099Z</time></trkpt><trkpt lat="45.3985113" lon="10.5332392"><ele>128.0</ele><time>2026-03-30T14:43:16.097Z</time></trkpt><trkpt lat="45.398506" lon="10.533354"><ele>128.0</ele><time>2026-03-30T14:43:18.101Z</time></trkpt><trkpt lat="45.3985032" lon="10.5334478"><ele>128.0</ele><time>2026-03-30T14:43:20.095Z</time></trkpt><trkpt lat="45.3985312" lon="10.5335465"><ele>128.0</ele><time>2026-03-30T14:43:25.097Z</time></trkpt><trkpt lat="45.39857" lon="10.5336683"><ele>128.0</ele><time>2026-03-30T14:43:27.098Z</time></trkpt><trkpt lat="45.3986143" lon="10.53381"><ele>128.0</ele><time>2026-03-30T14:43:28.097Z</time></trkpt><trkpt lat="45.3986805" lon="10.533991"><ele>128.0</ele><time>2026-03-30T14:43:29.098Z</time></trkpt><trkpt lat="45.3987367" lon="10.534148"><ele>128.75</ele><time>2026-03-30T14:43:30.097Z</time></trkpt><trkpt lat="45.3987728" lon="10.5342718"><ele>129.5</ele><time>2026-03-30T14:43:31.098Z</time></trkpt><trkpt lat="45.3987835" lon="10.534398"><ele>130.25</ele><time>2026-03-30T14:43:32.099Z</time></trkpt><trkpt lat="45.3987703" lon="10.5345757"><ele>131.0</ele><time>2026-03-30T14:43:33.101Z</time></trkpt><trkpt lat="45.3987437" lon="10.534814"><ele>132.33333333333331</ele><time>2026-03-30T14:43:34.1Z</time></trkpt><trkpt lat="45.3987142" lon="10.5350977"><ele>133.66666666666666</ele><time>2026-03-30T14:43:35.101Z</time></trkpt><trkpt lat="45.398682" lon="10.5354015"><ele>135.0</ele><time>2026-03-30T14:43:36.098Z</time></trkpt><trkpt lat="45.3986572" lon="10.5356333"><ele>135.6</ele><time>2026-03-30T14:43:37.098Z</time></trkpt><trkpt lat="45.3986387" lon="10.5357862"><ele>136.2</ele><time>2026-03-30T14:43:38.099Z</time></trkpt><trkpt lat="45.3985777" lon="10.5358908"><ele>136.8</ele><time>2026-03-30T14:43:40.1Z</time></trkpt><trkpt lat="45.39851" lon="10.535863"><ele>137.4</ele><time>2026-03-30T14:43:41.1Z</time></trkpt><trkpt lat="45.3983905" lon="10.5357802"><ele>138.0</ele><time>2026-03-30T14:43:42.101Z</time></trkpt><trkpt lat="45.3982815" lon="10.5356857"><ele>138.0</ele><time>2026-03-30T14:43:43.099Z</time></trkpt><trkpt lat="45.3982195" lon="10.535602"><ele>138.0</ele><time>2026-03-30T14:43:44.096Z</time></trkpt><trkpt lat="45.398244" lon="10.5354995"><ele>138.0</ele><time>2026-03-30T14:43:46.096Z</time></trkpt><trkpt lat="45.398319" lon="10.5354547"><ele>138.0</ele><time>2026-03-30T14:43:47.096Z</time></trkpt><trkpt lat="45.3983838" lon="10.5354073"><ele>138.0</ele><time>2026-03-30T14:43:48.097Z</time></trkpt><trkpt lat="45.3984322" lon="10.5353463"><ele>138.0</ele><time>2026-03-30T14:43:49.098Z</time></trkpt><trkpt lat="45.3984687" lon="10.5352465"><ele>137.5</ele><time>2026-03-30T14:43:50.099Z</time></trkpt><trkpt lat="45.3984762" lon="10.5351397"><ele>137.0</ele><time>2026-03-30T14:43:51.099Z</time></trkpt><trkpt lat="45.3984492" lon="10.5350482"><ele>136.5</ele><time>2026-03-30T14:43:52.099Z</time></trkpt><trkpt lat="45.3983515" lon="10.5350387"><ele>136.0</ele><time>2026-03-30T14:43:54.099Z</time></trkpt><trkpt lat="45.3983188" lon="10.5351383"><ele>135.5</ele><time>2026-03-30T14:43:55.096Z</time></trkpt><trkpt lat="45.3982938" lon="10.5352392"><ele>135.0</ele><time>2026-03-30T14:43:56.097Z</time></trkpt><trkpt lat="45.3982275" lon="10.5352595"><ele>135.0</ele><time>2026-03-30T14:43:58.094Z</time></trkpt><trkpt lat="45.3982395" lon="10.5350432"><ele>135.0</ele><time>2026-03-30T14:44:00.098Z</time></trkpt><trkpt lat="45.3982695" lon="10.5348685"><ele>135.0</ele><time>2026-03-30T14:44:01.098Z</time></trkpt><trkpt lat="45.3983013" lon="10.5347493"><ele>135.0</ele><time>2026-03-30T14:44:02.097Z</time></trkpt><trkpt lat="45.3983488" lon="10.5346823"><ele>135.0</ele><time>2026-03-30T14:44:03.099Z</time></trkpt><trkpt lat="45.3984232" lon="10.5346603"><ele>135.0</ele><time>2026-03-30T14:44:04.099Z</time></trkpt><trkpt lat="45.398494" lon="10.534665"><ele>135.0</ele><time>2026-03-30T14:44:05.1Z</time></trkpt><trkpt lat="45.3985825" lon="10.5346105"><ele>135.0</ele><time>2026-03-30T14:44:07.098Z</time></trkpt><trkpt lat="45.3985522" lon="10.5344955"><ele>135.0</ele><time>2026-03-30T14:44:09.095Z</time></trkpt><trkpt lat="45.3984845" lon="10.5344447"><ele>135.0</ele><time>2026-03-30T14:44:10.095Z</time></trkpt><trkpt lat="45.398401" lon="10.5343743"><ele>135.0</ele><time>2026-03-30T14:44:11.096Z</time></trkpt><trkpt lat="45.3983778" lon="10.534245"><ele>134.2</ele><time>2026-03-30T14:44:13.096Z</time></trkpt><trkpt lat="45.398524" lon="10.53423"><ele>133.4</ele><time>2026-03-30T14:44:15.099Z</time></trkpt><trkpt lat="45.3986073" lon="10.5342432"><ele>132.6</ele><time>2026-03-30T14:44:16.097Z</time></trkpt><trkpt lat="45.3986935" lon="10.534198"><ele>131.8</ele><time>2026-03-30T14:44:18.098Z</time></trkpt><trkpt lat="45.3986545" lon="10.5340268"><ele>131.0</ele><time>2026-03-30T14:44:20.098Z</time></trkpt><trkpt lat="45.3985948" lon="10.5338598"><ele>131.0</ele><time>2026-03-30T14:44:21.097Z</time></trkpt><trkpt lat="45.3985453" lon="10.5337147"><ele>131.0</ele><time>2026-03-30T14:44:22.098Z</time></trkpt><trkpt lat="45.3985097" lon="10.5336193"><ele>131.0</ele><time>2026-03-30T14:44:23.096Z</time></trkpt><trkpt lat="45.3985803" lon="10.5336412"><ele>131.0</ele><time>2026-03-30T14:44:27.097Z</time></trkpt><trkpt lat="45.3986112" lon="10.5337465"><ele>131.0</ele><time>2026-03-30T14:44:28.099Z</time></trkpt><trkpt lat="45.3986643" lon="10.5339048"><ele>131.0</ele><time>2026-03-30T14:44:29.098Z</time></trkpt><trkpt lat="45.398724" lon="10.5340697"><ele>131.0</ele><time>2026-03-30T14:44:30.099Z</time></trkpt><trkpt lat="45.3987677" lon="10.5342032"><ele>131.0</ele><time>2026-03-30T14:44:31.099Z</time></trkpt><trkpt lat="45.3987917" lon="10.534335"><ele>131.0</ele><time>2026-03-30T14:44:32.099Z</time></trkpt><trkpt lat="45.3987885" lon="10.5345052"><ele>131.0</ele><time>2026-03-30T14:44:33.098Z</time></trkpt><trkpt lat="45.3987668" lon="10.5347313"><ele>132.33333333333331</ele><time>2026-03-30T14:44:34.098Z</time></trkpt><trkpt lat="45.3987373" lon="10.5350132"><ele>133.66666666666666</ele><time>2026-03-30T14:44:35.094Z</time></trkpt><trkpt lat="45.3987015" lon="10.5353342"><ele>135.0</ele><time>2026-03-30T14:44:36.094Z</time></trkpt><trkpt lat="45.3986713" lon="10.5355985"><ele>135.75</ele><time>2026-03-30T14:44:37.095Z</time></trkpt><trkpt lat="45.39865" lon="10.5357755"><ele>136.5</ele><time>2026-03-30T14:44:38.098Z</time></trkpt><trkpt lat="45.3986265" lon="10.5358708"><ele>137.25</ele><time>2026-03-30T14:44:39.101Z</time></trkpt><trkpt lat="45.3985027" lon="10.5358698"><ele>138.0</ele><time>2026-03-30T14:44:41.099Z</time></trkpt><trkpt lat="45.3983793" lon="10.535769"><ele>138.0</ele><time>2026-03-30T14:44:42.1Z</time></trkpt><trkpt lat="45.398277" lon="10.5356645"><ele>138.0</ele><time>2026-03-30T14:44:43.098Z</time></trkpt><trkpt lat="45.3982257" lon="10.535577"><ele>138.0</ele><time>2026-03-30T14:44:44.097Z</time></trkpt><trkpt lat="45.3982733" lon="10.5354855"><ele>138.0</ele><time>2026-03-30T14:44:46.098Z</time></trkpt><trkpt lat="45.398356" lon="10.5354345"><ele>138.0</ele><time>2026-03-30T14:44:47.098Z</time></trkpt><trkpt lat="45.39842" lon="10.5353767"><ele>137.5</ele><time>2026-03-30T14:44:48.099Z</time></trkpt><trkpt lat="45.3984647" lon="10.5352852"><ele>137.0</ele><time>2026-03-30T14:44:49.098Z</time></trkpt><trkpt lat="45.3984842" lon="10.5351763"><ele>136.5</ele><time>2026-03-30T14:44:50.097Z</time></trkpt><trkpt lat="45.3984698" lon="10.5350768"><ele>136.0</ele><time>2026-03-30T14:44:51.098Z</time></trkpt><trkpt lat="45.398372" lon="10.5350227"><ele>135.5</ele><time>2026-03-30T14:44:53.099Z</time></trkpt><trkpt lat="45.3983382" lon="10.5351005"><ele>135.0</ele><time>2026-03-30T14:44:54.1Z</time></trkpt><trkpt lat="45.3983127" lon="10.5352097"><ele>135.0</ele><time>2026-03-30T14:44:55.098Z</time></trkpt><trkpt lat="45.3982403" lon="10.5352772"><ele>135.0</ele><time>2026-03-30T14:44:57.098Z</time></trkpt><trkpt lat="45.3982348" lon="10.5350892"><ele>135.0</ele><time>2026-03-30T14:44:59.112Z</time></trkpt><trkpt lat="45.3982697" lon="10.534903"><ele>135.0</ele><time>2026-03-30T14:45:00.096Z</time></trkpt><trkpt lat="45.3983022" lon="10.5347637"><ele>135.0</ele><time>2026-03-30T14:45:01.095Z</time></trkpt><trkpt lat="45.3983463" lon="10.5346823"><ele>135.0</ele><time>2026-03-30T14:45:02.098Z</time></trkpt><trkpt lat="45.3984118" lon="10.5346582"><ele>135.0</ele><time>2026-03-30T14:45:03.1Z</time></trkpt><trkpt lat="45.3984852" lon="10.5346633"><ele>135.0</ele><time>2026-03-30T14:45:04.099Z</time></trkpt><trkpt lat="45.3985843" lon="10.5346233"><ele>135.0</ele><time>2026-03-30T14:45:06.098Z</time></trkpt><trkpt lat="45.3985675" lon="10.534498"><ele>135.0</ele><time>2026-03-30T14:45:08.098Z</time></trkpt><trkpt lat="45.3985025" lon="10.5344448"><ele>134.33333333333334</ele><time>2026-03-30T14:45:09.098Z</time></trkpt><trkpt lat="45.3984205" lon="10.5343852"><ele>133.66666666666666</ele><time>2026-03-30T14:45:10.097Z</time></trkpt><trkpt lat="45.3983758" lon="10.5343152"><ele>133.0</ele><time>2026-03-30T14:45:11.097Z</time></trkpt><trkpt lat="45.3984148" lon="10.534222"><ele>132.33333333333331</ele><time>2026-03-30T14:45:13.099Z</time></trkpt><trkpt lat="45.398497" lon="10.5342187"><ele>131.66666666666666</ele><time>2026-03-30T14:45:14.099Z</time></trkpt><trkpt lat="45.3985898" lon="10.5342365"><ele>131.0</ele><time>2026-03-30T14:45:15.099Z</time></trkpt><trkpt lat="45.398656" lon="10.5342422"><ele>131.0</ele><time>2026-03-30T14:45:16.097Z</time></trkpt><trkpt lat="45.3986982" lon="10.5341532"><ele>131.0</ele><time>2026-03-30T14:45:18.099Z</time></trkpt><trkpt lat="45.3986745" lon="10.5340632"><ele>131.0</ele><time>2026-03-30T14:45:19.097Z</time></trkpt><trkpt lat="45.3986212" lon="10.5339127"><ele>131.0</ele><time>2026-03-30T14:45:20.099Z</time></trkpt><trkpt lat="45.3985588" lon="10.5337422"><ele>131.0</ele><time>2026-03-30T14:45:21.097Z</time></trkpt><trkpt lat="45.3985137" lon="10.5336272"><ele>131.0</ele><time>2026-03-30T14:45:22.096Z</time></trkpt><trkpt lat="45.3985358" lon="10.5335392"><ele>131.0</ele><time>2026-03-30T14:45:24.094Z</time></trkpt><trkpt lat="45.3985877" lon="10.533654"><ele>131.0</ele><time>2026-03-30T14:45:26.096Z</time></trkpt><trkpt lat="45.3986267" lon="10.5337877"><ele>131.0</ele><time>2026-03-30T14:45:27.1Z</time></trkpt><trkpt lat="45.3986872" lon="10.5339653"><ele>131.0</ele><time>2026-03-30T14:45:28.099Z</time></trkpt><trkpt lat="45.3987433" lon="10.5341237"><ele>131.0</ele><time>2026-03-30T14:45:29.098Z</time></trkpt><trkpt lat="45.3987825" lon="10.5342497"><ele>131.0</ele><time>2026-03-30T14:45:30.098Z</time></trkpt><trkpt lat="45.3987953" lon="10.5343902"><ele>131.0</ele><time>2026-03-30T14:45:31.097Z</time></trkpt><trkpt lat="45.3987828" lon="10.5345855"><ele>131.0</ele><time>2026-03-30T14:45:32.098Z</time></trkpt><trkpt lat="45.3987562" lon="10.5348392"><ele>132.33333333333331</ele><time>2026-03-30T14:45:33.1Z</time></trkpt><trkpt lat="45.3987238" lon="10.5351392"><ele>133.66666666666666</ele><time>2026-03-30T14:45:34.099Z</time></trkpt><trkpt lat="45.3986885" lon="10.5354537"><ele>135.0</ele><time>2026-03-30T14:45:35.098Z</time></trkpt><trkpt lat="45.3986612" lon="10.535685"><ele>135.6</ele><time>2026-03-30T14:45:36.099Z</time></trkpt><trkpt lat="45.3986355" lon="10.5358315"><ele>136.2</ele><time>2026-03-30T14:45:37.099Z</time></trkpt><trkpt lat="45.3985622" lon="10.5358978"><ele>136.8</ele><time>2026-03-30T14:45:39.099Z</time></trkpt><trkpt lat="45.3984802" lon="10.5358628"><ele>137.4</ele><time>2026-03-30T14:45:41.099Z</time></trkpt><trkpt lat="45.3983883" lon="10.5358543"><ele>138.0</ele><time>2026-03-30T14:45:43.1Z</time></trkpt><trkpt lat="45.3983012" lon="10.535845"><ele>138.0</ele><time>2026-03-30T14:45:45.098Z</time></trkpt><trkpt lat="45.3982287" lon="10.5358325"><ele>138.0</ele><time>2026-03-30T14:45:47.098Z</time></trkpt></trkseg></trk></gpx>